<?xml version="1.0" encoding="UTF-8" standalone="no" ?>
<gpx xmlns="http://www.topografix.com/GPX/1/1" xmlns:xsi="http://www.w3.org/2001/XMLSchema-instance" xsi:schemaLocation="http://www.topografix.com/GPX/1/1 http://www.topografix.com/GPX/1/1/gpx.xsd" version="1.1" creator="VisuGPX - https://www.visugpx.com">
  <metadata>
    <name>Luz /Col de l'Aubisque/ 10.5</name>
    <desc><![CDATA[Moyenne 10.5 km/h  ]]></desc>
  </metadata>
  <trk>
    <name><![CDATA[Luz St Sauveur /Col de l'Aubisque_1]]></name>
    <extensions>
      <line xmlns="http://www.topografix.com/GPX/gpx_style/0/2">
        <color>0000FF</color>
        <width>4</width>
      </line>
    </extensions>
    <trkseg>
      <trkpt lat="42.87317" lon="-0.00328">
        <ele>710.2</ele>
        <time>2024-07-24T22:00:00.000Z</time>
      </trkpt>
      <trkpt lat="42.87324" lon="-0.00325">
        <ele>710.3</ele>
        <time>2024-07-24T22:00:02.467Z</time>
      </trkpt>
      <trkpt lat="42.87339" lon="-0.00327">
        <ele>710</ele>
        <time>2024-07-24T22:00:07.040Z</time>
      </trkpt>
      <trkpt lat="42.87427" lon="-0.00315">
        <ele>708.3</ele>
        <time>2024-07-24T22:00:33.929Z</time>
      </trkpt>
      <trkpt lat="42.87436" lon="-0.00318">
        <ele>707.9</ele>
        <time>2024-07-24T22:00:36.553Z</time>
      </trkpt>
      <trkpt lat="42.87444" lon="-0.00325">
        <ele>707.3</ele>
        <time>2024-07-24T22:00:39.234Z</time>
      </trkpt>
      <trkpt lat="42.87805" lon="-0.00853">
        <ele>683</ele>
        <time>2024-07-24T22:03:08.495Z</time>
      </trkpt>
      <trkpt lat="42.8799" lon="-0.01121">
        <ele>673.3</ele>
        <time>2024-07-24T22:04:26.543Z</time>
      </trkpt>
      <trkpt lat="42.88019" lon="-0.0116">
        <ele>671.3</ele>
        <time>2024-07-24T22:04:38.027Z</time>
        <extensions>
          <visugpx:TrkExtension xmlns:visugpx="https://www.visugpx.com/editgpx/">
            <visugpx:node>1</visugpx:node>
            </visugpx:TrkExtension>
        </extensions>
      </trkpt>
      <trkpt lat="42.88054" lon="-0.01189">
        <ele>669.2</ele>
        <time>2024-07-24T22:04:49.576Z</time>
      </trkpt>
      <trkpt lat="42.88219" lon="-0.01316">
        <ele>662.3</ele>
        <time>2024-07-24T22:05:44.300Z</time>
      </trkpt>
      <trkpt lat="42.88508" lon="-0.01535">
        <ele>647.9</ele>
        <time>2024-07-24T22:07:17.815Z</time>
      </trkpt>
      <trkpt lat="42.88523" lon="-0.01551">
        <ele>646.6</ele>
        <time>2024-07-24T22:07:23.185Z</time>
      </trkpt>
      <trkpt lat="42.8853" lon="-0.01564">
        <ele>645.9</ele>
        <time>2024-07-24T22:07:26.519Z</time>
      </trkpt>
      <trkpt lat="42.88534" lon="-0.01582">
        <ele>645.1</ele>
        <time>2024-07-24T22:07:30.406Z</time>
      </trkpt>
      <trkpt lat="42.88539" lon="-0.01625">
        <ele>645.4</ele>
        <time>2024-07-24T22:07:40.994Z</time>
      </trkpt>
      <trkpt lat="42.88542" lon="-0.01634">
        <ele>645.7</ele>
        <time>2024-07-24T22:07:43.655Z</time>
      </trkpt>
      <trkpt lat="42.88549" lon="-0.01646">
        <ele>645.9</ele>
        <time>2024-07-24T22:07:47.485Z</time>
      </trkpt>
      <trkpt lat="42.88565" lon="-0.01664">
        <ele>646.2</ele>
        <time>2024-07-24T22:07:54.476Z</time>
      </trkpt>
      <trkpt lat="42.88595" lon="-0.01692">
        <ele>646.9</ele>
        <time>2024-07-24T22:08:06.916Z</time>
      </trkpt>
      <trkpt lat="42.88813" lon="-0.01885">
        <ele>645.1</ele>
        <time>2024-07-24T22:09:28.919Z</time>
      </trkpt>
      <trkpt lat="42.88837" lon="-0.01915">
        <ele>644.6</ele>
        <time>2024-07-24T22:09:38.929Z</time>
      </trkpt>
      <trkpt lat="42.88851" lon="-0.0194">
        <ele>645.3</ele>
        <time>2024-07-24T22:09:47.104Z</time>
        <extensions>
          <visugpx:TrkExtension xmlns:visugpx="https://www.visugpx.com/editgpx/">
            <visugpx:node>2</visugpx:node>
            </visugpx:TrkExtension>
        </extensions>
      </trkpt>
      <trkpt lat="42.88882" lon="-0.02003">
        <ele>647.5</ele>
        <time>2024-07-24T22:10:07.410Z</time>
      </trkpt>
      <trkpt lat="42.88912" lon="-0.02048">
        <ele>650.5</ele>
        <time>2024-07-24T22:10:25.246Z</time>
      </trkpt>
      <trkpt lat="42.88968" lon="-0.02102">
        <ele>642.7</ele>
        <time>2024-07-24T22:10:44.586Z</time>
      </trkpt>
      <trkpt lat="42.88995" lon="-0.02135">
        <ele>643.9</ele>
        <time>2024-07-24T22:10:57.550Z</time>
      </trkpt>
      <trkpt lat="42.89011" lon="-0.02162">
        <ele>641.3</ele>
        <time>2024-07-24T22:11:04.726Z</time>
      </trkpt>
      <trkpt lat="42.89088" lon="-0.02319">
        <ele>637.1</ele>
        <time>2024-07-24T22:11:45.438Z</time>
      </trkpt>
      <trkpt lat="42.89107" lon="-0.02346">
        <ele>635.2</ele>
        <time>2024-07-24T22:11:53.174Z</time>
      </trkpt>
      <trkpt lat="42.89118" lon="-0.02358">
        <ele>633.7</ele>
        <time>2024-07-24T22:11:57.146Z</time>
        <extensions>
          <visugpx:TrkExtension xmlns:visugpx="https://www.visugpx.com/editgpx/">
            <visugpx:node>3</visugpx:node>
            </visugpx:TrkExtension>
        </extensions>
      </trkpt>
      <trkpt lat="42.89132" lon="-0.02371">
        <ele>633.8</ele>
        <time>2024-07-24T22:12:02.705Z</time>
      </trkpt>
      <trkpt lat="42.89142" lon="-0.02378">
        <ele>633.5</ele>
        <time>2024-07-24T22:12:06.046Z</time>
      </trkpt>
      <trkpt lat="42.8925" lon="-0.02448">
        <ele>632.3</ele>
        <time>2024-07-24T22:12:43.421Z</time>
      </trkpt>
      <trkpt lat="42.89653" lon="-0.02695">
        <ele>626.5</ele>
        <time>2024-07-24T22:15:00.227Z</time>
      </trkpt>
      <trkpt lat="42.89767" lon="-0.02767">
        <ele>624</ele>
        <time>2024-07-24T22:15:38.341Z</time>
      </trkpt>
      <trkpt lat="42.89809" lon="-0.02791">
        <ele>622.8</ele>
        <time>2024-07-24T22:15:51.892Z</time>
      </trkpt>
      <trkpt lat="42.89871" lon="-0.02823">
        <ele>622.6</ele>
        <time>2024-07-24T22:16:13.061Z</time>
      </trkpt>
      <trkpt lat="42.89887" lon="-0.02833">
        <ele>623</ele>
        <time>2024-07-24T22:16:19.151Z</time>
      </trkpt>
      <trkpt lat="42.89902" lon="-0.02844">
        <ele>622.8</ele>
        <time>2024-07-24T22:16:24.446Z</time>
      </trkpt>
      <trkpt lat="42.89945" lon="-0.02882">
        <ele>624.4</ele>
        <time>2024-07-24T22:16:42.659Z</time>
      </trkpt>
      <trkpt lat="42.90029" lon="-0.02941">
        <ele>621</ele>
        <time>2024-07-24T22:17:09.983Z</time>
        <extensions>
          <visugpx:TrkExtension xmlns:visugpx="https://www.visugpx.com/editgpx/">
            <visugpx:node>4</visugpx:node>
            </visugpx:TrkExtension>
        </extensions>
      </trkpt>
      <trkpt lat="42.90241" lon="-0.031">
        <ele>614</ele>
        <time>2024-07-24T22:18:21.423Z</time>
      </trkpt>
      <trkpt lat="42.90256" lon="-0.0311">
        <ele>614.9</ele>
        <time>2024-07-24T22:18:27.812Z</time>
      </trkpt>
      <trkpt lat="42.90308" lon="-0.03139">
        <ele>617</ele>
        <time>2024-07-24T22:18:48.183Z</time>
      </trkpt>
      <trkpt lat="42.90323" lon="-0.03146">
        <ele>619.3</ele>
        <time>2024-07-24T22:18:56.520Z</time>
      </trkpt>
      <trkpt lat="42.90341" lon="-0.03148">
        <ele>619.9</ele>
        <time>2024-07-24T22:19:02.983Z</time>
      </trkpt>
      <trkpt lat="42.90357" lon="-0.03144">
        <ele>618.2</ele>
        <time>2024-07-24T22:19:07.571Z</time>
      </trkpt>
      <trkpt lat="42.90372" lon="-0.03137">
        <ele>615.1</ele>
        <time>2024-07-24T22:19:12.042Z</time>
      </trkpt>
      <trkpt lat="42.90388" lon="-0.03136">
        <ele>614.3</ele>
        <time>2024-07-24T22:19:16.560Z</time>
      </trkpt>
      <trkpt lat="42.90397" lon="-0.03138">
        <ele>613.4</ele>
        <time>2024-07-24T22:19:19.131Z</time>
      </trkpt>
      <trkpt lat="42.90413" lon="-0.03148">
        <ele>614</ele>
        <time>2024-07-24T22:19:25.446Z</time>
      </trkpt>
      <trkpt lat="42.9043" lon="-0.03165">
        <ele>614.4</ele>
        <time>2024-07-24T22:19:32.652Z</time>
      </trkpt>
      <trkpt lat="42.90446" lon="-0.03188">
        <ele>613.9</ele>
        <time>2024-07-24T22:19:39.668Z</time>
      </trkpt>
      <trkpt lat="42.90496" lon="-0.03283">
        <ele>611.9</ele>
        <time>2024-07-24T22:20:05.401Z</time>
      </trkpt>
      <trkpt lat="42.90542" lon="-0.03354">
        <ele>608</ele>
        <time>2024-07-24T22:20:24.984Z</time>
      </trkpt>
      <trkpt lat="42.90559" lon="-0.03383">
        <ele>606.9</ele>
        <time>2024-07-24T22:20:32.752Z</time>
      </trkpt>
      <trkpt lat="42.90588" lon="-0.03452">
        <ele>602.7</ele>
        <time>2024-07-24T22:20:49.187Z</time>
      </trkpt>
      <trkpt lat="42.90592" lon="-0.03459">
        <ele>602.4</ele>
        <time>2024-07-24T22:20:51.022Z</time>
      </trkpt>
      <trkpt lat="42.906" lon="-0.03465">
        <ele>601.5</ele>
        <time>2024-07-24T22:20:53.596Z</time>
        <extensions>
          <visugpx:TrkExtension xmlns:visugpx="https://www.visugpx.com/editgpx/">
            <visugpx:node>5</visugpx:node>
            </visugpx:TrkExtension>
        </extensions>
      </trkpt>
      <trkpt lat="42.9061" lon="-0.03464">
        <ele>600.1</ele>
        <time>2024-07-24T22:20:56.424Z</time>
      </trkpt>
      <trkpt lat="42.90633" lon="-0.03455">
        <ele>603.7</ele>
        <time>2024-07-24T22:21:09.261Z</time>
      </trkpt>
      <trkpt lat="42.90644" lon="-0.03456">
        <ele>606.5</ele>
        <time>2024-07-24T22:21:18.133Z</time>
      </trkpt>
      <trkpt lat="42.90648" lon="-0.03458">
        <ele>607.5</ele>
        <time>2024-07-24T22:21:21.303Z</time>
      </trkpt>
      <trkpt lat="42.9068" lon="-0.03482">
        <ele>610.6</ele>
        <time>2024-07-24T22:21:36.809Z</time>
      </trkpt>
      <trkpt lat="42.90695" lon="-0.0349">
        <ele>611.9</ele>
        <time>2024-07-24T22:21:43.552Z</time>
      </trkpt>
      <trkpt lat="42.90722" lon="-0.03501">
        <ele>615.5</ele>
        <time>2024-07-24T22:21:57.464Z</time>
      </trkpt>
      <trkpt lat="42.90734" lon="-0.03508">
        <ele>617</ele>
        <time>2024-07-24T22:22:03.618Z</time>
      </trkpt>
      <trkpt lat="42.9076" lon="-0.0353">
        <ele>614.6</ele>
        <time>2024-07-24T22:22:12.246Z</time>
      </trkpt>
      <trkpt lat="42.90819" lon="-0.03574">
        <ele>613.9</ele>
        <time>2024-07-24T22:22:33.238Z</time>
      </trkpt>
      <trkpt lat="42.90834" lon="-0.03587">
        <ele>612.6</ele>
        <time>2024-07-24T22:22:38.249Z</time>
      </trkpt>
      <trkpt lat="42.90868" lon="-0.03621">
        <ele>608.4</ele>
        <time>2024-07-24T22:22:50.136Z</time>
      </trkpt>
      <trkpt lat="42.9088" lon="-0.0363">
        <ele>608.4</ele>
        <time>2024-07-24T22:22:54.550Z</time>
      </trkpt>
      <trkpt lat="42.90896" lon="-0.03639">
        <ele>609</ele>
        <time>2024-07-24T22:23:00.771Z</time>
      </trkpt>
      <trkpt lat="42.9093" lon="-0.03655">
        <ele>611.6</ele>
        <time>2024-07-24T22:23:15.404Z</time>
      </trkpt>
      <trkpt lat="42.90943" lon="-0.0366">
        <ele>612.1</ele>
        <time>2024-07-24T22:23:20.296Z</time>
      </trkpt>
      <trkpt lat="42.90954" lon="-0.03662">
        <ele>613.1</ele>
        <time>2024-07-24T22:23:25.094Z</time>
      </trkpt>
      <trkpt lat="42.91005" lon="-0.03664">
        <ele>619.3</ele>
        <time>2024-07-24T22:23:49.727Z</time>
      </trkpt>
      <trkpt lat="42.91066" lon="-0.03672">
        <ele>622.3</ele>
        <time>2024-07-24T22:24:12.802Z</time>
      </trkpt>
      <trkpt lat="42.9109" lon="-0.03677">
        <ele>622.4</ele>
        <time>2024-07-24T22:24:20.728Z</time>
      </trkpt>
      <trkpt lat="42.91108" lon="-0.03684">
        <ele>620.7</ele>
        <time>2024-07-24T22:24:26.007Z</time>
      </trkpt>
      <trkpt lat="42.91139" lon="-0.03703">
        <ele>613.1</ele>
        <time>2024-07-24T22:24:35.591Z</time>
      </trkpt>
      <trkpt lat="42.91152" lon="-0.03709">
        <ele>611</ele>
        <time>2024-07-24T22:24:39.462Z</time>
      </trkpt>
      <trkpt lat="42.91186" lon="-0.03721">
        <ele>606.2</ele>
        <time>2024-07-24T22:24:49.367Z</time>
      </trkpt>
      <trkpt lat="42.91214" lon="-0.03734">
        <ele>602.3</ele>
        <time>2024-07-24T22:24:57.709Z</time>
      </trkpt>
      <trkpt lat="42.91226" lon="-0.03738">
        <ele>601.3</ele>
        <time>2024-07-24T22:25:01.193Z</time>
      </trkpt>
      <trkpt lat="42.91244" lon="-0.0374">
        <ele>601.6</ele>
        <time>2024-07-24T22:25:07.323Z</time>
        <extensions>
          <visugpx:TrkExtension xmlns:visugpx="https://www.visugpx.com/editgpx/">
            <visugpx:node>6</visugpx:node>
            </visugpx:TrkExtension>
        </extensions>
      </trkpt>
      <trkpt lat="42.91254" lon="-0.03739">
        <ele>602.6</ele>
        <time>2024-07-24T22:25:11.805Z</time>
      </trkpt>
      <trkpt lat="42.91296" lon="-0.0372">
        <ele>611.8</ele>
        <time>2024-07-24T22:25:41.386Z</time>
      </trkpt>
      <trkpt lat="42.91337" lon="-0.03717">
        <ele>608.4</ele>
        <time>2024-07-24T22:25:52.967Z</time>
      </trkpt>
      <trkpt lat="42.91367" lon="-0.03702">
        <ele>614.6</ele>
        <time>2024-07-24T22:26:13.196Z</time>
      </trkpt>
      <trkpt lat="42.91382" lon="-0.03697">
        <ele>615.5</ele>
        <time>2024-07-24T22:26:19.192Z</time>
      </trkpt>
      <trkpt lat="42.91391" lon="-0.03696">
        <ele>615.1</ele>
        <time>2024-07-24T22:26:21.741Z</time>
      </trkpt>
      <trkpt lat="42.91402" lon="-0.03698">
        <ele>614.6</ele>
        <time>2024-07-24T22:26:24.871Z</time>
      </trkpt>
      <trkpt lat="42.91423" lon="-0.03707">
        <ele>611.5</ele>
        <time>2024-07-24T22:26:31.079Z</time>
      </trkpt>
      <trkpt lat="42.9153" lon="-0.03765">
        <ele>613.7</ele>
        <time>2024-07-24T22:27:10.465Z</time>
      </trkpt>
      <trkpt lat="42.91626" lon="-0.03814">
        <ele>621</ele>
        <time>2024-07-24T22:27:52.017Z</time>
      </trkpt>
      <trkpt lat="42.91638" lon="-0.03823">
        <ele>620.7</ele>
        <time>2024-07-24T22:27:56.146Z</time>
      </trkpt>
      <trkpt lat="42.91656" lon="-0.03845">
        <ele>615.1</ele>
        <time>2024-07-24T22:28:02.960Z</time>
      </trkpt>
      <trkpt lat="42.91711" lon="-0.03936">
        <ele>600.7</ele>
        <time>2024-07-24T22:28:27.332Z</time>
      </trkpt>
      <trkpt lat="42.91736" lon="-0.03973">
        <ele>595.2</ele>
        <time>2024-07-24T22:28:37.731Z</time>
      </trkpt>
      <trkpt lat="42.91752" lon="-0.03986">
        <ele>594.6</ele>
        <time>2024-07-24T22:28:43.176Z</time>
      </trkpt>
      <trkpt lat="42.91759" lon="-0.03988">
        <ele>595.7</ele>
        <time>2024-07-24T22:28:47.061Z</time>
      </trkpt>
      <trkpt lat="42.91788" lon="-0.03988">
        <ele>603.1</ele>
        <time>2024-07-24T22:29:10.515Z</time>
        <extensions>
          <visugpx:TrkExtension xmlns:visugpx="https://www.visugpx.com/editgpx/">
            <visugpx:node>7</visugpx:node>
            </visugpx:TrkExtension>
        </extensions>
      </trkpt>
      <trkpt lat="42.91804" lon="-0.03989">
        <ele>606.6</ele>
        <time>2024-07-24T22:29:21.682Z</time>
      </trkpt>
      <trkpt lat="42.91816" lon="-0.03995">
        <ele>607</ele>
        <time>2024-07-24T22:29:26.227Z</time>
      </trkpt>
      <trkpt lat="42.91826" lon="-0.04004">
        <ele>606</ele>
        <time>2024-07-24T22:29:29.605Z</time>
      </trkpt>
      <trkpt lat="42.91853" lon="-0.04034">
        <ele>598.6</ele>
        <time>2024-07-24T22:29:39.423Z</time>
      </trkpt>
      <trkpt lat="42.91861" lon="-0.04039">
        <ele>597.5</ele>
        <time>2024-07-24T22:29:41.905Z</time>
      </trkpt>
      <trkpt lat="42.91874" lon="-0.0404">
        <ele>598.1</ele>
        <time>2024-07-24T22:29:46.762Z</time>
      </trkpt>
      <trkpt lat="42.91881" lon="-0.04038">
        <ele>599.4</ele>
        <time>2024-07-24T22:29:51.080Z</time>
      </trkpt>
      <trkpt lat="42.91915" lon="-0.04021">
        <ele>606.9</ele>
        <time>2024-07-24T22:30:15.211Z</time>
      </trkpt>
      <trkpt lat="42.91924" lon="-0.04018">
        <ele>608</ele>
        <time>2024-07-24T22:30:19.640Z</time>
      </trkpt>
      <trkpt lat="42.91938" lon="-0.04019">
        <ele>607</ele>
        <time>2024-07-24T22:30:23.594Z</time>
      </trkpt>
      <trkpt lat="42.91962" lon="-0.04026">
        <ele>604.4</ele>
        <time>2024-07-24T22:30:30.516Z</time>
      </trkpt>
      <trkpt lat="42.91974" lon="-0.04027">
        <ele>604.8</ele>
        <time>2024-07-24T22:30:34.819Z</time>
      </trkpt>
      <trkpt lat="42.91997" lon="-0.04023">
        <ele>613</ele>
        <time>2024-07-24T22:31:03.031Z</time>
      </trkpt>
      <trkpt lat="42.9201" lon="-0.04026">
        <ele>620</ele>
        <time>2024-07-24T22:31:25.344Z</time>
      </trkpt>
      <trkpt lat="42.92017" lon="-0.0403">
        <ele>623</ele>
        <time>2024-07-24T22:31:36.222Z</time>
      </trkpt>
      <trkpt lat="42.92023" lon="-0.04036">
        <ele>623.8</ele>
        <time>2024-07-24T22:31:39.639Z</time>
      </trkpt>
      <trkpt lat="42.92043" lon="-0.04064">
        <ele>617.9</ele>
        <time>2024-07-24T22:31:47.718Z</time>
      </trkpt>
      <trkpt lat="42.92053" lon="-0.04075">
        <ele>615.1</ele>
        <time>2024-07-24T22:31:51.340Z</time>
      </trkpt>
      <trkpt lat="42.92069" lon="-0.04085">
        <ele>612.5</ele>
        <time>2024-07-24T22:31:56.303Z</time>
      </trkpt>
      <trkpt lat="42.92082" lon="-0.04091">
        <ele>610.8</ele>
        <time>2024-07-24T22:32:00.174Z</time>
      </trkpt>
      <trkpt lat="42.92099" lon="-0.04095">
        <ele>608.2</ele>
        <time>2024-07-24T22:32:05.039Z</time>
      </trkpt>
      <trkpt lat="42.92152" lon="-0.041">
        <ele>596.6</ele>
        <time>2024-07-24T22:32:20.024Z</time>
      </trkpt>
      <trkpt lat="42.92162" lon="-0.04099">
        <ele>595.8</ele>
        <time>2024-07-24T22:32:22.852Z</time>
      </trkpt>
      <trkpt lat="42.92212" lon="-0.04078">
        <ele>605.4</ele>
        <time>2024-07-24T22:32:54.651Z</time>
      </trkpt>
      <trkpt lat="42.92254" lon="-0.04076">
        <ele>595.7</ele>
        <time>2024-07-24T22:33:06.504Z</time>
      </trkpt>
      <trkpt lat="42.92287" lon="-0.04069">
        <ele>595.2</ele>
        <time>2024-07-24T22:33:16.789Z</time>
      </trkpt>
      <trkpt lat="42.92301" lon="-0.04072">
        <ele>590.9</ele>
        <time>2024-07-24T22:33:20.786Z</time>
      </trkpt>
      <trkpt lat="42.92334" lon="-0.04084">
        <ele>580.6</ele>
        <time>2024-07-24T22:33:30.418Z</time>
      </trkpt>
      <trkpt lat="42.9235" lon="-0.04087">
        <ele>580.2</ele>
        <time>2024-07-24T22:33:35.248Z</time>
      </trkpt>
      <trkpt lat="42.9236" lon="-0.04087">
        <ele>581.4</ele>
        <time>2024-07-24T22:33:40.050Z</time>
      </trkpt>
      <trkpt lat="42.92393" lon="-0.0408">
        <ele>593.6</ele>
        <time>2024-07-24T22:34:22.645Z</time>
      </trkpt>
      <trkpt lat="42.92406" lon="-0.04085">
        <ele>594.4</ele>
        <time>2024-07-24T22:34:27.906Z</time>
      </trkpt>
      <trkpt lat="42.92412" lon="-0.0409">
        <ele>592.8</ele>
        <time>2024-07-24T22:34:29.888Z</time>
      </trkpt>
      <trkpt lat="42.9245" lon="-0.04135">
        <ele>579</ele>
        <time>2024-07-24T22:34:44.075Z</time>
      </trkpt>
      <trkpt lat="42.9249" lon="-0.04172">
        <ele>574.9</ele>
        <time>2024-07-24T22:34:57.702Z</time>
      </trkpt>
      <trkpt lat="42.92522" lon="-0.04197">
        <ele>569.7</ele>
        <time>2024-07-24T22:35:08.100Z</time>
      </trkpt>
      <trkpt lat="42.92544" lon="-0.04211">
        <ele>565.2</ele>
        <time>2024-07-24T22:35:14.946Z</time>
      </trkpt>
      <trkpt lat="42.92562" lon="-0.04213">
        <ele>564.7</ele>
        <time>2024-07-24T22:35:20.300Z</time>
      </trkpt>
      <trkpt lat="42.92571" lon="-0.04211">
        <ele>564.9</ele>
        <time>2024-07-24T22:35:23.447Z</time>
      </trkpt>
      <trkpt lat="42.92578" lon="-0.04207">
        <ele>566.3</ele>
        <time>2024-07-24T22:35:28.077Z</time>
      </trkpt>
      <trkpt lat="42.92586" lon="-0.04199">
        <ele>569.3</ele>
        <time>2024-07-24T22:35:37.839Z</time>
      </trkpt>
      <trkpt lat="42.92605" lon="-0.04173">
        <ele>582.1</ele>
        <time>2024-07-24T22:36:23.358Z</time>
      </trkpt>
      <trkpt lat="42.92612" lon="-0.04166">
        <ele>584.4</ele>
        <time>2024-07-24T22:36:30.667Z</time>
      </trkpt>
      <trkpt lat="42.92623" lon="-0.0416">
        <ele>587.3</ele>
        <time>2024-07-24T22:36:39.850Z</time>
      </trkpt>
      <trkpt lat="42.92631" lon="-0.04159">
        <ele>587</ele>
        <time>2024-07-24T22:36:42.165Z</time>
      </trkpt>
      <trkpt lat="42.92658" lon="-0.04161">
        <ele>584.9</ele>
        <time>2024-07-24T22:36:49.791Z</time>
      </trkpt>
      <trkpt lat="42.927" lon="-0.04166">
        <ele>584.2</ele>
        <time>2024-07-24T22:37:02.711Z</time>
      </trkpt>
      <trkpt lat="42.92722" lon="-0.04172">
        <ele>583.5</ele>
        <time>2024-07-24T22:37:09.293Z</time>
      </trkpt>
      <trkpt lat="42.92777" lon="-0.04191">
        <ele>577.2</ele>
        <time>2024-07-24T22:37:25.294Z</time>
      </trkpt>
      <trkpt lat="42.92831" lon="-0.04218">
        <ele>577.6</ele>
        <time>2024-07-24T22:37:44.234Z</time>
      </trkpt>
      <trkpt lat="42.92853" lon="-0.04233">
        <ele>574.6</ele>
        <time>2024-07-24T22:37:51.170Z</time>
      </trkpt>
      <trkpt lat="42.92863" lon="-0.04242">
        <ele>572.3</ele>
        <time>2024-07-24T22:37:54.548Z</time>
        <extensions>
          <visugpx:TrkExtension xmlns:visugpx="https://www.visugpx.com/editgpx/">
            <visugpx:node>8</visugpx:node>
            </visugpx:TrkExtension>
        </extensions>
      </trkpt>
      <trkpt lat="42.92882" lon="-0.04261">
        <ele>568.6</ele>
        <time>2024-07-24T22:38:01.190Z</time>
      </trkpt>
      <trkpt lat="42.92902" lon="-0.04285">
        <ele>564.4</ele>
        <time>2024-07-24T22:38:08.699Z</time>
      </trkpt>
      <trkpt lat="42.92939" lon="-0.04336">
        <ele>558.2</ele>
        <time>2024-07-24T22:38:23.526Z</time>
      </trkpt>
      <trkpt lat="42.92964" lon="-0.04367">
        <ele>559.6</ele>
        <time>2024-07-24T22:38:35.934Z</time>
      </trkpt>
      <trkpt lat="42.92973" lon="-0.04384">
        <ele>556.9</ele>
        <time>2024-07-24T22:38:40.267Z</time>
      </trkpt>
      <trkpt lat="42.92986" lon="-0.04433">
        <ele>545.3</ele>
        <time>2024-07-24T22:38:51.030Z</time>
      </trkpt>
      <trkpt lat="42.9301" lon="-0.04492">
        <ele>535.9</ele>
        <time>2024-07-24T22:39:04.969Z</time>
      </trkpt>
      <trkpt lat="42.93022" lon="-0.04517">
        <ele>534.4</ele>
        <time>2024-07-24T22:39:11.142Z</time>
      </trkpt>
      <trkpt lat="42.93029" lon="-0.04529">
        <ele>533.5</ele>
        <time>2024-07-24T22:39:14.311Z</time>
      </trkpt>
      <trkpt lat="42.93067" lon="-0.0458">
        <ele>535.4</ele>
        <time>2024-07-24T22:39:33.525Z</time>
      </trkpt>
      <trkpt lat="42.93079" lon="-0.04593">
        <ele>534.8</ele>
        <time>2024-07-24T22:39:37.914Z</time>
      </trkpt>
      <trkpt lat="42.93089" lon="-0.04601">
        <ele>534.5</ele>
        <time>2024-07-24T22:39:41.368Z</time>
      </trkpt>
      <trkpt lat="42.93106" lon="-0.0461">
        <ele>534.4</ele>
        <time>2024-07-24T22:39:47.147Z</time>
      </trkpt>
      <trkpt lat="42.93113" lon="-0.04611">
        <ele>535.3</ele>
        <time>2024-07-24T22:39:50.624Z</time>
      </trkpt>
      <trkpt lat="42.93165" lon="-0.04607">
        <ele>542.4</ele>
        <time>2024-07-24T22:40:17.151Z</time>
      </trkpt>
      <trkpt lat="42.93205" lon="-0.04615">
        <ele>544.9</ele>
        <time>2024-07-24T22:40:33.034Z</time>
      </trkpt>
      <trkpt lat="42.93218" lon="-0.0462">
        <ele>545.4</ele>
        <time>2024-07-24T22:40:37.926Z</time>
      </trkpt>
      <trkpt lat="42.93265" lon="-0.04649">
        <ele>537.8</ele>
        <time>2024-07-24T22:40:52.473Z</time>
      </trkpt>
      <trkpt lat="42.93307" lon="-0.04667">
        <ele>539.1</ele>
        <time>2024-07-24T22:41:08.039Z</time>
      </trkpt>
      <trkpt lat="42.93319" lon="-0.04674">
        <ele>544.4</ele>
        <time>2024-07-24T22:41:27.507Z</time>
      </trkpt>
      <trkpt lat="42.93378" lon="-0.0472">
        <ele>553</ele>
        <time>2024-07-24T22:42:00.909Z</time>
      </trkpt>
      <trkpt lat="42.93401" lon="-0.0474">
        <ele>553.5</ele>
        <time>2024-07-24T22:42:10.214Z</time>
      </trkpt>
      <trkpt lat="42.93426" lon="-0.04767">
        <ele>552.3</ele>
        <time>2024-07-24T22:42:19.388Z</time>
      </trkpt>
      <trkpt lat="42.93438" lon="-0.04785">
        <ele>550.2</ele>
        <time>2024-07-24T22:42:24.415Z</time>
      </trkpt>
      <trkpt lat="42.9346" lon="-0.04847">
        <ele>525.5</ele>
        <time>2024-07-24T22:42:38.643Z</time>
      </trkpt>
      <trkpt lat="42.9347" lon="-0.04861">
        <ele>521.3</ele>
        <time>2024-07-24T22:42:42.682Z</time>
      </trkpt>
      <trkpt lat="42.93476" lon="-0.04866">
        <ele>520.8</ele>
        <time>2024-07-24T22:42:44.664Z</time>
      </trkpt>
      <trkpt lat="42.93485" lon="-0.0487">
        <ele>521</ele>
        <time>2024-07-24T22:42:47.923Z</time>
      </trkpt>
      <trkpt lat="42.935" lon="-0.0487">
        <ele>524.2</ele>
        <time>2024-07-24T22:42:58.168Z</time>
      </trkpt>
      <trkpt lat="42.93586" lon="-0.04847">
        <ele>526.4</ele>
        <time>2024-07-24T22:43:28.723Z</time>
      </trkpt>
      <trkpt lat="42.93627" lon="-0.04847">
        <ele>523.9</ele>
        <time>2024-07-24T22:43:40.288Z</time>
      </trkpt>
      <trkpt lat="42.93652" lon="-0.04851">
        <ele>523.3</ele>
        <time>2024-07-24T22:43:47.836Z</time>
        <extensions>
          <visugpx:TrkExtension xmlns:visugpx="https://www.visugpx.com/editgpx/">
            <visugpx:node>9</visugpx:node>
            </visugpx:TrkExtension>
        </extensions>
      </trkpt>
      <trkpt lat="42.93664" lon="-0.04858">
        <ele>520.7</ele>
        <time>2024-07-24T22:43:51.516Z</time>
      </trkpt>
      <trkpt lat="42.93675" lon="-0.0487">
        <ele>518.9</ele>
        <time>2024-07-24T22:43:55.487Z</time>
      </trkpt>
      <trkpt lat="42.93684" lon="-0.04885">
        <ele>516.2</ele>
        <time>2024-07-24T22:43:59.492Z</time>
      </trkpt>
      <trkpt lat="42.93694" lon="-0.04909">
        <ele>512.1</ele>
        <time>2024-07-24T22:44:05.194Z</time>
      </trkpt>
      <trkpt lat="42.93703" lon="-0.04926">
        <ele>511</ele>
        <time>2024-07-24T22:44:09.526Z</time>
      </trkpt>
      <trkpt lat="42.93722" lon="-0.04945">
        <ele>510.8</ele>
        <time>2024-07-24T22:44:16.922Z</time>
      </trkpt>
      <trkpt lat="42.93749" lon="-0.04962">
        <ele>512.6</ele>
        <time>2024-07-24T22:44:28.552Z</time>
      </trkpt>
      <trkpt lat="42.93794" lon="-0.04985">
        <ele>517.3</ele>
        <time>2024-07-24T22:44:49.888Z</time>
      </trkpt>
      <trkpt lat="42.9387" lon="-0.05027">
        <ele>517.6</ele>
        <time>2024-07-24T22:45:16.616Z</time>
      </trkpt>
      <trkpt lat="42.93883" lon="-0.05036">
        <ele>517.5</ele>
        <time>2024-07-24T22:45:21.216Z</time>
      </trkpt>
      <trkpt lat="42.93894" lon="-0.05048">
        <ele>516.5</ele>
        <time>2024-07-24T22:45:25.187Z</time>
      </trkpt>
      <trkpt lat="42.93918" lon="-0.05082">
        <ele>513.1</ele>
        <time>2024-07-24T22:45:34.939Z</time>
      </trkpt>
      <trkpt lat="42.93931" lon="-0.05108">
        <ele>512.5</ele>
        <time>2024-07-24T22:45:41.806Z</time>
      </trkpt>
      <trkpt lat="42.9394" lon="-0.0514">
        <ele>509.4</ele>
        <time>2024-07-24T22:45:48.884Z</time>
      </trkpt>
      <trkpt lat="42.93952" lon="-0.05205">
        <ele>506.5</ele>
        <time>2024-07-24T22:46:02.726Z</time>
      </trkpt>
      <trkpt lat="42.93964" lon="-0.05248">
        <ele>503.8</ele>
        <time>2024-07-24T22:46:12.228Z</time>
      </trkpt>
      <trkpt lat="42.93983" lon="-0.05297">
        <ele>501.8</ele>
        <time>2024-07-24T22:46:23.678Z</time>
      </trkpt>
      <trkpt lat="42.93988" lon="-0.05306">
        <ele>501.1</ele>
        <time>2024-07-24T22:46:26.011Z</time>
      </trkpt>
      <trkpt lat="42.93999" lon="-0.05319">
        <ele>500.5</ele>
        <time>2024-07-24T22:46:30.154Z</time>
      </trkpt>
      <trkpt lat="42.94012" lon="-0.05327">
        <ele>499.9</ele>
        <time>2024-07-24T22:46:34.205Z</time>
      </trkpt>
      <trkpt lat="42.9402" lon="-0.0533">
        <ele>499.5</ele>
        <time>2024-07-24T22:46:36.545Z</time>
      </trkpt>
      <trkpt lat="42.94039" lon="-0.05329">
        <ele>499</ele>
        <time>2024-07-24T22:46:42.205Z</time>
      </trkpt>
      <trkpt lat="42.94047" lon="-0.05325">
        <ele>499.1</ele>
        <time>2024-07-24T22:46:45.053Z</time>
      </trkpt>
      <trkpt lat="42.94054" lon="-0.0532">
        <ele>499.5</ele>
        <time>2024-07-24T22:46:48.043Z</time>
      </trkpt>
      <trkpt lat="42.9409" lon="-0.05278">
        <ele>498.5</ele>
        <time>2024-07-24T22:47:02.356Z</time>
      </trkpt>
      <trkpt lat="42.94131" lon="-0.05235">
        <ele>496.8</ele>
        <time>2024-07-24T22:47:17.445Z</time>
      </trkpt>
      <trkpt lat="42.94149" lon="-0.05221">
        <ele>496.4</ele>
        <time>2024-07-24T22:47:23.741Z</time>
      </trkpt>
      <trkpt lat="42.94158" lon="-0.05215">
        <ele>497.8</ele>
        <time>2024-07-24T22:47:28.906Z</time>
      </trkpt>
      <trkpt lat="42.94174" lon="-0.05211">
        <ele>498.6</ele>
        <time>2024-07-24T22:47:35.036Z</time>
      </trkpt>
      <trkpt lat="42.94181" lon="-0.05211">
        <ele>499.2</ele>
        <time>2024-07-24T22:47:38.017Z</time>
      </trkpt>
      <trkpt lat="42.94199" lon="-0.05216">
        <ele>500.7</ele>
        <time>2024-07-24T22:47:45.732Z</time>
      </trkpt>
      <trkpt lat="42.94219" lon="-0.05231">
        <ele>501.1</ele>
        <time>2024-07-24T22:47:53.499Z</time>
      </trkpt>
      <trkpt lat="42.94269" lon="-0.05287">
        <ele>503.9</ele>
        <time>2024-07-24T22:48:17.401Z</time>
      </trkpt>
      <trkpt lat="42.94278" lon="-0.05295">
        <ele>502.7</ele>
        <time>2024-07-24T22:48:20.429Z</time>
      </trkpt>
      <trkpt lat="42.94372" lon="-0.05354">
        <ele>499.4</ele>
        <time>2024-07-24T22:48:50.715Z</time>
      </trkpt>
      <trkpt lat="42.94389" lon="-0.05367">
        <ele>498.6</ele>
        <time>2024-07-24T22:48:56.267Z</time>
      </trkpt>
      <trkpt lat="42.94406" lon="-0.05383">
        <ele>499.8</ele>
        <time>2024-07-24T22:49:04.278Z</time>
      </trkpt>
      <trkpt lat="42.94455" lon="-0.05436">
        <ele>499.6</ele>
        <time>2024-07-24T22:49:24.228Z</time>
      </trkpt>
      <trkpt lat="42.94526" lon="-0.05525">
        <ele>496.5</ele>
        <time>2024-07-24T22:49:52.416Z</time>
      </trkpt>
      <trkpt lat="42.94599" lon="-0.0561">
        <ele>495.2</ele>
        <time>2024-07-24T22:50:22.083Z</time>
      </trkpt>
      <trkpt lat="42.94649" lon="-0.05665">
        <ele>495</ele>
        <time>2024-07-24T22:50:42.578Z</time>
      </trkpt>
      <trkpt lat="42.94664" lon="-0.05685">
        <ele>493.6</ele>
        <time>2024-07-24T22:50:48.490Z</time>
      </trkpt>
      <trkpt lat="42.94681" lon="-0.05716">
        <ele>495.8</ele>
        <time>2024-07-24T22:51:00.235Z</time>
      </trkpt>
      <trkpt lat="42.94688" lon="-0.05734">
        <ele>494.3</ele>
        <time>2024-07-24T22:51:04.444Z</time>
      </trkpt>
      <trkpt lat="42.94702" lon="-0.05788">
        <ele>498.6</ele>
        <time>2024-07-24T22:51:23.374Z</time>
      </trkpt>
      <trkpt lat="42.94719" lon="-0.05876">
        <ele>490.9</ele>
        <time>2024-07-24T22:51:42.164Z</time>
      </trkpt>
      <trkpt lat="42.94745" lon="-0.05949">
        <ele>488.8</ele>
        <time>2024-07-24T22:51:59.386Z</time>
      </trkpt>
      <trkpt lat="42.94761" lon="-0.05984">
        <ele>490.1</ele>
        <time>2024-07-24T22:52:10.542Z</time>
      </trkpt>
      <trkpt lat="42.94809" lon="-0.06062">
        <ele>489.9</ele>
        <time>2024-07-24T22:52:34.389Z</time>
      </trkpt>
      <trkpt lat="42.94849" lon="-0.06138">
        <ele>494.1</ele>
        <time>2024-07-24T22:53:01.261Z</time>
      </trkpt>
      <trkpt lat="42.94893" lon="-0.0623">
        <ele>485.8</ele>
        <time>2024-07-24T22:53:23.950Z</time>
      </trkpt>
      <trkpt lat="42.94946" lon="-0.06324">
        <ele>483.8</ele>
        <time>2024-07-24T22:53:50.056Z</time>
      </trkpt>
      <trkpt lat="42.94955" lon="-0.06344">
        <ele>484.8</ele>
        <time>2024-07-24T22:53:56.727Z</time>
      </trkpt>
      <trkpt lat="42.94985" lon="-0.06423">
        <ele>485.8</ele>
        <time>2024-07-24T22:54:18.752Z</time>
      </trkpt>
      <trkpt lat="42.94999" lon="-0.06472">
        <ele>480.9</ele>
        <time>2024-07-24T22:54:29.611Z</time>
      </trkpt>
      <trkpt lat="42.95041" lon="-0.06676">
        <ele>486.3</ele>
        <time>2024-07-24T22:55:25.399Z</time>
      </trkpt>
      <trkpt lat="42.95052" lon="-0.06717">
        <ele>480.9</ele>
        <time>2024-07-24T22:55:34.414Z</time>
      </trkpt>
      <trkpt lat="42.95057" lon="-0.06729">
        <ele>479.8</ele>
        <time>2024-07-24T22:55:37.265Z</time>
        <extensions>
          <visugpx:TrkExtension xmlns:visugpx="https://www.visugpx.com/editgpx/">
            <visugpx:node>10</visugpx:node>
            </visugpx:TrkExtension>
        </extensions>
      </trkpt>
      <trkpt lat="42.9507" lon="-0.06745">
        <ele>479.6</ele>
        <time>2024-07-24T22:55:42.711Z</time>
      </trkpt>
      <trkpt lat="42.95075" lon="-0.06736">
        <ele>479.9</ele>
        <time>2024-07-24T22:55:45.700Z</time>
      </trkpt>
      <trkpt lat="42.95082" lon="-0.0673">
        <ele>480</ele>
        <time>2024-07-24T22:55:48.466Z</time>
      </trkpt>
      <trkpt lat="42.95086" lon="-0.06729">
        <ele>479.8</ele>
        <time>2024-07-24T22:55:49.613Z</time>
      </trkpt>
      <trkpt lat="42.95095" lon="-0.0673">
        <ele>479.3</ele>
        <time>2024-07-24T22:55:52.159Z</time>
      </trkpt>
      <trkpt lat="42.95102" lon="-0.06736">
        <ele>479</ele>
        <time>2024-07-24T22:55:54.547Z</time>
      </trkpt>
      <trkpt lat="42.95104" lon="-0.0674">
        <ele>479</ele>
        <time>2024-07-24T22:55:55.690Z</time>
      </trkpt>
      <trkpt lat="42.95107" lon="-0.06751">
        <ele>479.1</ele>
        <time>2024-07-24T22:55:58.562Z</time>
      </trkpt>
      <trkpt lat="42.95106" lon="-0.06762">
        <ele>478.8</ele>
        <time>2024-07-24T22:56:00.902Z</time>
      </trkpt>
      <trkpt lat="42.95101" lon="-0.06772">
        <ele>478.6</ele>
        <time>2024-07-24T22:56:03.570Z</time>
      </trkpt>
      <trkpt lat="42.9509" lon="-0.06779">
        <ele>478.7</ele>
        <time>2024-07-24T22:56:07.583Z</time>
      </trkpt>
      <trkpt lat="42.95093" lon="-0.0679">
        <ele>478.5</ele>
        <time>2024-07-24T22:56:10.163Z</time>
      </trkpt>
      <trkpt lat="42.951" lon="-0.06811">
        <ele>478.6</ele>
        <time>2024-07-24T22:56:15.708Z</time>
      </trkpt>
      <trkpt lat="42.95126" lon="-0.06858">
        <ele>477.5</ele>
        <time>2024-07-24T22:56:28.574Z</time>
      </trkpt>
      <trkpt lat="42.95159" lon="-0.0695">
        <ele>479.4</ele>
        <time>2024-07-24T22:56:54.741Z</time>
      </trkpt>
      <trkpt lat="42.9517" lon="-0.06965">
        <ele>480.8</ele>
        <time>2024-07-24T22:57:01.459Z</time>
      </trkpt>
      <trkpt lat="42.9518" lon="-0.06973">
        <ele>481.2</ele>
        <time>2024-07-24T22:57:05.623Z</time>
      </trkpt>
      <trkpt lat="42.95192" lon="-0.06979">
        <ele>482.5</ele>
        <time>2024-07-24T22:57:11.375Z</time>
      </trkpt>
      <trkpt lat="42.95206" lon="-0.06984">
        <ele>482.8</ele>
        <time>2024-07-24T22:57:16.352Z</time>
      </trkpt>
      <trkpt lat="42.95217" lon="-0.06986">
        <ele>481.5</ele>
        <time>2024-07-24T22:57:19.481Z</time>
      </trkpt>
      <trkpt lat="42.95244" lon="-0.06988">
        <ele>480.3</ele>
        <time>2024-07-24T22:57:27.113Z</time>
      </trkpt>
      <trkpt lat="42.95276" lon="-0.07001">
        <ele>476.8</ele>
        <time>2024-07-24T22:57:36.529Z</time>
      </trkpt>
      <trkpt lat="42.95317" lon="-0.07021">
        <ele>476.6</ele>
        <time>2024-07-24T22:57:50.366Z</time>
      </trkpt>
      <trkpt lat="42.95413" lon="-0.07082">
        <ele>479.2</ele>
        <time>2024-07-24T22:58:27.218Z</time>
      </trkpt>
      <trkpt lat="42.95456" lon="-0.07117">
        <ele>481</ele>
        <time>2024-07-24T22:58:45.286Z</time>
      </trkpt>
      <trkpt lat="42.95488" lon="-0.07149">
        <ele>481.3</ele>
        <time>2024-07-24T22:58:58.372Z</time>
      </trkpt>
      <trkpt lat="42.95502" lon="-0.07167">
        <ele>481</ele>
        <time>2024-07-24T22:59:04.281Z</time>
      </trkpt>
      <trkpt lat="42.95582" lon="-0.07283">
        <ele>484</ele>
        <time>2024-07-24T22:59:45.034Z</time>
      </trkpt>
      <trkpt lat="42.9564" lon="-0.07374">
        <ele>487.4</ele>
        <time>2024-07-24T23:00:17.177Z</time>
      </trkpt>
      <trkpt lat="42.95662" lon="-0.07416">
        <ele>489.4</ele>
        <time>2024-07-24T23:00:31.596Z</time>
      </trkpt>
      <trkpt lat="42.95669" lon="-0.07439">
        <ele>490.7</ele>
        <time>2024-07-24T23:00:38.989Z</time>
      </trkpt>
      <trkpt lat="42.95675" lon="-0.07468">
        <ele>492.7</ele>
        <time>2024-07-24T23:00:48.544Z</time>
      </trkpt>
      <trkpt lat="42.95681" lon="-0.07485">
        <ele>493.4</ele>
        <time>2024-07-24T23:00:53.775Z</time>
        <extensions>
          <visugpx:TrkExtension xmlns:visugpx="https://www.visugpx.com/editgpx/">
            <visugpx:node>11</visugpx:node>
            </visugpx:TrkExtension>
        </extensions>
      </trkpt>
      <trkpt lat="42.95696" lon="-0.07505">
        <ele>492.6</ele>
        <time>2024-07-24T23:00:59.798Z</time>
      </trkpt>
      <trkpt lat="42.95707" lon="-0.0751">
        <ele>490</ele>
        <time>2024-07-24T23:01:03.068Z</time>
      </trkpt>
      <trkpt lat="42.95723" lon="-0.07512">
        <ele>486.5</ele>
        <time>2024-07-24T23:01:07.600Z</time>
      </trkpt>
      <trkpt lat="42.95739" lon="-0.07511">
        <ele>488.7</ele>
        <time>2024-07-24T23:01:15.788Z</time>
      </trkpt>
      <trkpt lat="42.9578" lon="-0.07497">
        <ele>489.8</ele>
        <time>2024-07-24T23:01:30.567Z</time>
      </trkpt>
      <trkpt lat="42.95781" lon="-0.07491">
        <ele>489.4</ele>
        <time>2024-07-24T23:01:31.837Z</time>
      </trkpt>
      <trkpt lat="42.95784" lon="-0.07487">
        <ele>489.2</ele>
        <time>2024-07-24T23:01:33.019Z</time>
      </trkpt>
      <trkpt lat="42.95791" lon="-0.07487">
        <ele>489.3</ele>
        <time>2024-07-24T23:01:35.378Z</time>
      </trkpt>
      <trkpt lat="42.95794" lon="-0.07493">
        <ele>489.6</ele>
        <time>2024-07-24T23:01:37.430Z</time>
      </trkpt>
      <trkpt lat="42.95815" lon="-0.07485">
        <ele>489</ele>
        <time>2024-07-24T23:01:43.896Z</time>
      </trkpt>
      <trkpt lat="42.9583" lon="-0.07476">
        <ele>488.1</ele>
        <time>2024-07-24T23:01:48.517Z</time>
        <extensions>
          <visugpx:TrkExtension xmlns:visugpx="https://www.visugpx.com/editgpx/">
            <visugpx:node>12</visugpx:node>
            </visugpx:TrkExtension>
        </extensions>
      </trkpt>
      <trkpt lat="42.95868" lon="-0.07457">
        <ele>486.3</ele>
        <time>2024-07-24T23:01:59.930Z</time>
      </trkpt>
      <trkpt lat="42.95926" lon="-0.07448">
        <ele>484.3</ele>
        <time>2024-07-24T23:02:16.901Z</time>
      </trkpt>
      <trkpt lat="42.96081" lon="-0.07448">
        <ele>477.1</ele>
        <time>2024-07-24T23:03:00.620Z</time>
      </trkpt>
      <trkpt lat="42.96215" lon="-0.07451">
        <ele>473.5</ele>
        <time>2024-07-24T23:03:40.446Z</time>
      </trkpt>
      <trkpt lat="42.96317" lon="-0.0745">
        <ele>469.8</ele>
        <time>2024-07-24T23:04:09.925Z</time>
      </trkpt>
      <trkpt lat="42.96334" lon="-0.07449">
        <ele>469.1</ele>
        <time>2024-07-24T23:04:14.773Z</time>
        <extensions>
          <visugpx:TrkExtension xmlns:visugpx="https://www.visugpx.com/editgpx/">
            <visugpx:node>13</visugpx:node>
            </visugpx:TrkExtension>
        </extensions>
      </trkpt>
      <trkpt lat="42.96351" lon="-0.07471">
        <ele>469.3</ele>
        <time>2024-07-24T23:04:22.523Z</time>
      </trkpt>
      <trkpt lat="42.96402" lon="-0.07534">
        <ele>468.2</ele>
        <time>2024-07-24T23:04:43.629Z</time>
      </trkpt>
      <trkpt lat="42.96423" lon="-0.07556">
        <ele>467.8</ele>
        <time>2024-07-24T23:04:51.775Z</time>
      </trkpt>
      <trkpt lat="42.96444" lon="-0.07571">
        <ele>468.1</ele>
        <time>2024-07-24T23:04:59.719Z</time>
        <extensions>
          <visugpx:TrkExtension xmlns:visugpx="https://www.visugpx.com/editgpx/">
            <visugpx:node>14</visugpx:node>
            </visugpx:TrkExtension>
        </extensions>
      </trkpt>
      <trkpt lat="42.96471" lon="-0.07582">
        <ele>467.9</ele>
        <time>2024-07-24T23:05:08.606Z</time>
      </trkpt>
      <trkpt lat="42.9651" lon="-0.07593">
        <ele>469.5</ele>
        <time>2024-07-24T23:05:23.178Z</time>
      </trkpt>
      <trkpt lat="42.96539" lon="-0.07613">
        <ele>471.6</ele>
        <time>2024-07-24T23:05:36.061Z</time>
      </trkpt>
      <trkpt lat="42.96552" lon="-0.07617">
        <ele>472.7</ele>
        <time>2024-07-24T23:05:41.675Z</time>
      </trkpt>
      <trkpt lat="42.96566" lon="-0.07616">
        <ele>473.6</ele>
        <time>2024-07-24T23:05:47.226Z</time>
      </trkpt>
      <trkpt lat="42.96578" lon="-0.07613">
        <ele>474</ele>
        <time>2024-07-24T23:05:51.586Z</time>
      </trkpt>
      <trkpt lat="42.96623" lon="-0.07595">
        <ele>478.3</ele>
        <time>2024-07-24T23:06:11.970Z</time>
      </trkpt>
      <trkpt lat="42.96645" lon="-0.07592">
        <ele>480.9</ele>
        <time>2024-07-24T23:06:22.496Z</time>
      </trkpt>
      <trkpt lat="42.96663" lon="-0.07596">
        <ele>481.7</ele>
        <time>2024-07-24T23:06:29.249Z</time>
      </trkpt>
      <trkpt lat="42.96686" lon="-0.07607">
        <ele>482.9</ele>
        <time>2024-07-24T23:06:38.434Z</time>
        <extensions>
          <visugpx:TrkExtension xmlns:visugpx="https://www.visugpx.com/editgpx/">
            <visugpx:node>15</visugpx:node>
            </visugpx:TrkExtension>
        </extensions>
      </trkpt>
      <trkpt lat="42.96725" lon="-0.07627">
        <ele>486.6</ele>
        <time>2024-07-24T23:06:56.364Z</time>
      </trkpt>
      <trkpt lat="42.96771" lon="-0.07658">
        <ele>492.9</ele>
        <time>2024-07-24T23:07:21.243Z</time>
      </trkpt>
      <trkpt lat="42.96792" lon="-0.07676">
        <ele>495</ele>
        <time>2024-07-24T23:07:31.764Z</time>
      </trkpt>
      <trkpt lat="42.96834" lon="-0.07718">
        <ele>497.9</ele>
        <time>2024-07-24T23:07:51.801Z</time>
      </trkpt>
      <trkpt lat="42.9686" lon="-0.07748">
        <ele>501.1</ele>
        <time>2024-07-24T23:08:06.714Z</time>
      </trkpt>
      <trkpt lat="42.96903" lon="-0.07803">
        <ele>506.3</ele>
        <time>2024-07-24T23:08:32.019Z</time>
      </trkpt>
      <trkpt lat="42.96931" lon="-0.07832">
        <ele>506.6</ele>
        <time>2024-07-24T23:08:43.647Z</time>
      </trkpt>
      <trkpt lat="42.96967" lon="-0.07865">
        <ele>508.8</ele>
        <time>2024-07-24T23:09:00.066Z</time>
      </trkpt>
      <trkpt lat="42.96981" lon="-0.07881">
        <ele>509.9</ele>
        <time>2024-07-24T23:09:07.199Z</time>
      </trkpt>
      <trkpt lat="42.97009" lon="-0.07918">
        <ele>511.7</ele>
        <time>2024-07-24T23:09:21.734Z</time>
      </trkpt>
      <trkpt lat="42.97044" lon="-0.07979">
        <ele>518.1</ele>
        <time>2024-07-24T23:09:48.284Z</time>
        <extensions>
          <visugpx:TrkExtension xmlns:visugpx="https://www.visugpx.com/editgpx/">
            <visugpx:node>16</visugpx:node>
            </visugpx:TrkExtension>
        </extensions>
      </trkpt>
      <trkpt lat="42.97073" lon="-0.08022">
        <ele>521.8</ele>
        <time>2024-07-24T23:10:06.554Z</time>
      </trkpt>
      <trkpt lat="42.97089" lon="-0.0805">
        <ele>523.8</ele>
        <time>2024-07-24T23:10:17.299Z</time>
      </trkpt>
      <trkpt lat="42.97113" lon="-0.08126">
        <ele>526.3</ele>
        <time>2024-07-24T23:10:39.542Z</time>
      </trkpt>
      <trkpt lat="42.97129" lon="-0.08171">
        <ele>531.8</ele>
        <time>2024-07-24T23:10:59.166Z</time>
      </trkpt>
      <trkpt lat="42.97143" lon="-0.08198">
        <ele>530.3</ele>
        <time>2024-07-24T23:11:05.996Z</time>
      </trkpt>
      <trkpt lat="42.9716" lon="-0.08221">
        <ele>533</ele>
        <time>2024-07-24T23:11:17.194Z</time>
      </trkpt>
      <trkpt lat="42.972" lon="-0.08258">
        <ele>534.8</ele>
        <time>2024-07-24T23:11:34.704Z</time>
      </trkpt>
      <trkpt lat="42.97227" lon="-0.08277">
        <ele>535.7</ele>
        <time>2024-07-24T23:11:45.446Z</time>
      </trkpt>
      <trkpt lat="42.97255" lon="-0.0829">
        <ele>537.3</ele>
        <time>2024-07-24T23:11:56.771Z</time>
      </trkpt>
      <trkpt lat="42.97322" lon="-0.08316">
        <ele>540.6</ele>
        <time>2024-07-24T23:12:22.862Z</time>
      </trkpt>
      <trkpt lat="42.97375" lon="-0.08349">
        <ele>542.4</ele>
        <time>2024-07-24T23:12:43.549Z</time>
      </trkpt>
      <trkpt lat="42.97403" lon="-0.08363">
        <ele>544.1</ele>
        <time>2024-07-24T23:12:55.077Z</time>
      </trkpt>
      <trkpt lat="42.97442" lon="-0.08379">
        <ele>545.1</ele>
        <time>2024-07-24T23:13:09.250Z</time>
      </trkpt>
      <trkpt lat="42.97455" lon="-0.08387">
        <ele>544.9</ele>
        <time>2024-07-24T23:13:13.653Z</time>
      </trkpt>
      <trkpt lat="42.97478" lon="-0.08405">
        <ele>545.4</ele>
        <time>2024-07-24T23:13:22.714Z</time>
      </trkpt>
      <trkpt lat="42.97535" lon="-0.08458">
        <ele>549.1</ele>
        <time>2024-07-24T23:13:49.077Z</time>
      </trkpt>
      <trkpt lat="42.97547" lon="-0.08474">
        <ele>552.5</ele>
        <time>2024-07-24T23:14:00.062Z</time>
      </trkpt>
      <trkpt lat="42.97563" lon="-0.08502">
        <ele>553.7</ele>
        <time>2024-07-24T23:14:09.761Z</time>
      </trkpt>
      <trkpt lat="42.97591" lon="-0.08529">
        <ele>554.6</ele>
        <time>2024-07-24T23:14:21.753Z</time>
      </trkpt>
      <trkpt lat="42.97607" lon="-0.08548">
        <ele>556</ele>
        <time>2024-07-24T23:14:30.198Z</time>
      </trkpt>
      <trkpt lat="42.97617" lon="-0.08567">
        <ele>554.5</ele>
        <time>2024-07-24T23:14:35.028Z</time>
      </trkpt>
      <trkpt lat="42.9762" lon="-0.08578">
        <ele>554.6</ele>
        <time>2024-07-24T23:14:37.899Z</time>
      </trkpt>
      <trkpt lat="42.97625" lon="-0.08617">
        <ele>557.8</ele>
        <time>2024-07-24T23:14:51.345Z</time>
      </trkpt>
      <trkpt lat="42.97622" lon="-0.0866">
        <ele>557.1</ele>
        <time>2024-07-24T23:15:00.870Z</time>
      </trkpt>
      <trkpt lat="42.97623" lon="-0.08681">
        <ele>555.3</ele>
        <time>2024-07-24T23:15:05.213Z</time>
      </trkpt>
      <trkpt lat="42.97633" lon="-0.08743">
        <ele>554.4</ele>
        <time>2024-07-24T23:15:19.329Z</time>
      </trkpt>
      <trkpt lat="42.97637" lon="-0.08758">
        <ele>554.2</ele>
        <time>2024-07-24T23:15:22.903Z</time>
      </trkpt>
      <trkpt lat="42.97647" lon="-0.08781">
        <ele>553.4</ele>
        <time>2024-07-24T23:15:28.485Z</time>
      </trkpt>
      <trkpt lat="42.97654" lon="-0.08792">
        <ele>551.7</ele>
        <time>2024-07-24T23:15:31.493Z</time>
      </trkpt>
      <trkpt lat="42.97722" lon="-0.08879">
        <ele>546.3</ele>
        <time>2024-07-24T23:15:57.765Z</time>
      </trkpt>
      <trkpt lat="42.97734" lon="-0.08889">
        <ele>545</ele>
        <time>2024-07-24T23:16:01.729Z</time>
      </trkpt>
      <trkpt lat="42.9775" lon="-0.08896">
        <ele>541.5</ele>
        <time>2024-07-24T23:16:06.467Z</time>
      </trkpt>
      <trkpt lat="42.97758" lon="-0.08897">
        <ele>540.8</ele>
        <time>2024-07-24T23:16:08.733Z</time>
      </trkpt>
      <trkpt lat="42.97775" lon="-0.08892">
        <ele>539.1</ele>
        <time>2024-07-24T23:16:13.638Z</time>
      </trkpt>
      <trkpt lat="42.97783" lon="-0.08893">
        <ele>538.2</ele>
        <time>2024-07-24T23:16:15.904Z</time>
      </trkpt>
      <trkpt lat="42.97789" lon="-0.08896">
        <ele>537.3</ele>
        <time>2024-07-24T23:16:17.706Z</time>
      </trkpt>
      <trkpt lat="42.97801" lon="-0.08905">
        <ele>536</ele>
        <time>2024-07-24T23:16:21.567Z</time>
      </trkpt>
      <trkpt lat="42.97831" lon="-0.08941">
        <ele>533</ele>
        <time>2024-07-24T23:16:32.827Z</time>
      </trkpt>
      <trkpt lat="42.97841" lon="-0.0895">
        <ele>532.6</ele>
        <time>2024-07-24T23:16:36.316Z</time>
      </trkpt>
      <trkpt lat="42.97875" lon="-0.08964">
        <ele>530.9</ele>
        <time>2024-07-24T23:16:46.332Z</time>
      </trkpt>
      <trkpt lat="42.97933" lon="-0.09013">
        <ele>533.1</ele>
        <time>2024-07-24T23:17:10.656Z</time>
      </trkpt>
      <trkpt lat="42.97954" lon="-0.09028">
        <ele>535</ele>
        <time>2024-07-24T23:17:20.558Z</time>
      </trkpt>
      <trkpt lat="42.97966" lon="-0.09033">
        <ele>535.6</ele>
        <time>2024-07-24T23:17:25.264Z</time>
      </trkpt>
      <trkpt lat="42.97994" lon="-0.09037">
        <ele>536</ele>
        <time>2024-07-24T23:17:34.749Z</time>
      </trkpt>
      <trkpt lat="42.98023" lon="-0.09049">
        <ele>537.9</ele>
        <time>2024-07-24T23:17:46.688Z</time>
      </trkpt>
      <trkpt lat="42.98036" lon="-0.09063">
        <ele>539.5</ele>
        <time>2024-07-24T23:17:54.008Z</time>
      </trkpt>
      <trkpt lat="42.98043" lon="-0.09081">
        <ele>540.8</ele>
        <time>2024-07-24T23:18:00.391Z</time>
        <extensions>
          <visugpx:TrkExtension xmlns:visugpx="https://www.visugpx.com/editgpx/">
            <visugpx:node>17</visugpx:node>
            </visugpx:TrkExtension>
        </extensions>
      </trkpt>
      <trkpt lat="42.98049" lon="-0.09081">
        <ele>540.8</ele>
        <time>2024-07-24T23:18:02.325Z</time>
      </trkpt>
      <trkpt lat="42.98052" lon="-0.09088">
        <ele>541.3</ele>
        <time>2024-07-24T23:18:04.840Z</time>
      </trkpt>
      <trkpt lat="42.98049" lon="-0.09095">
        <ele>541.8</ele>
        <time>2024-07-24T23:18:07.354Z</time>
      </trkpt>
      <trkpt lat="42.98046" lon="-0.09096">
        <ele>541.9</ele>
        <time>2024-07-24T23:18:08.456Z</time>
      </trkpt>
      <trkpt lat="42.98043" lon="-0.09095">
        <ele>541.8</ele>
        <time>2024-07-24T23:18:09.359Z</time>
      </trkpt>
      <trkpt lat="42.98041" lon="-0.09092">
        <ele>541.6</ele>
        <time>2024-07-24T23:18:10.197Z</time>
      </trkpt>
      <trkpt lat="42.98032" lon="-0.09103">
        <ele>542.4</ele>
        <time>2024-07-24T23:18:15.011Z</time>
      </trkpt>
      <trkpt lat="42.98029" lon="-0.09118">
        <ele>543.2</ele>
        <time>2024-07-24T23:18:19.609Z</time>
      </trkpt>
      <trkpt lat="42.98027" lon="-0.09147">
        <ele>544.3</ele>
        <time>2024-07-24T23:18:27.704Z</time>
      </trkpt>
      <trkpt lat="42.98026" lon="-0.09185">
        <ele>546.3</ele>
        <time>2024-07-24T23:18:39.007Z</time>
      </trkpt>
      <trkpt lat="42.98028" lon="-0.09221">
        <ele>548</ele>
        <time>2024-07-24T23:18:49.472Z</time>
      </trkpt>
      <trkpt lat="42.98035" lon="-0.09275">
        <ele>551.7</ele>
        <time>2024-07-24T23:19:06.946Z</time>
      </trkpt>
      <trkpt lat="42.98042" lon="-0.09297">
        <ele>553.7</ele>
        <time>2024-07-24T23:19:15.194Z</time>
      </trkpt>
      <trkpt lat="42.98056" lon="-0.0932">
        <ele>555.5</ele>
        <time>2024-07-24T23:19:24.406Z</time>
      </trkpt>
      <trkpt lat="42.98133" lon="-0.0943">
        <ele>566.8</ele>
        <time>2024-07-24T23:20:14.494Z</time>
      </trkpt>
      <trkpt lat="42.98162" lon="-0.09461">
        <ele>571.3</ele>
        <time>2024-07-24T23:20:32.313Z</time>
      </trkpt>
      <trkpt lat="42.98142" lon="-0.09457">
        <ele>572</ele>
        <time>2024-07-24T23:20:39.579Z</time>
        <extensions>
          <visugpx:TrkExtension xmlns:visugpx="https://www.visugpx.com/editgpx/">
            <visugpx:node>18</visugpx:node>
            </visugpx:TrkExtension>
        </extensions>
      </trkpt>
      <trkpt lat="42.98162" lon="-0.09461">
        <ele>571.3</ele>
        <time>2024-07-24T23:20:45.449Z</time>
      </trkpt>
      <trkpt lat="42.98171" lon="-0.09468">
        <ele>572.1</ele>
        <time>2024-07-24T23:20:49.734Z</time>
      </trkpt>
      <trkpt lat="42.98176" lon="-0.0947">
        <ele>572.2</ele>
        <time>2024-07-24T23:20:51.516Z</time>
      </trkpt>
      <trkpt lat="42.982" lon="-0.09472">
        <ele>571.3</ele>
        <time>2024-07-24T23:20:58.442Z</time>
      </trkpt>
      <trkpt lat="42.98219" lon="-0.09478">
        <ele>570.8</ele>
        <time>2024-07-24T23:21:04.258Z</time>
      </trkpt>
      <trkpt lat="42.98244" lon="-0.09494">
        <ele>570.4</ele>
        <time>2024-07-24T23:21:12.771Z</time>
      </trkpt>
      <trkpt lat="42.98309" lon="-0.09546">
        <ele>572.1</ele>
        <time>2024-07-24T23:21:38.821Z</time>
      </trkpt>
      <trkpt lat="42.98324" lon="-0.09561">
        <ele>572.1</ele>
        <time>2024-07-24T23:21:44.812Z</time>
      </trkpt>
      <trkpt lat="42.9833" lon="-0.0957">
        <ele>572.9</ele>
        <time>2024-07-24T23:21:48.660Z</time>
      </trkpt>
      <trkpt lat="42.9836" lon="-0.09644">
        <ele>581.5</ele>
        <time>2024-07-24T23:22:20.487Z</time>
      </trkpt>
      <trkpt lat="42.98382" lon="-0.09693">
        <ele>584.1</ele>
        <time>2024-07-24T23:22:37.010Z</time>
      </trkpt>
      <trkpt lat="42.98401" lon="-0.0975">
        <ele>589.5</ele>
        <time>2024-07-24T23:22:58.845Z</time>
      </trkpt>
      <trkpt lat="42.98412" lon="-0.09778">
        <ele>592.2</ele>
        <time>2024-07-24T23:23:09.856Z</time>
      </trkpt>
      <trkpt lat="42.98425" lon="-0.09802">
        <ele>594.4</ele>
        <time>2024-07-24T23:23:19.655Z</time>
      </trkpt>
      <trkpt lat="42.98455" lon="-0.09844">
        <ele>594.9</ele>
        <time>2024-07-24T23:23:34.006Z</time>
      </trkpt>
      <trkpt lat="42.98472" lon="-0.09884">
        <ele>596.3</ele>
        <time>2024-07-24T23:23:46.438Z</time>
      </trkpt>
      <trkpt lat="42.98516" lon="-0.09967">
        <ele>598.4</ele>
        <time>2024-07-24T23:24:12.825Z</time>
      </trkpt>
      <trkpt lat="42.98537" lon="-0.10003">
        <ele>599.3</ele>
        <time>2024-07-24T23:24:24.630Z</time>
      </trkpt>
      <trkpt lat="42.98555" lon="-0.10047">
        <ele>599.5</ele>
        <time>2024-07-24T23:24:36.719Z</time>
      </trkpt>
      <trkpt lat="42.98592" lon="-0.1015">
        <ele>602.3</ele>
        <time>2024-07-24T23:25:06.768Z</time>
      </trkpt>
      <trkpt lat="42.98597" lon="-0.10176">
        <ele>604.5</ele>
        <time>2024-07-24T23:25:15.942Z</time>
      </trkpt>
      <trkpt lat="42.98602" lon="-0.10231">
        <ele>608.3</ele>
        <time>2024-07-24T23:25:33.691Z</time>
      </trkpt>
      <trkpt lat="42.98607" lon="-0.10263">
        <ele>608.8</ele>
        <time>2024-07-24T23:25:41.927Z</time>
      </trkpt>
      <trkpt lat="42.98607" lon="-0.10353">
        <ele>612.9</ele>
        <time>2024-07-24T23:26:07.831Z</time>
      </trkpt>
      <trkpt lat="42.98609" lon="-0.10396">
        <ele>617.4</ele>
        <time>2024-07-24T23:26:24.268Z</time>
      </trkpt>
      <trkpt lat="42.98616" lon="-0.10432">
        <ele>621.9</ele>
        <time>2024-07-24T23:26:39.712Z</time>
      </trkpt>
      <trkpt lat="42.98625" lon="-0.10455">
        <ele>623.7</ele>
        <time>2024-07-24T23:26:48.083Z</time>
      </trkpt>
      <trkpt lat="42.98633" lon="-0.1047">
        <ele>624.2</ele>
        <time>2024-07-24T23:26:52.999Z</time>
        <extensions>
          <visugpx:TrkExtension xmlns:visugpx="https://www.visugpx.com/editgpx/">
            <visugpx:node>19</visugpx:node>
            </visugpx:TrkExtension>
        </extensions>
      </trkpt>
      <trkpt lat="42.98652" lon="-0.105">
        <ele>627.1</ele>
        <time>2024-07-24T23:27:05.982Z</time>
      </trkpt>
      <trkpt lat="42.98691" lon="-0.10545">
        <ele>631.8</ele>
        <time>2024-07-24T23:27:28.199Z</time>
      </trkpt>
      <trkpt lat="42.98737" lon="-0.10625">
        <ele>637.5</ele>
        <time>2024-07-24T23:27:58.928Z</time>
      </trkpt>
      <trkpt lat="42.98743" lon="-0.10636">
        <ele>637.9</ele>
        <time>2024-07-24T23:28:02.597Z</time>
      </trkpt>
      <trkpt lat="42.98748" lon="-0.1065">
        <ele>638</ele>
        <time>2024-07-24T23:28:06.372Z</time>
      </trkpt>
      <trkpt lat="42.9875" lon="-0.1068">
        <ele>637.5</ele>
        <time>2024-07-24T23:28:13.002Z</time>
      </trkpt>
      <trkpt lat="42.98748" lon="-0.10703">
        <ele>637.1</ele>
        <time>2024-07-24T23:28:18.086Z</time>
      </trkpt>
      <trkpt lat="42.98743" lon="-0.10722">
        <ele>637.3</ele>
        <time>2024-07-24T23:28:23.052Z</time>
      </trkpt>
      <trkpt lat="42.98722" lon="-0.10769">
        <ele>636.3</ele>
        <time>2024-07-24T23:28:35.097Z</time>
      </trkpt>
      <trkpt lat="42.9871" lon="-0.10788">
        <ele>636.2</ele>
        <time>2024-07-24T23:28:40.918Z</time>
      </trkpt>
      <trkpt lat="42.98669" lon="-0.10829">
        <ele>637</ele>
        <time>2024-07-24T23:28:58.115Z</time>
      </trkpt>
      <trkpt lat="42.98651" lon="-0.10853">
        <ele>637.1</ele>
        <time>2024-07-24T23:29:06.320Z</time>
      </trkpt>
      <trkpt lat="42.98646" lon="-0.10861">
        <ele>637.2</ele>
        <time>2024-07-24T23:29:08.903Z</time>
      </trkpt>
      <trkpt lat="42.98638" lon="-0.10882">
        <ele>637.3</ele>
        <time>2024-07-24T23:29:14.587Z</time>
      </trkpt>
      <trkpt lat="42.98631" lon="-0.10909">
        <ele>637</ele>
        <time>2024-07-24T23:29:21.053Z</time>
      </trkpt>
      <trkpt lat="42.98628" lon="-0.10936">
        <ele>637.6</ele>
        <time>2024-07-24T23:29:28.129Z</time>
      </trkpt>
      <trkpt lat="42.9863" lon="-0.10982">
        <ele>638</ele>
        <time>2024-07-24T23:29:39.403Z</time>
      </trkpt>
      <trkpt lat="42.9865" lon="-0.1113">
        <ele>639.5</ele>
        <time>2024-07-24T23:30:16.425Z</time>
      </trkpt>
      <trkpt lat="42.98655" lon="-0.11193">
        <ele>641.1</ele>
        <time>2024-07-24T23:30:33.082Z</time>
      </trkpt>
      <trkpt lat="42.98656" lon="-0.11234">
        <ele>640.1</ele>
        <time>2024-07-24T23:30:41.830Z</time>
      </trkpt>
      <trkpt lat="42.9865" lon="-0.11342">
        <ele>641.3</ele>
        <time>2024-07-24T23:31:08.601Z</time>
      </trkpt>
      <trkpt lat="42.98646" lon="-0.11376">
        <ele>642.2</ele>
        <time>2024-07-24T23:31:17.688Z</time>
      </trkpt>
      <trkpt lat="42.98641" lon="-0.11398">
        <ele>642.7</ele>
        <time>2024-07-24T23:31:23.650Z</time>
      </trkpt>
      <trkpt lat="42.98624" lon="-0.1145">
        <ele>643.9</ele>
        <time>2024-07-24T23:31:38.350Z</time>
      </trkpt>
      <trkpt lat="42.98606" lon="-0.1152">
        <ele>643.8</ele>
        <time>2024-07-24T23:31:55.748Z</time>
      </trkpt>
      <trkpt lat="42.98609" lon="-0.11532">
        <ele>643.1</ele>
        <time>2024-07-24T23:31:58.364Z</time>
      </trkpt>
      <trkpt lat="42.98608" lon="-0.11546">
        <ele>642.7</ele>
        <time>2024-07-24T23:32:01.315Z</time>
      </trkpt>
      <trkpt lat="42.98611" lon="-0.11558">
        <ele>641.9</ele>
        <time>2024-07-24T23:32:03.932Z</time>
        <extensions>
          <visugpx:TrkExtension xmlns:visugpx="https://www.visugpx.com/editgpx/">
            <visugpx:node>20</visugpx:node>
            </visugpx:TrkExtension>
        </extensions>
      </trkpt>
      <trkpt lat="42.98608" lon="-0.11546">
        <ele>642.7</ele>
        <time>2024-07-24T23:32:07.890Z</time>
      </trkpt>
      <trkpt lat="42.98609" lon="-0.11532">
        <ele>643.1</ele>
        <time>2024-07-24T23:32:11.639Z</time>
      </trkpt>
      <trkpt lat="42.98606" lon="-0.1152">
        <ele>643.8</ele>
        <time>2024-07-24T23:32:15.454Z</time>
      </trkpt>
      <trkpt lat="42.98597" lon="-0.11542">
        <ele>644</ele>
        <time>2024-07-24T23:32:21.602Z</time>
      </trkpt>
      <trkpt lat="42.98584" lon="-0.11561">
        <ele>644.7</ele>
        <time>2024-07-24T23:32:28.490Z</time>
      </trkpt>
      <trkpt lat="42.98576" lon="-0.11568">
        <ele>645.3</ele>
        <time>2024-07-24T23:32:32.238Z</time>
      </trkpt>
      <trkpt lat="42.98545" lon="-0.11584">
        <ele>647.7</ele>
        <time>2024-07-24T23:32:45.727Z</time>
      </trkpt>
      <trkpt lat="42.98532" lon="-0.11593">
        <ele>648.3</ele>
        <time>2024-07-24T23:32:51.077Z</time>
      </trkpt>
      <trkpt lat="42.98516" lon="-0.11606">
        <ele>649.5</ele>
        <time>2024-07-24T23:32:58.454Z</time>
      </trkpt>
      <trkpt lat="42.98499" lon="-0.11625">
        <ele>650.1</ele>
        <time>2024-07-24T23:33:06.165Z</time>
      </trkpt>
      <trkpt lat="42.98489" lon="-0.11647">
        <ele>650.3</ele>
        <time>2024-07-24T23:33:12.476Z</time>
      </trkpt>
      <trkpt lat="42.98473" lon="-0.11719">
        <ele>652.7</ele>
        <time>2024-07-24T23:33:32.844Z</time>
      </trkpt>
      <trkpt lat="42.98465" lon="-0.1174">
        <ele>654.6</ele>
        <time>2024-07-24T23:33:40.862Z</time>
      </trkpt>
      <trkpt lat="42.98392" lon="-0.11889">
        <ele>672.3</ele>
        <time>2024-07-24T23:34:47.339Z</time>
      </trkpt>
      <trkpt lat="42.98362" lon="-0.11955">
        <ele>675.1</ele>
        <time>2024-07-24T23:35:08.764Z</time>
      </trkpt>
      <trkpt lat="42.98318" lon="-0.12041">
        <ele>678.8</ele>
        <time>2024-07-24T23:35:37.601Z</time>
      </trkpt>
      <trkpt lat="42.98305" lon="-0.12073">
        <ele>678.3</ele>
        <time>2024-07-24T23:35:45.756Z</time>
      </trkpt>
      <trkpt lat="42.98298" lon="-0.12108">
        <ele>678.6</ele>
        <time>2024-07-24T23:35:54.617Z</time>
      </trkpt>
      <trkpt lat="42.98297" lon="-0.12135">
        <ele>678.7</ele>
        <time>2024-07-24T23:36:01.093Z</time>
      </trkpt>
      <trkpt lat="42.98306" lon="-0.12206">
        <ele>682</ele>
        <time>2024-07-24T23:36:21.857Z</time>
      </trkpt>
      <trkpt lat="42.98314" lon="-0.123">
        <ele>685.3</ele>
        <time>2024-07-24T23:36:47.815Z</time>
      </trkpt>
      <trkpt lat="42.98313" lon="-0.12328">
        <ele>686.4</ele>
        <time>2024-07-24T23:36:55.657Z</time>
      </trkpt>
      <trkpt lat="42.98306" lon="-0.12389">
        <ele>688.8</ele>
        <time>2024-07-24T23:37:12.900Z</time>
      </trkpt>
      <trkpt lat="42.98305" lon="-0.12414">
        <ele>687.4</ele>
        <time>2024-07-24T23:37:18.066Z</time>
      </trkpt>
      <trkpt lat="42.98325" lon="-0.12519">
        <ele>682.6</ele>
        <time>2024-07-24T23:37:40.455Z</time>
      </trkpt>
      <trkpt lat="42.98328" lon="-0.12584">
        <ele>674</ele>
        <time>2024-07-24T23:37:53.893Z</time>
      </trkpt>
      <trkpt lat="42.98326" lon="-0.12618">
        <ele>670</ele>
        <time>2024-07-24T23:38:00.932Z</time>
      </trkpt>
      <trkpt lat="42.9832" lon="-0.12639">
        <ele>670.6</ele>
        <time>2024-07-24T23:38:06.893Z</time>
      </trkpt>
      <trkpt lat="42.98291" lon="-0.127">
        <ele>676.3</ele>
        <time>2024-07-24T23:38:31.306Z</time>
      </trkpt>
      <trkpt lat="42.9828" lon="-0.12733">
        <ele>675.9</ele>
        <time>2024-07-24T23:38:39.473Z</time>
      </trkpt>
      <trkpt lat="42.98275" lon="-0.12754">
        <ele>675.3</ele>
        <time>2024-07-24T23:38:44.130Z</time>
      </trkpt>
      <trkpt lat="42.98263" lon="-0.12822">
        <ele>671.9</ele>
        <time>2024-07-24T23:38:58.564Z</time>
      </trkpt>
      <trkpt lat="42.9825" lon="-0.12929">
        <ele>669.6</ele>
        <time>2024-07-24T23:39:21.996Z</time>
      </trkpt>
      <trkpt lat="42.98239" lon="-0.12968">
        <ele>672.9</ele>
        <time>2024-07-24T23:39:36.063Z</time>
      </trkpt>
      <trkpt lat="42.98225" lon="-0.12999">
        <ele>677.8</ele>
        <time>2024-07-24T23:39:52.285Z</time>
      </trkpt>
      <trkpt lat="42.98219" lon="-0.13019">
        <ele>679.7</ele>
        <time>2024-07-24T23:39:59.882Z</time>
      </trkpt>
      <trkpt lat="42.98211" lon="-0.1311">
        <ele>678.6</ele>
        <time>2024-07-24T23:40:20.442Z</time>
      </trkpt>
      <trkpt lat="42.98207" lon="-0.13135">
        <ele>678.1</ele>
        <time>2024-07-24T23:40:26.009Z</time>
      </trkpt>
      <trkpt lat="42.98202" lon="-0.13145">
        <ele>677.7</ele>
        <time>2024-07-24T23:40:28.508Z</time>
      </trkpt>
      <trkpt lat="42.98195" lon="-0.1315">
        <ele>678.5</ele>
        <time>2024-07-24T23:40:32.058Z</time>
      </trkpt>
      <trkpt lat="42.98175" lon="-0.13152">
        <ele>683.8</ele>
        <time>2024-07-24T23:40:48.896Z</time>
      </trkpt>
      <trkpt lat="42.98165" lon="-0.13156">
        <ele>685.7</ele>
        <time>2024-07-24T23:40:55.202Z</time>
      </trkpt>
      <trkpt lat="42.9816" lon="-0.13161">
        <ele>685.9</ele>
        <time>2024-07-24T23:40:57.412Z</time>
      </trkpt>
      <trkpt lat="42.98148" lon="-0.13179">
        <ele>685.5</ele>
        <time>2024-07-24T23:41:02.776Z</time>
      </trkpt>
      <trkpt lat="42.98138" lon="-0.13199">
        <ele>684.6</ele>
        <time>2024-07-24T23:41:07.775Z</time>
      </trkpt>
      <trkpt lat="42.98118" lon="-0.13253">
        <ele>682.6</ele>
        <time>2024-07-24T23:41:20.264Z</time>
      </trkpt>
      <trkpt lat="42.98077" lon="-0.1332">
        <ele>684</ele>
        <time>2024-07-24T23:41:42.321Z</time>
      </trkpt>
      <trkpt lat="42.98074" lon="-0.13332">
        <ele>682.9</ele>
        <time>2024-07-24T23:41:44.938Z</time>
      </trkpt>
      <trkpt lat="42.98075" lon="-0.13346">
        <ele>684.7</ele>
        <time>2024-07-24T23:41:50.990Z</time>
        <extensions>
          <visugpx:TrkExtension xmlns:visugpx="https://www.visugpx.com/editgpx/">
            <visugpx:node>21</visugpx:node>
            </visugpx:TrkExtension>
        </extensions>
      </trkpt>
      <trkpt lat="42.98081" lon="-0.13353">
        <ele>684.8</ele>
        <time>2024-07-24T23:41:53.635Z</time>
      </trkpt>
      <trkpt lat="42.98086" lon="-0.13357">
        <ele>684.5</ele>
        <time>2024-07-24T23:41:55.269Z</time>
      </trkpt>
      <trkpt lat="42.98106" lon="-0.13378">
        <ele>685.4</ele>
        <time>2024-07-24T23:42:04.365Z</time>
      </trkpt>
      <trkpt lat="42.98135" lon="-0.13416">
        <ele>687</ele>
        <time>2024-07-24T23:42:19.049Z</time>
      </trkpt>
      <trkpt lat="42.98169" lon="-0.13466">
        <ele>690.2</ele>
        <time>2024-07-24T23:42:38.817Z</time>
      </trkpt>
      <trkpt lat="42.98213" lon="-0.13504">
        <ele>678</ele>
        <time>2024-07-24T23:42:53.497Z</time>
      </trkpt>
      <trkpt lat="42.98217" lon="-0.1351">
        <ele>676.4</ele>
        <time>2024-07-24T23:42:55.172Z</time>
      </trkpt>
      <trkpt lat="42.98219" lon="-0.13518">
        <ele>676</ele>
        <time>2024-07-24T23:42:56.917Z</time>
        <extensions>
          <visugpx:TrkExtension xmlns:visugpx="https://www.visugpx.com/editgpx/">
            <visugpx:node>22</visugpx:node>
            </visugpx:TrkExtension>
        </extensions>
      </trkpt>
      <trkpt lat="42.98218" lon="-0.13531">
        <ele>676.6</ele>
        <time>2024-07-24T23:43:00.685Z</time>
      </trkpt>
      <trkpt lat="42.98211" lon="-0.13547">
        <ele>677.7</ele>
        <time>2024-07-24T23:43:06.394Z</time>
      </trkpt>
      <trkpt lat="42.98196" lon="-0.13572">
        <ele>678.3</ele>
        <time>2024-07-24T23:43:14.648Z</time>
      </trkpt>
      <trkpt lat="42.98157" lon="-0.13626">
        <ele>680.2</ele>
        <time>2024-07-24T23:43:34.577Z</time>
      </trkpt>
      <trkpt lat="42.98148" lon="-0.13645">
        <ele>679.7</ele>
        <time>2024-07-24T23:43:39.449Z</time>
      </trkpt>
      <trkpt lat="42.98148" lon="-0.13697">
        <ele>663.6</ele>
        <time>2024-07-24T23:43:50.179Z</time>
      </trkpt>
      <trkpt lat="42.98128" lon="-0.1378">
        <ele>666.9</ele>
        <time>2024-07-24T23:44:14.462Z</time>
      </trkpt>
      <trkpt lat="42.98127" lon="-0.1379">
        <ele>667.2</ele>
        <time>2024-07-24T23:44:17.168Z</time>
      </trkpt>
      <trkpt lat="42.98128" lon="-0.13809">
        <ele>665.7</ele>
        <time>2024-07-24T23:44:21.099Z</time>
      </trkpt>
      <trkpt lat="42.98136" lon="-0.13847">
        <ele>659.4</ele>
        <time>2024-07-24T23:44:29.259Z</time>
      </trkpt>
      <trkpt lat="42.98138" lon="-0.13872">
        <ele>658.2</ele>
        <time>2024-07-24T23:44:34.448Z</time>
      </trkpt>
      <trkpt lat="42.98134" lon="-0.13958">
        <ele>663.8</ele>
        <time>2024-07-24T23:45:01.585Z</time>
      </trkpt>
      <trkpt lat="42.9814" lon="-0.14019">
        <ele>659.9</ele>
        <time>2024-07-24T23:45:14.285Z</time>
      </trkpt>
      <trkpt lat="42.9814" lon="-0.14128">
        <ele>657.5</ele>
        <time>2024-07-24T23:45:37.755Z</time>
      </trkpt>
      <trkpt lat="42.98135" lon="-0.14188">
        <ele>656.1</ele>
        <time>2024-07-24T23:45:50.697Z</time>
      </trkpt>
      <trkpt lat="42.98138" lon="-0.14226">
        <ele>654.4</ele>
        <time>2024-07-24T23:45:58.584Z</time>
      </trkpt>
      <trkpt lat="42.98138" lon="-0.14251">
        <ele>654.3</ele>
        <time>2024-07-24T23:46:04.381Z</time>
      </trkpt>
      <trkpt lat="42.98142" lon="-0.14298">
        <ele>653.5</ele>
        <time>2024-07-24T23:46:14.784Z</time>
      </trkpt>
      <trkpt lat="42.98139" lon="-0.14318">
        <ele>655.4</ele>
        <time>2024-07-24T23:46:22.144Z</time>
      </trkpt>
      <trkpt lat="42.98133" lon="-0.14338">
        <ele>657.5</ele>
        <time>2024-07-24T23:46:30.096Z</time>
      </trkpt>
      <trkpt lat="42.98124" lon="-0.14358">
        <ele>658.4</ele>
        <time>2024-07-24T23:46:36.637Z</time>
      </trkpt>
      <trkpt lat="42.98117" lon="-0.14365">
        <ele>659.2</ele>
        <time>2024-07-24T23:46:40.415Z</time>
        <extensions>
          <visugpx:TrkExtension xmlns:visugpx="https://www.visugpx.com/editgpx/">
            <visugpx:node>23</visugpx:node>
            </visugpx:TrkExtension>
        </extensions>
      </trkpt>
      <trkpt lat="42.98113" lon="-0.14367">
        <ele>659.8</ele>
        <time>2024-07-24T23:46:42.621Z</time>
      </trkpt>
      <trkpt lat="42.98093" lon="-0.14365">
        <ele>664.8</ele>
        <time>2024-07-24T23:46:58.456Z</time>
      </trkpt>
      <trkpt lat="42.98086" lon="-0.14366">
        <ele>666.3</ele>
        <time>2024-07-24T23:47:03.259Z</time>
      </trkpt>
      <trkpt lat="42.9808" lon="-0.14369">
        <ele>667.6</ele>
        <time>2024-07-24T23:47:07.456Z</time>
      </trkpt>
      <trkpt lat="42.98063" lon="-0.1439">
        <ele>668.3</ele>
        <time>2024-07-24T23:47:15.585Z</time>
      </trkpt>
      <trkpt lat="42.98045" lon="-0.14423">
        <ele>667.7</ele>
        <time>2024-07-24T23:47:24.722Z</time>
      </trkpt>
      <trkpt lat="42.98038" lon="-0.14446">
        <ele>665.6</ele>
        <time>2024-07-24T23:47:29.862Z</time>
      </trkpt>
      <trkpt lat="42.98032" lon="-0.1451">
        <ele>663</ele>
        <time>2024-07-24T23:47:43.176Z</time>
      </trkpt>
      <trkpt lat="42.98027" lon="-0.14534">
        <ele>662.7</ele>
        <time>2024-07-24T23:47:48.774Z</time>
      </trkpt>
      <trkpt lat="42.98006" lon="-0.14599">
        <ele>666.3</ele>
        <time>2024-07-24T23:48:09.710Z</time>
      </trkpt>
      <trkpt lat="42.97989" lon="-0.14669">
        <ele>665.7</ele>
        <time>2024-07-24T23:48:26.523Z</time>
      </trkpt>
      <trkpt lat="42.97971" lon="-0.14702">
        <ele>670.4</ele>
        <time>2024-07-24T23:48:43.020Z</time>
      </trkpt>
      <trkpt lat="42.97963" lon="-0.14724">
        <ele>673.2</ele>
        <time>2024-07-24T23:48:52.855Z</time>
      </trkpt>
      <trkpt lat="42.97958" lon="-0.14766">
        <ele>673.1</ele>
        <time>2024-07-24T23:49:02.792Z</time>
      </trkpt>
      <trkpt lat="42.97953" lon="-0.14784">
        <ele>674.9</ele>
        <time>2024-07-24T23:49:09.748Z</time>
      </trkpt>
      <trkpt lat="42.97931" lon="-0.14815">
        <ele>681</ele>
        <time>2024-07-24T23:49:29.677Z</time>
      </trkpt>
      <trkpt lat="42.97888" lon="-0.14855">
        <ele>691.3</ele>
        <time>2024-07-24T23:50:03.124Z</time>
      </trkpt>
      <trkpt lat="42.97863" lon="-0.14883">
        <ele>696</ele>
        <time>2024-07-24T23:50:20.144Z</time>
      </trkpt>
      <trkpt lat="42.97848" lon="-0.14903">
        <ele>695.2</ele>
        <time>2024-07-24T23:50:26.166Z</time>
      </trkpt>
      <trkpt lat="42.97829" lon="-0.14933">
        <ele>691.1</ele>
        <time>2024-07-24T23:50:34.354Z</time>
      </trkpt>
      <trkpt lat="42.97806" lon="-0.14983">
        <ele>688.5</ele>
        <time>2024-07-24T23:50:46.542Z</time>
      </trkpt>
      <trkpt lat="42.97793" lon="-0.15005">
        <ele>689.6</ele>
        <time>2024-07-24T23:50:54.441Z</time>
      </trkpt>
      <trkpt lat="42.97786" lon="-0.15013">
        <ele>690</ele>
        <time>2024-07-24T23:50:57.820Z</time>
      </trkpt>
      <trkpt lat="42.97769" lon="-0.15027">
        <ele>692.3</ele>
        <time>2024-07-24T23:51:07.211Z</time>
      </trkpt>
      <trkpt lat="42.9776" lon="-0.15032">
        <ele>694</ele>
        <time>2024-07-24T23:51:12.927Z</time>
      </trkpt>
      <trkpt lat="42.97729" lon="-0.15043">
        <ele>701.7</ele>
        <time>2024-07-24T23:51:37.315Z</time>
      </trkpt>
      <trkpt lat="42.97721" lon="-0.15047">
        <ele>703.6</ele>
        <time>2024-07-24T23:51:43.363Z</time>
      </trkpt>
      <trkpt lat="42.97714" lon="-0.15053">
        <ele>705</ele>
        <time>2024-07-24T23:51:48.122Z</time>
      </trkpt>
      <trkpt lat="42.97701" lon="-0.1507">
        <ele>706</ele>
        <time>2024-07-24T23:51:55.046Z</time>
      </trkpt>
      <trkpt lat="42.97678" lon="-0.15113">
        <ele>703.1</ele>
        <time>2024-07-24T23:52:06.038Z</time>
        <extensions>
          <visugpx:TrkExtension xmlns:visugpx="https://www.visugpx.com/editgpx/">
            <visugpx:node>24</visugpx:node>
            </visugpx:TrkExtension>
        </extensions>
      </trkpt>
      <trkpt lat="42.97661" lon="-0.15128">
        <ele>703.3</ele>
        <time>2024-07-24T23:52:12.764Z</time>
      </trkpt>
      <trkpt lat="42.97636" lon="-0.15142">
        <ele>704.5</ele>
        <time>2024-07-24T23:52:22.787Z</time>
      </trkpt>
      <trkpt lat="42.97614" lon="-0.15158">
        <ele>707</ele>
        <time>2024-07-24T23:52:33.950Z</time>
      </trkpt>
      <trkpt lat="42.97584" lon="-0.15176">
        <ele>709.9</ele>
        <time>2024-07-24T23:52:48.038Z</time>
      </trkpt>
      <trkpt lat="42.97571" lon="-0.15181">
        <ele>711</ele>
        <time>2024-07-24T23:52:53.706Z</time>
      </trkpt>
      <trkpt lat="42.97534" lon="-0.15191">
        <ele>714</ele>
        <time>2024-07-24T23:53:09.433Z</time>
      </trkpt>
      <trkpt lat="42.97489" lon="-0.15211">
        <ele>717.8</ele>
        <time>2024-07-24T23:53:29.216Z</time>
      </trkpt>
      <trkpt lat="42.97433" lon="-0.15225">
        <ele>724.9</ele>
        <time>2024-07-24T23:53:57.019Z</time>
      </trkpt>
      <trkpt lat="42.97406" lon="-0.15237">
        <ele>727</ele>
        <time>2024-07-24T23:54:08.636Z</time>
      </trkpt>
      <trkpt lat="42.97362" lon="-0.15252">
        <ele>731.2</ele>
        <time>2024-07-24T23:54:28.413Z</time>
      </trkpt>
      <trkpt lat="42.97347" lon="-0.15258">
        <ele>733.1</ele>
        <time>2024-07-24T23:54:35.960Z</time>
      </trkpt>
      <trkpt lat="42.97279" lon="-0.15301">
        <ele>737</ele>
        <time>2024-07-24T23:55:04.461Z</time>
      </trkpt>
      <trkpt lat="42.97269" lon="-0.15305">
        <ele>738.4</ele>
        <time>2024-07-24T23:55:09.730Z</time>
      </trkpt>
      <trkpt lat="42.97212" lon="-0.15319">
        <ele>749.5</ele>
        <time>2024-07-24T23:55:46.060Z</time>
      </trkpt>
      <trkpt lat="42.97195" lon="-0.15326">
        <ele>751.7</ele>
        <time>2024-07-24T23:55:54.706Z</time>
      </trkpt>
      <trkpt lat="42.9718" lon="-0.15341">
        <ele>752.9</ele>
        <time>2024-07-24T23:56:02.075Z</time>
      </trkpt>
      <trkpt lat="42.97145" lon="-0.15405">
        <ele>752.3</ele>
        <time>2024-07-24T23:56:20.338Z</time>
      </trkpt>
      <trkpt lat="42.97138" lon="-0.15415">
        <ele>752.5</ele>
        <time>2024-07-24T23:56:23.810Z</time>
      </trkpt>
      <trkpt lat="42.9713" lon="-0.15423">
        <ele>753.3</ele>
        <time>2024-07-24T23:56:27.960Z</time>
      </trkpt>
      <trkpt lat="42.97121" lon="-0.15429">
        <ele>754.4</ele>
        <time>2024-07-24T23:56:32.598Z</time>
      </trkpt>
      <trkpt lat="42.97084" lon="-0.15442">
        <ele>760.6</ele>
        <time>2024-07-24T23:56:54.019Z</time>
      </trkpt>
      <trkpt lat="42.9707" lon="-0.15454">
        <ele>762.3</ele>
        <time>2024-07-24T23:57:01.488Z</time>
      </trkpt>
      <trkpt lat="42.97062" lon="-0.15466">
        <ele>761.4</ele>
        <time>2024-07-24T23:57:04.838Z</time>
        <extensions>
          <visugpx:TrkExtension xmlns:visugpx="https://www.visugpx.com/editgpx/">
            <visugpx:node>25</visugpx:node>
            </visugpx:TrkExtension>
        </extensions>
      </trkpt>
      <trkpt lat="42.97075" lon="-0.15488">
        <ele>760.1</ele>
        <time>2024-07-24T23:57:10.674Z</time>
      </trkpt>
      <trkpt lat="42.9708" lon="-0.15493">
        <ele>760.6</ele>
        <time>2024-07-24T23:57:13.268Z</time>
      </trkpt>
      <trkpt lat="42.97085" lon="-0.15495">
        <ele>760.8</ele>
        <time>2024-07-24T23:57:15.163Z</time>
      </trkpt>
      <trkpt lat="42.971" lon="-0.15495">
        <ele>760</ele>
        <time>2024-07-24T23:57:19.394Z</time>
      </trkpt>
      <trkpt lat="42.97108" lon="-0.15498">
        <ele>760.5</ele>
        <time>2024-07-24T23:57:22.637Z</time>
      </trkpt>
      <trkpt lat="42.97127" lon="-0.15516">
        <ele>767.1</ele>
        <time>2024-07-24T23:57:43.832Z</time>
      </trkpt>
      <trkpt lat="42.97166" lon="-0.15538">
        <ele>765.7</ele>
        <time>2024-07-24T23:57:56.137Z</time>
      </trkpt>
      <trkpt lat="42.97184" lon="-0.15546">
        <ele>767.1</ele>
        <time>2024-07-24T23:58:03.882Z</time>
      </trkpt>
      <trkpt lat="42.97238" lon="-0.15558">
        <ele>770.5</ele>
        <time>2024-07-24T23:58:25.399Z</time>
      </trkpt>
      <trkpt lat="42.97247" lon="-0.15559">
        <ele>771.7</ele>
        <time>2024-07-24T23:58:29.941Z</time>
      </trkpt>
      <trkpt lat="42.97257" lon="-0.15558">
        <ele>772.8</ele>
        <time>2024-07-24T23:58:34.583Z</time>
      </trkpt>
      <trkpt lat="42.97277" lon="-0.15553">
        <ele>774.6</ele>
        <time>2024-07-24T23:58:43.326Z</time>
      </trkpt>
      <trkpt lat="42.97294" lon="-0.15545">
        <ele>775.7</ele>
        <time>2024-07-24T23:58:50.375Z</time>
      </trkpt>
      <trkpt lat="42.97313" lon="-0.1553">
        <ele>774.2</ele>
        <time>2024-07-24T23:58:56.563Z</time>
      </trkpt>
      <trkpt lat="42.97319" lon="-0.15527">
        <ele>774.5</ele>
        <time>2024-07-24T23:58:58.954Z</time>
      </trkpt>
      <trkpt lat="42.97347" lon="-0.15523">
        <ele>780.3</ele>
        <time>2024-07-24T23:59:17.634Z</time>
      </trkpt>
      <trkpt lat="42.97369" lon="-0.15511">
        <ele>779.4</ele>
        <time>2024-07-24T23:59:24.445Z</time>
      </trkpt>
      <trkpt lat="42.97377" lon="-0.15509">
        <ele>779.7</ele>
        <time>2024-07-24T23:59:27.390Z</time>
      </trkpt>
      <trkpt lat="42.97437" lon="-0.15513">
        <ele>789.9</ele>
        <time>2024-07-25T00:00:02.041Z</time>
      </trkpt>
      <trkpt lat="42.97458" lon="-0.15518">
        <ele>792.5</ele>
        <time>2024-07-25T00:00:12.350Z</time>
      </trkpt>
      <trkpt lat="42.97471" lon="-0.15527">
        <ele>795.7</ele>
        <time>2024-07-25T00:00:22.554Z</time>
      </trkpt>
      <trkpt lat="42.97498" lon="-0.15563">
        <ele>796.1</ele>
        <time>2024-07-25T00:00:35.119Z</time>
      </trkpt>
      <trkpt lat="42.97514" lon="-0.15571">
        <ele>793.6</ele>
        <time>2024-07-25T00:00:39.924Z</time>
      </trkpt>
      <trkpt lat="42.97521" lon="-0.15572">
        <ele>792.5</ele>
        <time>2024-07-25T00:00:41.909Z</time>
      </trkpt>
      <trkpt lat="42.97539" lon="-0.15568">
        <ele>791.4</ele>
        <time>2024-07-25T00:00:47.053Z</time>
      </trkpt>
      <trkpt lat="42.97551" lon="-0.15563">
        <ele>791.1</ele>
        <time>2024-07-25T00:00:50.814Z</time>
      </trkpt>
      <trkpt lat="42.9757" lon="-0.15552">
        <ele>789.7</ele>
        <time>2024-07-25T00:00:56.634Z</time>
      </trkpt>
      <trkpt lat="42.97575" lon="-0.15551">
        <ele>789.8</ele>
        <time>2024-07-25T00:00:58.367Z</time>
      </trkpt>
      <trkpt lat="42.97579" lon="-0.15552">
        <ele>789.9</ele>
        <time>2024-07-25T00:00:59.782Z</time>
      </trkpt>
      <trkpt lat="42.97583" lon="-0.15558">
        <ele>790.1</ele>
        <time>2024-07-25T00:01:01.910Z</time>
        <extensions>
          <visugpx:TrkExtension xmlns:visugpx="https://www.visugpx.com/editgpx/">
            <visugpx:node>26</visugpx:node>
            </visugpx:TrkExtension>
        </extensions>
      </trkpt>
      <trkpt lat="42.97584" lon="-0.15568">
        <ele>790.8</ele>
        <time>2024-07-25T00:01:05.155Z</time>
      </trkpt>
      <trkpt lat="42.97579" lon="-0.1561">
        <ele>794.5</ele>
        <time>2024-07-25T00:01:20.043Z</time>
      </trkpt>
      <trkpt lat="42.97559" lon="-0.15672">
        <ele>799.4</ele>
        <time>2024-07-25T00:01:42.135Z</time>
      </trkpt>
      <trkpt lat="42.97553" lon="-0.15697">
        <ele>800.4</ele>
        <time>2024-07-25T00:01:49.455Z</time>
      </trkpt>
      <trkpt lat="42.97547" lon="-0.15773">
        <ele>800.3</ele>
        <time>2024-07-25T00:02:07.385Z</time>
      </trkpt>
      <trkpt lat="42.97543" lon="-0.15799">
        <ele>799.3</ele>
        <time>2024-07-25T00:02:12.867Z</time>
      </trkpt>
      <trkpt lat="42.97527" lon="-0.15856">
        <ele>799.3</ele>
        <time>2024-07-25T00:02:27.266Z</time>
      </trkpt>
      <trkpt lat="42.97517" lon="-0.15901">
        <ele>799.5</ele>
        <time>2024-07-25T00:02:38.559Z</time>
      </trkpt>
      <trkpt lat="42.97483" lon="-0.16028">
        <ele>803.2</ele>
        <time>2024-07-25T00:03:14.443Z</time>
      </trkpt>
      <trkpt lat="42.97472" lon="-0.16075">
        <ele>805.7</ele>
        <time>2024-07-25T00:03:28.983Z</time>
      </trkpt>
      <trkpt lat="42.97447" lon="-0.16228">
        <ele>806.2</ele>
        <time>2024-07-25T00:04:06.458Z</time>
      </trkpt>
      <trkpt lat="42.97441" lon="-0.16297">
        <ele>804.8</ele>
        <time>2024-07-25T00:04:21.536Z</time>
      </trkpt>
      <trkpt lat="42.97446" lon="-0.16317">
        <ele>804</ele>
        <time>2024-07-25T00:04:25.898Z</time>
      </trkpt>
      <trkpt lat="42.97462" lon="-0.16353">
        <ele>802.7</ele>
        <time>2024-07-25T00:04:34.651Z</time>
      </trkpt>
      <trkpt lat="42.97472" lon="-0.16393">
        <ele>804.5</ele>
        <time>2024-07-25T00:04:46.657Z</time>
      </trkpt>
      <trkpt lat="42.97475" lon="-0.16427">
        <ele>806.6</ele>
        <time>2024-07-25T00:04:57.258Z</time>
      </trkpt>
      <trkpt lat="42.97475" lon="-0.16495">
        <ele>808.8</ele>
        <time>2024-07-25T00:05:15.705Z</time>
      </trkpt>
      <trkpt lat="42.97472" lon="-0.16518">
        <ele>809</ele>
        <time>2024-07-25T00:05:21.419Z</time>
      </trkpt>
      <trkpt lat="42.97464" lon="-0.16536">
        <ele>809.5</ele>
        <time>2024-07-25T00:05:26.919Z</time>
      </trkpt>
      <trkpt lat="42.97445" lon="-0.16557">
        <ele>810</ele>
        <time>2024-07-25T00:05:35.314Z</time>
      </trkpt>
      <trkpt lat="42.97435" lon="-0.16571">
        <ele>810</ele>
        <time>2024-07-25T00:05:39.929Z</time>
      </trkpt>
      <trkpt lat="42.97399" lon="-0.16644">
        <ele>810.6</ele>
        <time>2024-07-25T00:06:01.299Z</time>
      </trkpt>
      <trkpt lat="42.97391" lon="-0.16669">
        <ele>811</ele>
        <time>2024-07-25T00:06:08.150Z</time>
      </trkpt>
      <trkpt lat="42.97377" lon="-0.16744">
        <ele>811</ele>
        <time>2024-07-25T00:06:26.405Z</time>
      </trkpt>
      <trkpt lat="42.97346" lon="-0.16822">
        <ele>812.6</ele>
        <time>2024-07-25T00:06:49.017Z</time>
        <extensions>
          <visugpx:TrkExtension xmlns:visugpx="https://www.visugpx.com/editgpx/">
            <visugpx:node>27</visugpx:node>
            </visugpx:TrkExtension>
        </extensions>
      </trkpt>
      <trkpt lat="42.97341" lon="-0.16843">
        <ele>812.7</ele>
        <time>2024-07-25T00:06:54.326Z</time>
      </trkpt>
      <trkpt lat="42.97344" lon="-0.16867">
        <ele>812.6</ele>
        <time>2024-07-25T00:06:59.970Z</time>
      </trkpt>
      <trkpt lat="42.97366" lon="-0.16919">
        <ele>812.7</ele>
        <time>2024-07-25T00:07:14.237Z</time>
      </trkpt>
      <trkpt lat="42.97381" lon="-0.16945">
        <ele>812.6</ele>
        <time>2024-07-25T00:07:21.948Z</time>
      </trkpt>
      <trkpt lat="42.97391" lon="-0.16958">
        <ele>812.9</ele>
        <time>2024-07-25T00:07:26.709Z</time>
      </trkpt>
      <trkpt lat="42.974" lon="-0.16965">
        <ele>813</ele>
        <time>2024-07-25T00:07:30.149Z</time>
      </trkpt>
      <trkpt lat="42.97412" lon="-0.16971">
        <ele>813</ele>
        <time>2024-07-25T00:07:34.268Z</time>
      </trkpt>
      <trkpt lat="42.97465" lon="-0.16992">
        <ele>812.9</ele>
        <time>2024-07-25T00:07:51.957Z</time>
      </trkpt>
      <trkpt lat="42.97524" lon="-0.17009">
        <ele>813.3</ele>
        <time>2024-07-25T00:08:11.796Z</time>
      </trkpt>
      <trkpt lat="42.97536" lon="-0.17016">
        <ele>813.3</ele>
        <time>2024-07-25T00:08:16.002Z</time>
      </trkpt>
      <trkpt lat="42.97542" lon="-0.17022">
        <ele>813.3</ele>
        <time>2024-07-25T00:08:18.398Z</time>
      </trkpt>
      <trkpt lat="42.97552" lon="-0.17038">
        <ele>813.4</ele>
        <time>2024-07-25T00:08:23.462Z</time>
      </trkpt>
      <trkpt lat="42.97567" lon="-0.17076">
        <ele>813.5</ele>
        <time>2024-07-25T00:08:33.745Z</time>
      </trkpt>
      <trkpt lat="42.97577" lon="-0.17111">
        <ele>814</ele>
        <time>2024-07-25T00:08:43.123Z</time>
      </trkpt>
      <trkpt lat="42.97596" lon="-0.17214">
        <ele>814.8</ele>
        <time>2024-07-25T00:09:08.987Z</time>
      </trkpt>
      <trkpt lat="42.97603" lon="-0.1724">
        <ele>815.2</ele>
        <time>2024-07-25T00:09:15.936Z</time>
      </trkpt>
      <trkpt lat="42.97616" lon="-0.17266">
        <ele>815.2</ele>
        <time>2024-07-25T00:09:23.363Z</time>
      </trkpt>
      <trkpt lat="42.97709" lon="-0.17414">
        <ele>819</ele>
        <time>2024-07-25T00:10:13.372Z</time>
      </trkpt>
      <trkpt lat="42.97721" lon="-0.17449">
        <ele>818.6</ele>
        <time>2024-07-25T00:10:22.103Z</time>
      </trkpt>
      <trkpt lat="42.97736" lon="-0.17526">
        <ele>821.9</ele>
        <time>2024-07-25T00:10:44.614Z</time>
        <extensions>
          <visugpx:TrkExtension xmlns:visugpx="https://www.visugpx.com/editgpx/">
            <visugpx:node>28</visugpx:node>
            </visugpx:TrkExtension>
        </extensions>
      </trkpt>
      <trkpt lat="42.97742" lon="-0.17553">
        <ele>822.5</ele>
        <time>2024-07-25T00:10:51.904Z</time>
      </trkpt>
      <trkpt lat="42.97747" lon="-0.17567">
        <ele>822.4</ele>
        <time>2024-07-25T00:10:55.481Z</time>
      </trkpt>
      <trkpt lat="42.97753" lon="-0.17581">
        <ele>822.5</ele>
        <time>2024-07-25T00:10:59.408Z</time>
      </trkpt>
      <trkpt lat="42.97764" lon="-0.176">
        <ele>822.4</ele>
        <time>2024-07-25T00:11:05.024Z</time>
      </trkpt>
      <trkpt lat="42.97774" lon="-0.1761">
        <ele>822.2</ele>
        <time>2024-07-25T00:11:08.827Z</time>
      </trkpt>
      <trkpt lat="42.97781" lon="-0.17612">
        <ele>822</ele>
        <time>2024-07-25T00:11:10.945Z</time>
      </trkpt>
      <trkpt lat="42.97788" lon="-0.17613">
        <ele>822.1</ele>
        <time>2024-07-25T00:11:13.316Z</time>
      </trkpt>
      <trkpt lat="42.97804" lon="-0.17608">
        <ele>821.9</ele>
        <time>2024-07-25T00:11:18.413Z</time>
      </trkpt>
      <trkpt lat="42.97809" lon="-0.17604">
        <ele>822.8</ele>
        <time>2024-07-25T00:11:21.579Z</time>
      </trkpt>
      <trkpt lat="42.97813" lon="-0.17598">
        <ele>823.8</ele>
        <time>2024-07-25T00:11:24.986Z</time>
      </trkpt>
      <trkpt lat="42.97815" lon="-0.1759">
        <ele>824.2</ele>
        <time>2024-07-25T00:11:27.439Z</time>
      </trkpt>
      <trkpt lat="42.97816" lon="-0.17582">
        <ele>824.4</ele>
        <time>2024-07-25T00:11:29.567Z</time>
      </trkpt>
      <trkpt lat="42.97812" lon="-0.17489">
        <ele>824.2</ele>
        <time>2024-07-25T00:11:51.341Z</time>
      </trkpt>
      <trkpt lat="42.97815" lon="-0.17476">
        <ele>825.4</ele>
        <time>2024-07-25T00:11:56.135Z</time>
      </trkpt>
      <trkpt lat="42.97822" lon="-0.17468">
        <ele>828</ele>
        <time>2024-07-25T00:12:04.482Z</time>
      </trkpt>
      <trkpt lat="42.97823" lon="-0.17504">
        <ele>827.6</ele>
        <time>2024-07-25T00:12:12.594Z</time>
      </trkpt>
      <trkpt lat="42.97827" lon="-0.17549">
        <ele>828.2</ele>
        <time>2024-07-25T00:12:23.904Z</time>
      </trkpt>
      <trkpt lat="42.97828" lon="-0.17599">
        <ele>828.4</ele>
        <time>2024-07-25T00:12:35.901Z</time>
        <extensions>
          <visugpx:TrkExtension xmlns:visugpx="https://www.visugpx.com/editgpx/">
            <visugpx:node>29</visugpx:node>
            </visugpx:TrkExtension>
        </extensions>
      </trkpt>
      <trkpt lat="42.97825" lon="-0.17642">
        <ele>828.7</ele>
        <time>2024-07-25T00:12:46.392Z</time>
      </trkpt>
      <trkpt lat="42.97817" lon="-0.17674">
        <ele>828.6</ele>
        <time>2024-07-25T00:12:54.268Z</time>
      </trkpt>
      <trkpt lat="42.97797" lon="-0.17729">
        <ele>829.3</ele>
        <time>2024-07-25T00:13:09.472Z</time>
      </trkpt>
      <trkpt lat="42.97766" lon="-0.17882">
        <ele>832.9</ele>
        <time>2024-07-25T00:13:50.738Z</time>
      </trkpt>
      <trkpt lat="42.97756" lon="-0.17948">
        <ele>835</ele>
        <time>2024-07-25T00:14:08.925Z</time>
      </trkpt>
      <trkpt lat="42.97747" lon="-0.18032">
        <ele>837.9</ele>
        <time>2024-07-25T00:14:32.140Z</time>
      </trkpt>
      <trkpt lat="42.97741" lon="-0.18067">
        <ele>838.8</ele>
        <time>2024-07-25T00:14:41.581Z</time>
      </trkpt>
      <trkpt lat="42.97731" lon="-0.18091">
        <ele>838.1</ele>
        <time>2024-07-25T00:14:47.449Z</time>
      </trkpt>
      <trkpt lat="42.97689" lon="-0.18168">
        <ele>838.4</ele>
        <time>2024-07-25T00:15:10.401Z</time>
      </trkpt>
      <trkpt lat="42.9765" lon="-0.18257">
        <ele>838.8</ele>
        <time>2024-07-25T00:15:35.269Z</time>
      </trkpt>
      <trkpt lat="42.97629" lon="-0.18327">
        <ele>840.8</ele>
        <time>2024-07-25T00:15:55.262Z</time>
      </trkpt>
      <trkpt lat="42.97598" lon="-0.18415">
        <ele>839.1</ele>
        <time>2024-07-25T00:16:16.693Z</time>
      </trkpt>
      <trkpt lat="42.97574" lon="-0.18501">
        <ele>839.4</ele>
        <time>2024-07-25T00:16:38.702Z</time>
      </trkpt>
      <trkpt lat="42.97568" lon="-0.18517">
        <ele>839.5</ele>
        <time>2024-07-25T00:16:43.043Z</time>
      </trkpt>
      <trkpt lat="42.97557" lon="-0.18537">
        <ele>839.8</ele>
        <time>2024-07-25T00:16:49.253Z</time>
      </trkpt>
      <trkpt lat="42.97526" lon="-0.18577">
        <ele>840.8</ele>
        <time>2024-07-25T00:17:04.040Z</time>
      </trkpt>
      <trkpt lat="42.97513" lon="-0.18601">
        <ele>842.2</ele>
        <time>2024-07-25T00:17:12.688Z</time>
      </trkpt>
      <trkpt lat="42.97506" lon="-0.18621">
        <ele>843.1</ele>
        <time>2024-07-25T00:17:18.929Z</time>
      </trkpt>
      <trkpt lat="42.97502" lon="-0.18638">
        <ele>843.9</ele>
        <time>2024-07-25T00:17:24.052Z</time>
      </trkpt>
      <trkpt lat="42.97492" lon="-0.18698">
        <ele>846.9</ele>
        <time>2024-07-25T00:17:42.026Z</time>
      </trkpt>
      <trkpt lat="42.97483" lon="-0.18718">
        <ele>847.6</ele>
        <time>2024-07-25T00:17:48.324Z</time>
      </trkpt>
      <trkpt lat="42.97463" lon="-0.18745">
        <ele>847.5</ele>
        <time>2024-07-25T00:17:57.288Z</time>
      </trkpt>
      <trkpt lat="42.97459" lon="-0.18753">
        <ele>847.5</ele>
        <time>2024-07-25T00:17:59.573Z</time>
      </trkpt>
      <trkpt lat="42.97455" lon="-0.18769">
        <ele>847.4</ele>
        <time>2024-07-25T00:18:03.463Z</time>
      </trkpt>
      <trkpt lat="42.97454" lon="-0.18784">
        <ele>847.5</ele>
        <time>2024-07-25T00:18:07.117Z</time>
        <extensions>
          <visugpx:TrkExtension xmlns:visugpx="https://www.visugpx.com/editgpx/">
            <visugpx:node>30</visugpx:node>
            </visugpx:TrkExtension>
        </extensions>
      </trkpt>
      <trkpt lat="42.9746" lon="-0.18822">
        <ele>848.9</ele>
        <time>2024-07-25T00:18:17.836Z</time>
      </trkpt>
      <trkpt lat="42.97476" lon="-0.18877">
        <ele>850.8</ele>
        <time>2024-07-25T00:18:33.874Z</time>
      </trkpt>
      <trkpt lat="42.97481" lon="-0.18905">
        <ele>852.4</ele>
        <time>2024-07-25T00:18:42.559Z</time>
      </trkpt>
      <trkpt lat="42.97482" lon="-0.1892">
        <ele>853.2</ele>
        <time>2024-07-25T00:18:47.048Z</time>
      </trkpt>
      <trkpt lat="42.97478" lon="-0.18954">
        <ele>854.3</ele>
        <time>2024-07-25T00:18:56.372Z</time>
      </trkpt>
      <trkpt lat="42.97463" lon="-0.19016">
        <ele>857.5</ele>
        <time>2024-07-25T00:19:15.469Z</time>
      </trkpt>
      <trkpt lat="42.97455" lon="-0.19072">
        <ele>860.1</ele>
        <time>2024-07-25T00:19:31.895Z</time>
      </trkpt>
      <trkpt lat="42.97449" lon="-0.19097">
        <ele>861.3</ele>
        <time>2024-07-25T00:19:39.471Z</time>
      </trkpt>
      <trkpt lat="42.97406" lon="-0.19196">
        <ele>864.7</ele>
        <time>2024-07-25T00:20:10.315Z</time>
      </trkpt>
      <trkpt lat="42.97393" lon="-0.19222">
        <ele>865.3</ele>
        <time>2024-07-25T00:20:18.372Z</time>
      </trkpt>
      <trkpt lat="42.97379" lon="-0.1924">
        <ele>864.9</ele>
        <time>2024-07-25T00:20:24.188Z</time>
      </trkpt>
      <trkpt lat="42.97347" lon="-0.19274">
        <ele>863.8</ele>
        <time>2024-07-25T00:20:36.224Z</time>
      </trkpt>
      <trkpt lat="42.97339" lon="-0.19286">
        <ele>863.6</ele>
        <time>2024-07-25T00:20:39.861Z</time>
      </trkpt>
      <trkpt lat="42.97328" lon="-0.19321">
        <ele>863.6</ele>
        <time>2024-07-25T00:20:48.845Z</time>
      </trkpt>
      <trkpt lat="42.97309" lon="-0.19351">
        <ele>862.8</ele>
        <time>2024-07-25T00:20:57.455Z</time>
      </trkpt>
      <trkpt lat="42.97299" lon="-0.19373">
        <ele>862.5</ele>
        <time>2024-07-25T00:21:03.276Z</time>
      </trkpt>
      <trkpt lat="42.9729" lon="-0.19421">
        <ele>862.5</ele>
        <time>2024-07-25T00:21:14.963Z</time>
      </trkpt>
      <trkpt lat="42.97285" lon="-0.19437">
        <ele>862.5</ele>
        <time>2024-07-25T00:21:19.066Z</time>
      </trkpt>
      <trkpt lat="42.97275" lon="-0.1946">
        <ele>862.4</ele>
        <time>2024-07-25T00:21:25.278Z</time>
      </trkpt>
      <trkpt lat="42.97248" lon="-0.19506">
        <ele>861.1</ele>
        <time>2024-07-25T00:21:37.977Z</time>
        <extensions>
          <visugpx:TrkExtension xmlns:visugpx="https://www.visugpx.com/editgpx/">
            <visugpx:node>31</visugpx:node>
            </visugpx:TrkExtension>
        </extensions>
      </trkpt>
      <trkpt lat="42.97112" lon="-0.19706">
        <ele>852.5</ele>
        <time>2024-07-25T00:22:34.578Z</time>
      </trkpt>
      <trkpt lat="42.9709" lon="-0.19737">
        <ele>852</ele>
        <time>2024-07-25T00:22:44.285Z</time>
      </trkpt>
      <trkpt lat="42.97036" lon="-0.19806">
        <ele>850.6</ele>
        <time>2024-07-25T00:23:06.780Z</time>
      </trkpt>
      <trkpt lat="42.97021" lon="-0.1983">
        <ele>850.4</ele>
        <time>2024-07-25T00:23:14.030Z</time>
      </trkpt>
      <trkpt lat="42.97004" lon="-0.19867">
        <ele>849.7</ele>
        <time>2024-07-25T00:23:23.672Z</time>
      </trkpt>
      <trkpt lat="42.96956" lon="-0.19999">
        <ele>855.4</ele>
        <time>2024-07-25T00:24:04.807Z</time>
      </trkpt>
      <trkpt lat="42.96949" lon="-0.20014">
        <ele>855.8</ele>
        <time>2024-07-25T00:24:09.428Z</time>
      </trkpt>
      <trkpt lat="42.96933" lon="-0.20042">
        <ele>855.8</ele>
        <time>2024-07-25T00:24:17.808Z</time>
      </trkpt>
      <trkpt lat="42.969" lon="-0.20089">
        <ele>857.1</ele>
        <time>2024-07-25T00:24:34.542Z</time>
      </trkpt>
      <trkpt lat="42.96848" lon="-0.20159">
        <ele>858.1</ele>
        <time>2024-07-25T00:24:59.092Z</time>
      </trkpt>
      <trkpt lat="42.96838" lon="-0.20171">
        <ele>858.4</ele>
        <time>2024-07-25T00:25:03.695Z</time>
      </trkpt>
      <trkpt lat="42.96819" lon="-0.20189">
        <ele>857.9</ele>
        <time>2024-07-25T00:25:10.674Z</time>
      </trkpt>
      <trkpt lat="42.96796" lon="-0.20205">
        <ele>857.7</ele>
        <time>2024-07-25T00:25:18.798Z</time>
      </trkpt>
      <trkpt lat="42.96751" lon="-0.20229">
        <ele>857</ele>
        <time>2024-07-25T00:25:33.696Z</time>
      </trkpt>
      <trkpt lat="42.96735" lon="-0.20236">
        <ele>857.7</ele>
        <time>2024-07-25T00:25:39.873Z</time>
        <extensions>
          <visugpx:TrkExtension xmlns:visugpx="https://www.visugpx.com/editgpx/">
            <visugpx:node>32</visugpx:node>
            </visugpx:TrkExtension>
        </extensions>
      </trkpt>
      <trkpt lat="42.96709" lon="-0.20245">
        <ele>858.1</ele>
        <time>2024-07-25T00:25:48.929Z</time>
      </trkpt>
      <trkpt lat="42.9666" lon="-0.20252">
        <ele>858.2</ele>
        <time>2024-07-25T00:26:04.910Z</time>
      </trkpt>
      <trkpt lat="42.9665" lon="-0.20251">
        <ele>858.1</ele>
        <time>2024-07-25T00:26:08.045Z</time>
      </trkpt>
      <trkpt lat="42.96633" lon="-0.20244">
        <ele>857.8</ele>
        <time>2024-07-25T00:26:13.481Z</time>
      </trkpt>
      <trkpt lat="42.96602" lon="-0.20225">
        <ele>857.4</ele>
        <time>2024-07-25T00:26:24.046Z</time>
      </trkpt>
      <trkpt lat="42.96581" lon="-0.20219">
        <ele>857.9</ele>
        <time>2024-07-25T00:26:31.484Z</time>
      </trkpt>
      <trkpt lat="42.96545" lon="-0.20188">
        <ele>857.3</ele>
        <time>2024-07-25T00:26:44.623Z</time>
      </trkpt>
      <trkpt lat="42.96521" lon="-0.20174">
        <ele>857.3</ele>
        <time>2024-07-25T00:26:53.035Z</time>
      </trkpt>
      <trkpt lat="42.96506" lon="-0.20169">
        <ele>857.1</ele>
        <time>2024-07-25T00:26:57.819Z</time>
      </trkpt>
      <trkpt lat="42.96498" lon="-0.2017">
        <ele>857.1</ele>
        <time>2024-07-25T00:27:00.408Z</time>
      </trkpt>
      <trkpt lat="42.96473" lon="-0.20183">
        <ele>857.6</ele>
        <time>2024-07-25T00:27:09.547Z</time>
      </trkpt>
      <trkpt lat="42.96456" lon="-0.20188">
        <ele>857.8</ele>
        <time>2024-07-25T00:27:15.356Z</time>
      </trkpt>
      <trkpt lat="42.96442" lon="-0.20184">
        <ele>857.6</ele>
        <time>2024-07-25T00:27:19.774Z</time>
      </trkpt>
      <trkpt lat="42.96416" lon="-0.20166">
        <ele>857</ele>
        <time>2024-07-25T00:27:28.600Z</time>
      </trkpt>
      <trkpt lat="42.96399" lon="-0.20161">
        <ele>856.8</ele>
        <time>2024-07-25T00:27:34.012Z</time>
      </trkpt>
      <trkpt lat="42.96372" lon="-0.2016">
        <ele>856.8</ele>
        <time>2024-07-25T00:27:42.718Z</time>
      </trkpt>
      <trkpt lat="42.96358" lon="-0.20162">
        <ele>856.8</ele>
        <time>2024-07-25T00:27:47.256Z</time>
      </trkpt>
      <trkpt lat="42.96328" lon="-0.20172">
        <ele>857.2</ele>
        <time>2024-07-25T00:27:57.618Z</time>
      </trkpt>
      <trkpt lat="42.96177" lon="-0.20256">
        <ele>861.1</ele>
        <time>2024-07-25T00:28:54.251Z</time>
      </trkpt>
      <trkpt lat="42.96148" lon="-0.20277">
        <ele>861</ele>
        <time>2024-07-25T00:29:04.732Z</time>
      </trkpt>
      <trkpt lat="42.96125" lon="-0.20302">
        <ele>861.4</ele>
        <time>2024-07-25T00:29:14.614Z</time>
      </trkpt>
      <trkpt lat="42.96108" lon="-0.20329">
        <ele>860.9</ele>
        <time>2024-07-25T00:29:22.540Z</time>
      </trkpt>
      <trkpt lat="42.96086" lon="-0.20379">
        <ele>861.1</ele>
        <time>2024-07-25T00:29:36.504Z</time>
      </trkpt>
      <trkpt lat="42.96013" lon="-0.20583">
        <ele>861.5</ele>
        <time>2024-07-25T00:30:30.472Z</time>
      </trkpt>
      <trkpt lat="42.96004" lon="-0.20605">
        <ele>861.8</ele>
        <time>2024-07-25T00:30:36.727Z</time>
        <extensions>
          <visugpx:TrkExtension xmlns:visugpx="https://www.visugpx.com/editgpx/">
            <visugpx:node>33</visugpx:node>
            </visugpx:TrkExtension>
        </extensions>
      </trkpt>
      <trkpt lat="42.95986" lon="-0.20639">
        <ele>862.5</ele>
        <time>2024-07-25T00:30:47.356Z</time>
      </trkpt>
      <trkpt lat="42.95941" lon="-0.20704">
        <ele>862</ele>
        <time>2024-07-25T00:31:07.976Z</time>
      </trkpt>
      <trkpt lat="42.9591" lon="-0.20754">
        <ele>863.1</ele>
        <time>2024-07-25T00:31:24.583Z</time>
      </trkpt>
      <trkpt lat="42.95861" lon="-0.20848">
        <ele>865</ele>
        <time>2024-07-25T00:31:53.790Z</time>
      </trkpt>
      <trkpt lat="42.95823" lon="-0.20916">
        <ele>866</ele>
        <time>2024-07-25T00:32:15.002Z</time>
      </trkpt>
      <trkpt lat="42.95723" lon="-0.21075">
        <ele>868.7</ele>
        <time>2024-07-25T00:33:07.244Z</time>
      </trkpt>
      <trkpt lat="42.95703" lon="-0.21122">
        <ele>869.1</ele>
        <time>2024-07-25T00:33:20.476Z</time>
      </trkpt>
      <trkpt lat="42.95669" lon="-0.21223">
        <ele>870</ele>
        <time>2024-07-25T00:33:47.618Z</time>
      </trkpt>
      <trkpt lat="42.95663" lon="-0.21279">
        <ele>871</ele>
        <time>2024-07-25T00:34:02.017Z</time>
      </trkpt>
      <trkpt lat="42.95658" lon="-0.21298">
        <ele>871</ele>
        <time>2024-07-25T00:34:06.780Z</time>
      </trkpt>
      <trkpt lat="42.95649" lon="-0.21321">
        <ele>871.6</ele>
        <time>2024-07-25T00:34:13.572Z</time>
        <extensions>
          <visugpx:TrkExtension xmlns:visugpx="https://www.visugpx.com/editgpx/">
            <visugpx:node>34</visugpx:node>
            </visugpx:TrkExtension>
        </extensions>
      </trkpt>
      <trkpt lat="42.95622" lon="-0.21363">
        <ele>872.1</ele>
        <time>2024-07-25T00:34:27.269Z</time>
      </trkpt>
      <trkpt lat="42.95617" lon="-0.21379">
        <ele>872.6</ele>
        <time>2024-07-25T00:34:31.915Z</time>
      </trkpt>
      <trkpt lat="42.95617" lon="-0.21435">
        <ele>873.7</ele>
        <time>2024-07-25T00:34:46.285Z</time>
      </trkpt>
      <trkpt lat="42.95642" lon="-0.21507">
        <ele>876.4</ele>
        <time>2024-07-25T00:35:08.056Z</time>
      </trkpt>
      <trkpt lat="42.9563" lon="-0.21509">
        <ele>876.3</ele>
        <time>2024-07-25T00:35:11.856Z</time>
        <extensions>
          <visugpx:TrkExtension xmlns:visugpx="https://www.visugpx.com/editgpx/">
            <visugpx:node>35</visugpx:node>
            </visugpx:TrkExtension>
        </extensions>
      </trkpt>
      <trkpt lat="42.95642" lon="-0.21507">
        <ele>876.4</ele>
        <time>2024-07-25T00:35:15.854Z</time>
      </trkpt>
      <trkpt lat="42.9566" lon="-0.21531">
        <ele>877.9</ele>
        <time>2024-07-25T00:35:25.663Z</time>
      </trkpt>
      <trkpt lat="42.95678" lon="-0.21546">
        <ele>879.1</ele>
        <time>2024-07-25T00:35:33.813Z</time>
      </trkpt>
      <trkpt lat="42.95692" lon="-0.21555">
        <ele>879.9</ele>
        <time>2024-07-25T00:35:39.691Z</time>
      </trkpt>
      <trkpt lat="42.95721" lon="-0.21564">
        <ele>883.2</ele>
        <time>2024-07-25T00:35:53.520Z</time>
      </trkpt>
      <trkpt lat="42.95733" lon="-0.21563">
        <ele>884.9</ele>
        <time>2024-07-25T00:35:59.758Z</time>
      </trkpt>
      <trkpt lat="42.9574" lon="-0.2156">
        <ele>885.8</ele>
        <time>2024-07-25T00:36:03.315Z</time>
      </trkpt>
      <trkpt lat="42.95771" lon="-0.21533">
        <ele>888.2</ele>
        <time>2024-07-25T00:36:17.925Z</time>
      </trkpt>
      <trkpt lat="42.958" lon="-0.21515">
        <ele>892.4</ele>
        <time>2024-07-25T00:36:33.887Z</time>
      </trkpt>
      <trkpt lat="42.95815" lon="-0.21497">
        <ele>894.7</ele>
        <time>2024-07-25T00:36:43.311Z</time>
      </trkpt>
      <trkpt lat="42.95837" lon="-0.21456">
        <ele>897.6</ele>
        <time>2024-07-25T00:36:58.742Z</time>
      </trkpt>
      <trkpt lat="42.95844" lon="-0.21438">
        <ele>898.1</ele>
        <time>2024-07-25T00:37:04.085Z</time>
      </trkpt>
      <trkpt lat="42.95849" lon="-0.21414">
        <ele>897</ele>
        <time>2024-07-25T00:37:09.236Z</time>
      </trkpt>
      <trkpt lat="42.95854" lon="-0.21377">
        <ele>897.3</ele>
        <time>2024-07-25T00:37:18.417Z</time>
      </trkpt>
      <trkpt lat="42.95857" lon="-0.21367">
        <ele>897.9</ele>
        <time>2024-07-25T00:37:21.674Z</time>
      </trkpt>
      <trkpt lat="42.95865" lon="-0.21354">
        <ele>900.1</ele>
        <time>2024-07-25T00:37:29.043Z</time>
      </trkpt>
      <trkpt lat="42.95891" lon="-0.21331">
        <ele>907.5</ele>
        <time>2024-07-25T00:37:52.485Z</time>
        <extensions>
          <visugpx:TrkExtension xmlns:visugpx="https://www.visugpx.com/editgpx/">
            <visugpx:node>36</visugpx:node>
            </visugpx:TrkExtension>
        </extensions>
      </trkpt>
      <trkpt lat="42.95902" lon="-0.21316">
        <ele>910</ele>
        <time>2024-07-25T00:38:01.153Z</time>
      </trkpt>
      <trkpt lat="42.95924" lon="-0.21277">
        <ele>911.7</ele>
        <time>2024-07-25T00:38:14.643Z</time>
      </trkpt>
      <trkpt lat="42.95941" lon="-0.21253">
        <ele>911.8</ele>
        <time>2024-07-25T00:38:22.623Z</time>
      </trkpt>
      <trkpt lat="42.96" lon="-0.21187">
        <ele>918.9</ele>
        <time>2024-07-25T00:38:55.933Z</time>
      </trkpt>
      <trkpt lat="42.96011" lon="-0.21169">
        <ele>919</ele>
        <time>2024-07-25T00:39:01.566Z</time>
      </trkpt>
      <trkpt lat="42.96019" lon="-0.21144">
        <ele>918.9</ele>
        <time>2024-07-25T00:39:07.905Z</time>
      </trkpt>
      <trkpt lat="42.96027" lon="-0.21129">
        <ele>920.1</ele>
        <time>2024-07-25T00:39:13.742Z</time>
      </trkpt>
      <trkpt lat="42.96036" lon="-0.21122">
        <ele>921.3</ele>
        <time>2024-07-25T00:39:18.642Z</time>
      </trkpt>
      <trkpt lat="42.96042" lon="-0.21121">
        <ele>922.3</ele>
        <time>2024-07-25T00:39:22.071Z</time>
      </trkpt>
      <trkpt lat="42.96048" lon="-0.21122">
        <ele>923.4</ele>
        <time>2024-07-25T00:39:25.724Z</time>
      </trkpt>
      <trkpt lat="42.96054" lon="-0.21126">
        <ele>924.8</ele>
        <time>2024-07-25T00:39:30.219Z</time>
        <extensions>
          <visugpx:TrkExtension xmlns:visugpx="https://www.visugpx.com/editgpx/">
            <visugpx:node>37</visugpx:node>
            </visugpx:TrkExtension>
        </extensions>
      </trkpt>
      <trkpt lat="42.9606" lon="-0.21136">
        <ele>926</ele>
        <time>2024-07-25T00:39:34.875Z</time>
      </trkpt>
      <trkpt lat="42.96063" lon="-0.21152">
        <ele>927</ele>
        <time>2024-07-25T00:39:39.971Z</time>
      </trkpt>
      <trkpt lat="42.96063" lon="-0.21286">
        <ele>936.4</ele>
        <time>2024-07-25T00:40:23.220Z</time>
      </trkpt>
      <trkpt lat="42.9606" lon="-0.21318">
        <ele>938.4</ele>
        <time>2024-07-25T00:40:33.240Z</time>
      </trkpt>
      <trkpt lat="42.96053" lon="-0.21359">
        <ele>940.6</ele>
        <time>2024-07-25T00:40:45.739Z</time>
      </trkpt>
      <trkpt lat="42.96052" lon="-0.2137">
        <ele>941.3</ele>
        <time>2024-07-25T00:40:49.201Z</time>
      </trkpt>
      <trkpt lat="42.96053" lon="-0.21381">
        <ele>942.2</ele>
        <time>2024-07-25T00:40:52.972Z</time>
      </trkpt>
      <trkpt lat="42.96055" lon="-0.2139">
        <ele>942.9</ele>
        <time>2024-07-25T00:40:56.071Z</time>
      </trkpt>
      <trkpt lat="42.96062" lon="-0.21406">
        <ele>943.8</ele>
        <time>2024-07-25T00:41:01.505Z</time>
      </trkpt>
      <trkpt lat="42.96083" lon="-0.21434">
        <ele>948.2</ele>
        <time>2024-07-25T00:41:17.217Z</time>
      </trkpt>
      <trkpt lat="42.96091" lon="-0.21448">
        <ele>950.1</ele>
        <time>2024-07-25T00:41:24.081Z</time>
      </trkpt>
      <trkpt lat="42.96096" lon="-0.21463">
        <ele>952</ele>
        <time>2024-07-25T00:41:30.725Z</time>
      </trkpt>
      <trkpt lat="42.96099" lon="-0.21487">
        <ele>954.4</ele>
        <time>2024-07-25T00:41:39.746Z</time>
      </trkpt>
      <trkpt lat="42.96097" lon="-0.21545">
        <ele>958.2</ele>
        <time>2024-07-25T00:41:58.075Z</time>
      </trkpt>
      <trkpt lat="42.96088" lon="-0.21648">
        <ele>963.3</ele>
        <time>2024-07-25T00:42:28.437Z</time>
      </trkpt>
      <trkpt lat="42.96091" lon="-0.21701">
        <ele>966.6</ele>
        <time>2024-07-25T00:42:44.954Z</time>
      </trkpt>
      <trkpt lat="42.96088" lon="-0.21727">
        <ele>968.1</ele>
        <time>2024-07-25T00:42:52.941Z</time>
      </trkpt>
      <trkpt lat="42.9608" lon="-0.21764">
        <ele>970</ele>
        <time>2024-07-25T00:43:04.238Z</time>
      </trkpt>
      <trkpt lat="42.96079" lon="-0.21778">
        <ele>971.4</ele>
        <time>2024-07-25T00:43:09.475Z</time>
      </trkpt>
      <trkpt lat="42.96084" lon="-0.21823">
        <ele>975.2</ele>
        <time>2024-07-25T00:43:25.136Z</time>
      </trkpt>
      <trkpt lat="42.96084" lon="-0.21837">
        <ele>975.7</ele>
        <time>2024-07-25T00:43:28.992Z</time>
      </trkpt>
      <trkpt lat="42.96081" lon="-0.21856">
        <ele>977.8</ele>
        <time>2024-07-25T00:43:36.544Z</time>
      </trkpt>
      <trkpt lat="42.96069" lon="-0.21888">
        <ele>976.8</ele>
        <time>2024-07-25T00:43:44.110Z</time>
      </trkpt>
      <trkpt lat="42.96066" lon="-0.21905">
        <ele>976</ele>
        <time>2024-07-25T00:43:47.720Z</time>
      </trkpt>
      <trkpt lat="42.96067" lon="-0.21921">
        <ele>976.2</ele>
        <time>2024-07-25T00:43:51.714Z</time>
      </trkpt>
      <trkpt lat="42.96083" lon="-0.21991">
        <ele>977.5</ele>
        <time>2024-07-25T00:44:10.374Z</time>
      </trkpt>
      <trkpt lat="42.96087" lon="-0.22031">
        <ele>976.1</ele>
        <time>2024-07-25T00:44:18.708Z</time>
      </trkpt>
      <trkpt lat="42.96094" lon="-0.22046">
        <ele>978</ele>
        <time>2024-07-25T00:44:25.577Z</time>
        <extensions>
          <visugpx:TrkExtension xmlns:visugpx="https://www.visugpx.com/editgpx/">
            <visugpx:node>38</visugpx:node>
            </visugpx:TrkExtension>
        </extensions>
      </trkpt>
      <trkpt lat="42.96099" lon="-0.22051">
        <ele>979.5</ele>
        <time>2024-07-25T00:44:30.327Z</time>
      </trkpt>
      <trkpt lat="42.96103" lon="-0.22052">
        <ele>980.7</ele>
        <time>2024-07-25T00:44:34.208Z</time>
      </trkpt>
      <trkpt lat="42.96113" lon="-0.22051">
        <ele>983.5</ele>
        <time>2024-07-25T00:44:43.165Z</time>
      </trkpt>
      <trkpt lat="42.96121" lon="-0.22043">
        <ele>985.7</ele>
        <time>2024-07-25T00:44:50.171Z</time>
      </trkpt>
      <trkpt lat="42.96124" lon="-0.22036">
        <ele>986.6</ele>
        <time>2024-07-25T00:44:53.370Z</time>
      </trkpt>
      <trkpt lat="42.96126" lon="-0.22028">
        <ele>987.3</ele>
        <time>2024-07-25T00:44:56.269Z</time>
      </trkpt>
      <trkpt lat="42.96126" lon="-0.22019">
        <ele>987.9</ele>
        <time>2024-07-25T00:44:59.126Z</time>
      </trkpt>
      <trkpt lat="42.96118" lon="-0.21979">
        <ele>989.1</ele>
        <time>2024-07-25T00:45:10.208Z</time>
      </trkpt>
      <trkpt lat="42.96118" lon="-0.21967">
        <ele>990.1</ele>
        <time>2024-07-25T00:45:14.334Z</time>
      </trkpt>
      <trkpt lat="42.96121" lon="-0.21948">
        <ele>991.9</ele>
        <time>2024-07-25T00:45:21.327Z</time>
      </trkpt>
      <trkpt lat="42.96128" lon="-0.21934">
        <ele>993.6</ele>
        <time>2024-07-25T00:45:27.662Z</time>
      </trkpt>
      <trkpt lat="42.96133" lon="-0.21929">
        <ele>994.7</ele>
        <time>2024-07-25T00:45:31.343Z</time>
      </trkpt>
      <trkpt lat="42.96145" lon="-0.21924">
        <ele>996.7</ele>
        <time>2024-07-25T00:45:38.302Z</time>
      </trkpt>
      <trkpt lat="42.96152" lon="-0.21924">
        <ele>997.5</ele>
        <time>2024-07-25T00:45:41.596Z</time>
      </trkpt>
      <trkpt lat="42.96169" lon="-0.21927">
        <ele>999.7</ele>
        <time>2024-07-25T00:45:50.077Z</time>
      </trkpt>
      <trkpt lat="42.96206" lon="-0.21937">
        <ele>1006.8</ele>
        <time>2024-07-25T00:46:13.426Z</time>
      </trkpt>
      <trkpt lat="42.96217" lon="-0.21936">
        <ele>1008.9</ele>
        <time>2024-07-25T00:46:20.311Z</time>
      </trkpt>
      <trkpt lat="42.96226" lon="-0.21929">
        <ele>1011</ele>
        <time>2024-07-25T00:46:27.095Z</time>
      </trkpt>
      <trkpt lat="42.96231" lon="-0.21916">
        <ele>1012.2</ele>
        <time>2024-07-25T00:46:32.105Z</time>
      </trkpt>
      <trkpt lat="42.96232" lon="-0.21903">
        <ele>1012.1</ele>
        <time>2024-07-25T00:46:35.092Z</time>
      </trkpt>
      <trkpt lat="42.96221" lon="-0.21865">
        <ele>1008.7</ele>
        <time>2024-07-25T00:46:43.527Z</time>
      </trkpt>
      <trkpt lat="42.96221" lon="-0.21855">
        <ele>1008.8</ele>
        <time>2024-07-25T00:46:45.988Z</time>
      </trkpt>
      <trkpt lat="42.96222" lon="-0.21844">
        <ele>1009.5</ele>
        <time>2024-07-25T00:46:49.449Z</time>
      </trkpt>
      <trkpt lat="42.96229" lon="-0.21823">
        <ele>1011.2</ele>
        <time>2024-07-25T00:46:57.023Z</time>
        <extensions>
          <visugpx:TrkExtension xmlns:visugpx="https://www.visugpx.com/editgpx/">
            <visugpx:node>39</visugpx:node>
            </visugpx:TrkExtension>
        </extensions>
      </trkpt>
      <trkpt lat="42.96238" lon="-0.21803">
        <ele>1013</ele>
        <time>2024-07-25T00:47:04.840Z</time>
      </trkpt>
      <trkpt lat="42.96247" lon="-0.21793">
        <ele>1015.2</ele>
        <time>2024-07-25T00:47:12.060Z</time>
      </trkpt>
      <trkpt lat="42.96258" lon="-0.21789">
        <ele>1016.8</ele>
        <time>2024-07-25T00:47:17.948Z</time>
      </trkpt>
      <trkpt lat="42.96269" lon="-0.2179">
        <ele>1018.5</ele>
        <time>2024-07-25T00:47:23.945Z</time>
      </trkpt>
      <trkpt lat="42.96275" lon="-0.21793">
        <ele>1019.9</ele>
        <time>2024-07-25T00:47:28.411Z</time>
      </trkpt>
      <trkpt lat="42.96283" lon="-0.21801">
        <ele>1021.3</ele>
        <time>2024-07-25T00:47:33.551Z</time>
      </trkpt>
      <trkpt lat="42.96288" lon="-0.21812">
        <ele>1022.2</ele>
        <time>2024-07-25T00:47:37.718Z</time>
      </trkpt>
      <trkpt lat="42.9629" lon="-0.2185">
        <ele>1026.2</ele>
        <time>2024-07-25T00:47:52.294Z</time>
      </trkpt>
      <trkpt lat="42.96295" lon="-0.21865">
        <ele>1028</ele>
        <time>2024-07-25T00:47:58.736Z</time>
      </trkpt>
      <trkpt lat="42.96299" lon="-0.21871">
        <ele>1028.8</ele>
        <time>2024-07-25T00:48:01.744Z</time>
      </trkpt>
      <trkpt lat="42.96309" lon="-0.21877">
        <ele>1030.6</ele>
        <time>2024-07-25T00:48:07.926Z</time>
      </trkpt>
      <trkpt lat="42.96315" lon="-0.21878">
        <ele>1031.4</ele>
        <time>2024-07-25T00:48:10.960Z</time>
      </trkpt>
      <trkpt lat="42.96328" lon="-0.21874">
        <ele>1032.7</ele>
        <time>2024-07-25T00:48:16.872Z</time>
      </trkpt>
      <trkpt lat="42.96344" lon="-0.2186">
        <ele>1034.1</ele>
        <time>2024-07-25T00:48:24.639Z</time>
      </trkpt>
      <trkpt lat="42.96429" lon="-0.21764">
        <ele>1038.7</ele>
        <time>2024-07-25T00:49:05.194Z</time>
      </trkpt>
      <trkpt lat="42.9648" lon="-0.21712">
        <ele>1044.9</ele>
        <time>2024-07-25T00:49:33.412Z</time>
      </trkpt>
      <trkpt lat="42.96536" lon="-0.21642">
        <ele>1052.1</ele>
        <time>2024-07-25T00:50:06.769Z</time>
      </trkpt>
      <trkpt lat="42.96543" lon="-0.21635">
        <ele>1052.9</ele>
        <time>2024-07-25T00:50:10.547Z</time>
      </trkpt>
      <trkpt lat="42.96551" lon="-0.2163">
        <ele>1054.1</ele>
        <time>2024-07-25T00:50:15.029Z</time>
      </trkpt>
      <trkpt lat="42.96579" lon="-0.21617">
        <ele>1059.4</ele>
        <time>2024-07-25T00:50:32.711Z</time>
      </trkpt>
      <trkpt lat="42.96585" lon="-0.21612">
        <ele>1060.4</ele>
        <time>2024-07-25T00:50:36.369Z</time>
      </trkpt>
      <trkpt lat="42.96594" lon="-0.21599">
        <ele>1061.2</ele>
        <time>2024-07-25T00:50:41.502Z</time>
      </trkpt>
      <trkpt lat="42.96612" lon="-0.21543">
        <ele>1059.9</ele>
        <time>2024-07-25T00:50:54.716Z</time>
      </trkpt>
      <trkpt lat="42.96618" lon="-0.2153">
        <ele>1059.7</ele>
        <time>2024-07-25T00:50:58.151Z</time>
      </trkpt>
      <trkpt lat="42.96626" lon="-0.21522">
        <ele>1060.3</ele>
        <time>2024-07-25T00:51:02.028Z</time>
      </trkpt>
      <trkpt lat="42.9663" lon="-0.21521">
        <ele>1060.9</ele>
        <time>2024-07-25T00:51:04.187Z</time>
      </trkpt>
      <trkpt lat="42.96639" lon="-0.21524">
        <ele>1063.3</ele>
        <time>2024-07-25T00:51:11.800Z</time>
        <extensions>
          <visugpx:TrkExtension xmlns:visugpx="https://www.visugpx.com/editgpx/">
            <visugpx:node>40</visugpx:node>
            </visugpx:TrkExtension>
        </extensions>
      </trkpt>
      <trkpt lat="42.96646" lon="-0.21531">
        <ele>1065.8</ele>
        <time>2024-07-25T00:51:19.843Z</time>
      </trkpt>
      <trkpt lat="42.96649" lon="-0.21543">
        <ele>1068.4</ele>
        <time>2024-07-25T00:51:28.165Z</time>
      </trkpt>
      <trkpt lat="42.96649" lon="-0.2155">
        <ele>1069.6</ele>
        <time>2024-07-25T00:51:31.970Z</time>
      </trkpt>
      <trkpt lat="42.9664" lon="-0.21588">
        <ele>1071.6</ele>
        <time>2024-07-25T00:51:43.708Z</time>
      </trkpt>
      <trkpt lat="42.9664" lon="-0.2164">
        <ele>1075.5</ele>
        <time>2024-07-25T00:52:00.883Z</time>
      </trkpt>
      <trkpt lat="42.96635" lon="-0.21687">
        <ele>1080.9</ele>
        <time>2024-07-25T00:52:19.872Z</time>
      </trkpt>
      <trkpt lat="42.9663" lon="-0.21717">
        <ele>1084.6</ele>
        <time>2024-07-25T00:52:32.594Z</time>
      </trkpt>
      <trkpt lat="42.96615" lon="-0.21762">
        <ele>1087.9</ele>
        <time>2024-07-25T00:52:48.298Z</time>
      </trkpt>
      <trkpt lat="42.9661" lon="-0.21785">
        <ele>1089.7</ele>
        <time>2024-07-25T00:52:56.223Z</time>
      </trkpt>
      <trkpt lat="42.96607" lon="-0.21824">
        <ele>1094</ele>
        <time>2024-07-25T00:53:11.584Z</time>
      </trkpt>
      <trkpt lat="42.96593" lon="-0.21901">
        <ele>1098.9</ele>
        <time>2024-07-25T00:53:36.198Z</time>
      </trkpt>
      <trkpt lat="42.96592" lon="-0.21941">
        <ele>1105.4</ele>
        <time>2024-07-25T00:53:56.899Z</time>
      </trkpt>
      <trkpt lat="42.96588" lon="-0.21972">
        <ele>1109</ele>
        <time>2024-07-25T00:54:09.528Z</time>
      </trkpt>
      <trkpt lat="42.96582" lon="-0.21989">
        <ele>1109.4</ele>
        <time>2024-07-25T00:54:14.403Z</time>
      </trkpt>
      <trkpt lat="42.96571" lon="-0.22008">
        <ele>1107.4</ele>
        <time>2024-07-25T00:54:19.403Z</time>
      </trkpt>
      <trkpt lat="42.96561" lon="-0.2203">
        <ele>1106.3</ele>
        <time>2024-07-25T00:54:24.749Z</time>
      </trkpt>
      <trkpt lat="42.96556" lon="-0.2205">
        <ele>1107.2</ele>
        <time>2024-07-25T00:54:30.752Z</time>
      </trkpt>
      <trkpt lat="42.96552" lon="-0.22077">
        <ele>1109.1</ele>
        <time>2024-07-25T00:54:39.593Z</time>
      </trkpt>
      <trkpt lat="42.9655" lon="-0.22115">
        <ele>1113.1</ele>
        <time>2024-07-25T00:54:54.170Z</time>
      </trkpt>
      <trkpt lat="42.96553" lon="-0.22133">
        <ele>1116.2</ele>
        <time>2024-07-25T00:55:04.011Z</time>
      </trkpt>
      <trkpt lat="42.96564" lon="-0.22174">
        <ele>1119.6</ele>
        <time>2024-07-25T00:55:18.633Z</time>
      </trkpt>
      <trkpt lat="42.96563" lon="-0.22195">
        <ele>1118.3</ele>
        <time>2024-07-25T00:55:22.977Z</time>
      </trkpt>
      <trkpt lat="42.96556" lon="-0.2222">
        <ele>1118</ele>
        <time>2024-07-25T00:55:29.003Z</time>
      </trkpt>
      <trkpt lat="42.96514" lon="-0.22332">
        <ele>1122.8</ele>
        <time>2024-07-25T00:56:04.041Z</time>
      </trkpt>
      <trkpt lat="42.9651" lon="-0.22348">
        <ele>1123.4</ele>
        <time>2024-07-25T00:56:08.693Z</time>
      </trkpt>
      <trkpt lat="42.96509" lon="-0.22367">
        <ele>1125.1</ele>
        <time>2024-07-25T00:56:15.434Z</time>
        <extensions>
          <visugpx:TrkExtension xmlns:visugpx="https://www.visugpx.com/editgpx/">
            <visugpx:node>41</visugpx:node>
            </visugpx:TrkExtension>
        </extensions>
      </trkpt>
      <trkpt lat="42.96514" lon="-0.22383">
        <ele>1127.1</ele>
        <time>2024-07-25T00:56:22.435Z</time>
      </trkpt>
      <trkpt lat="42.96519" lon="-0.2239">
        <ele>1128.5</ele>
        <time>2024-07-25T00:56:26.994Z</time>
      </trkpt>
      <trkpt lat="42.96525" lon="-0.22395">
        <ele>1129.8</ele>
        <time>2024-07-25T00:56:31.290Z</time>
      </trkpt>
      <trkpt lat="42.96542" lon="-0.22401">
        <ele>1132</ele>
        <time>2024-07-25T00:56:39.883Z</time>
      </trkpt>
      <trkpt lat="42.96573" lon="-0.22402">
        <ele>1134.4</ele>
        <time>2024-07-25T00:56:52.720Z</time>
      </trkpt>
      <trkpt lat="42.96584" lon="-0.224">
        <ele>1135</ele>
        <time>2024-07-25T00:56:56.969Z</time>
      </trkpt>
      <trkpt lat="42.96618" lon="-0.22387">
        <ele>1136.5</ele>
        <time>2024-07-25T00:57:09.986Z</time>
      </trkpt>
      <trkpt lat="42.96633" lon="-0.22386">
        <ele>1137.2</ele>
        <time>2024-07-25T00:57:15.597Z</time>
      </trkpt>
      <trkpt lat="42.96652" lon="-0.22391">
        <ele>1137.5</ele>
        <time>2024-07-25T00:57:22.142Z</time>
      </trkpt>
      <trkpt lat="42.96675" lon="-0.22406">
        <ele>1139.2</ele>
        <time>2024-07-25T00:57:32.319Z</time>
      </trkpt>
      <trkpt lat="42.96692" lon="-0.22427">
        <ele>1140.9</ele>
        <time>2024-07-25T00:57:41.703Z</time>
      </trkpt>
      <trkpt lat="42.96715" lon="-0.2246">
        <ele>1143.5</ele>
        <time>2024-07-25T00:57:55.535Z</time>
      </trkpt>
      <trkpt lat="42.96726" lon="-0.22483">
        <ele>1145.7</ele>
        <time>2024-07-25T00:58:04.833Z</time>
      </trkpt>
      <trkpt lat="42.9673" lon="-0.22507">
        <ele>1147.5</ele>
        <time>2024-07-25T00:58:12.890Z</time>
      </trkpt>
      <trkpt lat="42.96727" lon="-0.22533">
        <ele>1149.4</ele>
        <time>2024-07-25T00:58:21.468Z</time>
      </trkpt>
      <trkpt lat="42.9672" lon="-0.22568">
        <ele>1152.4</ele>
        <time>2024-07-25T00:58:33.903Z</time>
        <extensions>
          <visugpx:TrkExtension xmlns:visugpx="https://www.visugpx.com/editgpx/">
            <visugpx:node>42</visugpx:node>
            </visugpx:TrkExtension>
        </extensions>
      </trkpt>
      <trkpt lat="42.9671" lon="-0.22629">
        <ele>1156.7</ele>
        <time>2024-07-25T00:58:53.947Z</time>
      </trkpt>
      <trkpt lat="42.96709" lon="-0.22653">
        <ele>1157.9</ele>
        <time>2024-07-25T00:59:01.007Z</time>
      </trkpt>
      <trkpt lat="42.96719" lon="-0.22698">
        <ele>1161.5</ele>
        <time>2024-07-25T00:59:16.655Z</time>
      </trkpt>
      <trkpt lat="42.9672" lon="-0.22711">
        <ele>1162.2</ele>
        <time>2024-07-25T00:59:20.559Z</time>
      </trkpt>
      <trkpt lat="42.96717" lon="-0.22734">
        <ele>1163</ele>
        <time>2024-07-25T00:59:26.951Z</time>
      </trkpt>
      <trkpt lat="42.9671" lon="-0.2275">
        <ele>1163.2</ele>
        <time>2024-07-25T00:59:31.553Z</time>
      </trkpt>
      <trkpt lat="42.96698" lon="-0.22765">
        <ele>1164.1</ele>
        <time>2024-07-25T00:59:37.807Z</time>
      </trkpt>
      <trkpt lat="42.96673" lon="-0.22786">
        <ele>1166.6</ele>
        <time>2024-07-25T00:59:50.282Z</time>
      </trkpt>
      <trkpt lat="42.96665" lon="-0.22791">
        <ele>1167.1</ele>
        <time>2024-07-25T00:59:53.681Z</time>
      </trkpt>
      <trkpt lat="42.9665" lon="-0.22794">
        <ele>1169.1</ele>
        <time>2024-07-25T01:00:01.280Z</time>
      </trkpt>
      <trkpt lat="42.96636" lon="-0.22789">
        <ele>1170</ele>
        <time>2024-07-25T01:00:06.972Z</time>
      </trkpt>
      <trkpt lat="42.96604" lon="-0.22762">
        <ele>1171.1</ele>
        <time>2024-07-25T01:00:20.259Z</time>
      </trkpt>
      <trkpt lat="42.96595" lon="-0.22757">
        <ele>1171.5</ele>
        <time>2024-07-25T01:00:23.826Z</time>
      </trkpt>
      <trkpt lat="42.96587" lon="-0.22755">
        <ele>1172.1</ele>
        <time>2024-07-25T01:00:27.151Z</time>
      </trkpt>
      <trkpt lat="42.96577" lon="-0.22755">
        <ele>1172.4</ele>
        <time>2024-07-25T01:00:30.693Z</time>
      </trkpt>
      <trkpt lat="42.96568" lon="-0.22757">
        <ele>1172.5</ele>
        <time>2024-07-25T01:00:33.734Z</time>
      </trkpt>
      <trkpt lat="42.96559" lon="-0.22762">
        <ele>1173.2</ele>
        <time>2024-07-25T01:00:37.684Z</time>
      </trkpt>
      <trkpt lat="42.96552" lon="-0.22769">
        <ele>1173.8</ele>
        <time>2024-07-25T01:00:41.176Z</time>
      </trkpt>
      <trkpt lat="42.96542" lon="-0.22788">
        <ele>1175</ele>
        <time>2024-07-25T01:00:48.093Z</time>
      </trkpt>
      <trkpt lat="42.96506" lon="-0.22905">
        <ele>1190.3</ele>
        <time>2024-07-25T01:01:40.652Z</time>
      </trkpt>
      <trkpt lat="42.96495" lon="-0.2293">
        <ele>1193.3</ele>
        <time>2024-07-25T01:01:51.693Z</time>
        <extensions>
          <visugpx:TrkExtension xmlns:visugpx="https://www.visugpx.com/editgpx/">
            <visugpx:node>43</visugpx:node>
            </visugpx:TrkExtension>
        </extensions>
      </trkpt>
      <trkpt lat="42.9648" lon="-0.22951">
        <ele>1194</ele>
        <time>2024-07-25T01:01:59.362Z</time>
      </trkpt>
      <trkpt lat="42.96448" lon="-0.22979">
        <ele>1194.3</ele>
        <time>2024-07-25T01:02:11.914Z</time>
      </trkpt>
      <trkpt lat="42.96435" lon="-0.22996">
        <ele>1196.7</ele>
        <time>2024-07-25T01:02:20.981Z</time>
      </trkpt>
      <trkpt lat="42.96428" lon="-0.23013">
        <ele>1198.5</ele>
        <time>2024-07-25T01:02:27.987Z</time>
      </trkpt>
      <trkpt lat="42.96421" lon="-0.23055">
        <ele>1204.5</ele>
        <time>2024-07-25T01:02:47.660Z</time>
      </trkpt>
      <trkpt lat="42.96418" lon="-0.23066">
        <ele>1206.1</ele>
        <time>2024-07-25T01:02:52.937Z</time>
      </trkpt>
      <trkpt lat="42.96413" lon="-0.23076">
        <ele>1207.4</ele>
        <time>2024-07-25T01:02:57.626Z</time>
      </trkpt>
      <trkpt lat="42.96401" lon="-0.23086">
        <ele>1208.3</ele>
        <time>2024-07-25T01:03:03.189Z</time>
      </trkpt>
      <trkpt lat="42.96394" lon="-0.23088">
        <ele>1208.2</ele>
        <time>2024-07-25T01:03:05.398Z</time>
      </trkpt>
      <trkpt lat="42.96387" lon="-0.23089">
        <ele>1208.1</ele>
        <time>2024-07-25T01:03:07.570Z</time>
      </trkpt>
      <trkpt lat="42.96372" lon="-0.23086">
        <ele>1208.1</ele>
        <time>2024-07-25T01:03:12.457Z</time>
      </trkpt>
      <trkpt lat="42.96359" lon="-0.23086">
        <ele>1208.4</ele>
        <time>2024-07-25T01:03:16.961Z</time>
      </trkpt>
      <trkpt lat="42.96352" lon="-0.23087">
        <ele>1208.4</ele>
        <time>2024-07-25T01:03:19.229Z</time>
      </trkpt>
      <trkpt lat="42.96346" lon="-0.2309">
        <ele>1208.8</ele>
        <time>2024-07-25T01:03:21.746Z</time>
      </trkpt>
      <trkpt lat="42.96339" lon="-0.23095">
        <ele>1209.6</ele>
        <time>2024-07-25T01:03:25.296Z</time>
      </trkpt>
      <trkpt lat="42.96293" lon="-0.23141">
        <ele>1215.9</ele>
        <time>2024-07-25T01:03:51.760Z</time>
      </trkpt>
      <trkpt lat="42.96283" lon="-0.23154">
        <ele>1217</ele>
        <time>2024-07-25T01:03:57.519Z</time>
      </trkpt>
      <trkpt lat="42.96276" lon="-0.23165">
        <ele>1218</ele>
        <time>2024-07-25T01:04:02.189Z</time>
      </trkpt>
      <trkpt lat="42.96266" lon="-0.23189">
        <ele>1220.3</ele>
        <time>2024-07-25T01:04:11.682Z</time>
      </trkpt>
      <trkpt lat="42.96244" lon="-0.23271">
        <ele>1225.4</ele>
        <time>2024-07-25T01:04:38.356Z</time>
        <extensions>
          <visugpx:TrkExtension xmlns:visugpx="https://www.visugpx.com/editgpx/">
            <visugpx:node>44</visugpx:node>
            </visugpx:TrkExtension>
        </extensions>
      </trkpt>
      <trkpt lat="42.96235" lon="-0.2331">
        <ele>1227.6</ele>
        <time>2024-07-25T01:04:50.583Z</time>
      </trkpt>
      <trkpt lat="42.96234" lon="-0.23325">
        <ele>1228.8</ele>
        <time>2024-07-25T01:04:55.671Z</time>
      </trkpt>
      <trkpt lat="42.96237" lon="-0.23356">
        <ele>1231</ele>
        <time>2024-07-25T01:05:05.773Z</time>
      </trkpt>
      <trkpt lat="42.96241" lon="-0.23372">
        <ele>1232.3</ele>
        <time>2024-07-25T01:05:11.408Z</time>
      </trkpt>
      <trkpt lat="42.96269" lon="-0.23456">
        <ele>1238.2</ele>
        <time>2024-07-25T01:05:40.336Z</time>
      </trkpt>
      <trkpt lat="42.96314" lon="-0.23614">
        <ele>1248.7</ele>
        <time>2024-07-25T01:06:32.979Z</time>
      </trkpt>
      <trkpt lat="42.96321" lon="-0.23631">
        <ele>1251.6</ele>
        <time>2024-07-25T01:06:42.345Z</time>
      </trkpt>
      <trkpt lat="42.96353" lon="-0.23693">
        <ele>1258.8</ele>
        <time>2024-07-25T01:07:09.949Z</time>
      </trkpt>
      <trkpt lat="42.96368" lon="-0.23733">
        <ele>1260.7</ele>
        <time>2024-07-25T01:07:22.698Z</time>
      </trkpt>
      <trkpt lat="42.96397" lon="-0.23822">
        <ele>1269.5</ele>
        <time>2024-07-25T01:07:57.355Z</time>
      </trkpt>
      <trkpt lat="42.964" lon="-0.23836">
        <ele>1271</ele>
        <time>2024-07-25T01:08:02.877Z</time>
      </trkpt>
      <trkpt lat="42.96401" lon="-0.23857">
        <ele>1272.6</ele>
        <time>2024-07-25T01:08:09.861Z</time>
      </trkpt>
      <trkpt lat="42.964" lon="-0.23865">
        <ele>1272.7</ele>
        <time>2024-07-25T01:08:11.879Z</time>
      </trkpt>
      <trkpt lat="42.9639" lon="-0.23895">
        <ele>1271.8</ele>
        <time>2024-07-25T01:08:18.830Z</time>
      </trkpt>
      <trkpt lat="42.9639" lon="-0.23918">
        <ele>1273.3</ele>
        <time>2024-07-25T01:08:26.082Z</time>
      </trkpt>
      <trkpt lat="42.96392" lon="-0.23931">
        <ele>1274.3</ele>
        <time>2024-07-25T01:08:30.475Z</time>
      </trkpt>
      <trkpt lat="42.96398" lon="-0.23951">
        <ele>1276.1</ele>
        <time>2024-07-25T01:08:37.905Z</time>
      </trkpt>
      <trkpt lat="42.96413" lon="-0.23981">
        <ele>1278.4</ele>
        <time>2024-07-25T01:08:49.259Z</time>
      </trkpt>
      <trkpt lat="42.96416" lon="-0.2399">
        <ele>1278.9</ele>
        <time>2024-07-25T01:08:52.172Z</time>
      </trkpt>
      <trkpt lat="42.96417" lon="-0.24001">
        <ele>1279.2</ele>
        <time>2024-07-25T01:08:55.110Z</time>
      </trkpt>
      <trkpt lat="42.96415" lon="-0.24014">
        <ele>1279.8</ele>
        <time>2024-07-25T01:08:58.927Z</time>
        <extensions>
          <visugpx:TrkExtension xmlns:visugpx="https://www.visugpx.com/editgpx/">
            <visugpx:node>45</visugpx:node>
            </visugpx:TrkExtension>
        </extensions>
      </trkpt>
      <trkpt lat="42.96407" lon="-0.24036">
        <ele>1281.2</ele>
        <time>2024-07-25T01:09:06.382Z</time>
      </trkpt>
      <trkpt lat="42.96381" lon="-0.24082">
        <ele>1287.9</ele>
        <time>2024-07-25T01:09:29.809Z</time>
      </trkpt>
      <trkpt lat="42.9637" lon="-0.24097">
        <ele>1289.8</ele>
        <time>2024-07-25T01:09:37.332Z</time>
      </trkpt>
      <trkpt lat="42.96357" lon="-0.24104">
        <ele>1290.5</ele>
        <time>2024-07-25T01:09:42.613Z</time>
      </trkpt>
      <trkpt lat="42.96349" lon="-0.24106">
        <ele>1290.9</ele>
        <time>2024-07-25T01:09:45.677Z</time>
      </trkpt>
      <trkpt lat="42.96324" lon="-0.24106">
        <ele>1291.2</ele>
        <time>2024-07-25T01:09:54.042Z</time>
      </trkpt>
      <trkpt lat="42.96307" lon="-0.24111">
        <ele>1292.9</ele>
        <time>2024-07-25T01:10:01.762Z</time>
      </trkpt>
      <trkpt lat="42.96292" lon="-0.24123">
        <ele>1295.8</ele>
        <time>2024-07-25T01:10:11.677Z</time>
      </trkpt>
      <trkpt lat="42.96285" lon="-0.24131">
        <ele>1297.5</ele>
        <time>2024-07-25T01:10:17.283Z</time>
      </trkpt>
      <trkpt lat="42.96274" lon="-0.24149">
        <ele>1299.8</ele>
        <time>2024-07-25T01:10:25.951Z</time>
      </trkpt>
      <trkpt lat="42.96272" lon="-0.24157">
        <ele>1300.5</ele>
        <time>2024-07-25T01:10:28.850Z</time>
      </trkpt>
      <trkpt lat="42.96271" lon="-0.24179">
        <ele>1301.8</ele>
        <time>2024-07-25T01:10:35.601Z</time>
      </trkpt>
      <trkpt lat="42.96275" lon="-0.24198">
        <ele>1303.2</ele>
        <time>2024-07-25T01:10:42.002Z</time>
      </trkpt>
      <trkpt lat="42.96282" lon="-0.24216">
        <ele>1304.8</ele>
        <time>2024-07-25T01:10:48.848Z</time>
      </trkpt>
      <trkpt lat="42.96286" lon="-0.24223">
        <ele>1305.5</ele>
        <time>2024-07-25T01:10:51.836Z</time>
      </trkpt>
      <trkpt lat="42.96298" lon="-0.24233">
        <ele>1307.3</ele>
        <time>2024-07-25T01:10:58.783Z</time>
      </trkpt>
      <trkpt lat="42.96325" lon="-0.24237">
        <ele>1310.6</ele>
        <time>2024-07-25T01:11:11.894Z</time>
      </trkpt>
      <trkpt lat="42.96337" lon="-0.24243">
        <ele>1311.7</ele>
        <time>2024-07-25T01:11:17.343Z</time>
      </trkpt>
      <trkpt lat="42.96341" lon="-0.24248">
        <ele>1312.1</ele>
        <time>2024-07-25T01:11:19.560Z</time>
      </trkpt>
      <trkpt lat="42.96346" lon="-0.2426">
        <ele>1313.5</ele>
        <time>2024-07-25T01:11:24.749Z</time>
      </trkpt>
      <trkpt lat="42.96346" lon="-0.24283">
        <ele>1315.2</ele>
        <time>2024-07-25T01:11:32.306Z</time>
      </trkpt>
      <trkpt lat="42.96339" lon="-0.24299">
        <ele>1315.8</ele>
        <time>2024-07-25T01:11:37.360Z</time>
      </trkpt>
      <trkpt lat="42.96307" lon="-0.24345">
        <ele>1320.4</ele>
        <time>2024-07-25T01:11:58.072Z</time>
      </trkpt>
      <trkpt lat="42.96292" lon="-0.24377">
        <ele>1322.2</ele>
        <time>2024-07-25T01:12:09.104Z</time>
      </trkpt>
      <trkpt lat="42.96262" lon="-0.24452">
        <ele>1330.8</ele>
        <time>2024-07-25T01:12:41.098Z</time>
      </trkpt>
      <trkpt lat="42.9625" lon="-0.24474">
        <ele>1333.6</ele>
        <time>2024-07-25T01:12:51.442Z</time>
      </trkpt>
      <trkpt lat="42.96234" lon="-0.24493">
        <ele>1336.2</ele>
        <time>2024-07-25T01:13:01.718Z</time>
      </trkpt>
      <trkpt lat="42.96191" lon="-0.24533">
        <ele>1338.8</ele>
        <time>2024-07-25T01:13:21.371Z</time>
      </trkpt>
      <trkpt lat="42.96149" lon="-0.24575">
        <ele>1342.4</ele>
        <time>2024-07-25T01:13:42.326Z</time>
      </trkpt>
      <trkpt lat="42.96129" lon="-0.24601">
        <ele>1345.1</ele>
        <time>2024-07-25T01:13:54.584Z</time>
      </trkpt>
      <trkpt lat="42.96119" lon="-0.24627">
        <ele>1348.1</ele>
        <time>2024-07-25T01:14:05.662Z</time>
      </trkpt>
      <trkpt lat="42.96093" lon="-0.24712">
        <ele>1353.9</ele>
        <time>2024-07-25T01:14:34.405Z</time>
      </trkpt>
      <trkpt lat="42.96083" lon="-0.24765">
        <ele>1357.6</ele>
        <time>2024-07-25T01:14:51.859Z</time>
      </trkpt>
      <trkpt lat="42.96079" lon="-0.24778">
        <ele>1358.5</ele>
        <time>2024-07-25T01:14:56.277Z</time>
      </trkpt>
      <trkpt lat="42.96059" lon="-0.24822">
        <ele>1362</ele>
        <time>2024-07-25T01:15:12.792Z</time>
      </trkpt>
      <trkpt lat="42.96031" lon="-0.24861">
        <ele>1365</ele>
        <time>2024-07-25T01:15:29.211Z</time>
      </trkpt>
      <trkpt lat="42.96022" lon="-0.24883">
        <ele>1366.9</ele>
        <time>2024-07-25T01:15:37.551Z</time>
      </trkpt>
      <trkpt lat="42.96013" lon="-0.24914">
        <ele>1369.8</ele>
        <time>2024-07-25T01:15:49.221Z</time>
        <extensions>
          <visugpx:TrkExtension xmlns:visugpx="https://www.visugpx.com/editgpx/">
            <visugpx:node>46</visugpx:node>
            </visugpx:TrkExtension>
        </extensions>
      </trkpt>
      <trkpt lat="42.96007" lon="-0.24936">
        <ele>1370.8</ele>
        <time>2024-07-25T01:15:55.891Z</time>
      </trkpt>
      <trkpt lat="42.96005" lon="-0.24963">
        <ele>1372.4</ele>
        <time>2024-07-25T01:16:04.202Z</time>
      </trkpt>
      <trkpt lat="42.96011" lon="-0.24999">
        <ele>1375</ele>
        <time>2024-07-25T01:16:16.134Z</time>
      </trkpt>
      <trkpt lat="42.96019" lon="-0.25018">
        <ele>1376.7</ele>
        <time>2024-07-25T01:16:23.463Z</time>
      </trkpt>
      <trkpt lat="42.96028" lon="-0.25028">
        <ele>1379</ele>
        <time>2024-07-25T01:16:30.930Z</time>
      </trkpt>
      <trkpt lat="42.96034" lon="-0.25031">
        <ele>1379.5</ele>
        <time>2024-07-25T01:16:33.582Z</time>
      </trkpt>
      <trkpt lat="42.96082" lon="-0.25037">
        <ele>1383.9</ele>
        <time>2024-07-25T01:16:54.507Z</time>
      </trkpt>
      <trkpt lat="42.96098" lon="-0.25043">
        <ele>1385.2</ele>
        <time>2024-07-25T01:17:01.397Z</time>
      </trkpt>
      <trkpt lat="42.96104" lon="-0.25048">
        <ele>1385.6</ele>
        <time>2024-07-25T01:17:04.114Z</time>
      </trkpt>
      <trkpt lat="42.96109" lon="-0.25055">
        <ele>1385.7</ele>
        <time>2024-07-25T01:17:06.524Z</time>
      </trkpt>
      <trkpt lat="42.96115" lon="-0.2507">
        <ele>1387.9</ele>
        <time>2024-07-25T01:17:13.908Z</time>
      </trkpt>
      <trkpt lat="42.96116" lon="-0.25089">
        <ele>1389.6</ele>
        <time>2024-07-25T01:17:20.649Z</time>
      </trkpt>
      <trkpt lat="42.96096" lon="-0.25158">
        <ele>1394.1</ele>
        <time>2024-07-25T01:17:43.554Z</time>
      </trkpt>
      <trkpt lat="42.96095" lon="-0.25174">
        <ele>1395.3</ele>
        <time>2024-07-25T01:17:48.851Z</time>
      </trkpt>
      <trkpt lat="42.96099" lon="-0.25191">
        <ele>1397.5</ele>
        <time>2024-07-25T01:17:56.348Z</time>
      </trkpt>
      <trkpt lat="42.96104" lon="-0.252">
        <ele>1398.7</ele>
        <time>2024-07-25T01:18:00.697Z</time>
      </trkpt>
      <trkpt lat="42.96117" lon="-0.25217">
        <ele>1401</ele>
        <time>2024-07-25T01:18:09.584Z</time>
      </trkpt>
      <trkpt lat="42.96124" lon="-0.25233">
        <ele>1402.1</ele>
        <time>2024-07-25T01:18:15.294Z</time>
      </trkpt>
      <trkpt lat="42.96125" lon="-0.25243">
        <ele>1402.1</ele>
        <time>2024-07-25T01:18:17.674Z</time>
      </trkpt>
      <trkpt lat="42.96124" lon="-0.25253">
        <ele>1402.2</ele>
        <time>2024-07-25T01:18:20.158Z</time>
      </trkpt>
      <trkpt lat="42.96116" lon="-0.25297">
        <ele>1406.5</ele>
        <time>2024-07-25T01:18:36.649Z</time>
      </trkpt>
      <trkpt lat="42.96116" lon="-0.25371">
        <ele>1413.1</ele>
        <time>2024-07-25T01:19:02.828Z</time>
        <extensions>
          <visugpx:TrkExtension xmlns:visugpx="https://www.visugpx.com/editgpx/">
            <visugpx:node>47</visugpx:node>
            </visugpx:TrkExtension>
        </extensions>
      </trkpt>
      <trkpt lat="42.96114" lon="-0.25385">
        <ele>1414.2</ele>
        <time>2024-07-25T01:19:07.587Z</time>
      </trkpt>
      <trkpt lat="42.96107" lon="-0.25398">
        <ele>1416</ele>
        <time>2024-07-25T01:19:13.969Z</time>
      </trkpt>
      <trkpt lat="42.96076" lon="-0.25418">
        <ele>1419</ele>
        <time>2024-07-25T01:19:28.659Z</time>
      </trkpt>
      <trkpt lat="42.96069" lon="-0.25424">
        <ele>1419.9</ele>
        <time>2024-07-25T01:19:32.474Z</time>
      </trkpt>
      <trkpt lat="42.96056" lon="-0.2544">
        <ele>1421.4</ele>
        <time>2024-07-25T01:19:39.926Z</time>
      </trkpt>
      <trkpt lat="42.9604" lon="-0.25466">
        <ele>1424.3</ele>
        <time>2024-07-25T01:19:51.721Z</time>
      </trkpt>
      <trkpt lat="42.96031" lon="-0.25488">
        <ele>1426.1</ele>
        <time>2024-07-25T01:19:59.905Z</time>
      </trkpt>
      <trkpt lat="42.96026" lon="-0.25516">
        <ele>1428</ele>
        <time>2024-07-25T01:20:09.023Z</time>
      </trkpt>
      <trkpt lat="42.96025" lon="-0.25531">
        <ele>1428.9</ele>
        <time>2024-07-25T01:20:13.653Z</time>
      </trkpt>
      <trkpt lat="42.96028" lon="-0.25559">
        <ele>1430.8</ele>
        <time>2024-07-25T01:20:22.658Z</time>
      </trkpt>
      <trkpt lat="42.96035" lon="-0.25581">
        <ele>1431.2</ele>
        <time>2024-07-25T01:20:28.734Z</time>
      </trkpt>
      <trkpt lat="42.96044" lon="-0.25593">
        <ele>1433.5</ele>
        <time>2024-07-25T01:20:36.360Z</time>
      </trkpt>
      <trkpt lat="42.96061" lon="-0.25606">
        <ele>1436.7</ele>
        <time>2024-07-25T01:20:47.365Z</time>
      </trkpt>
      <trkpt lat="42.96072" lon="-0.25619">
        <ele>1438.2</ele>
        <time>2024-07-25T01:20:53.944Z</time>
      </trkpt>
      <trkpt lat="42.96079" lon="-0.25634">
        <ele>1439.5</ele>
        <time>2024-07-25T01:20:59.766Z</time>
      </trkpt>
      <trkpt lat="42.96081" lon="-0.25653">
        <ele>1440.3</ele>
        <time>2024-07-25T01:21:05.196Z</time>
      </trkpt>
      <trkpt lat="42.96082" lon="-0.25685">
        <ele>1442.2</ele>
        <time>2024-07-25T01:21:15.021Z</time>
      </trkpt>
      <trkpt lat="42.96079" lon="-0.25746">
        <ele>1446.2</ele>
        <time>2024-07-25T01:21:34.318Z</time>
      </trkpt>
      <trkpt lat="42.96077" lon="-0.25761">
        <ele>1447.4</ele>
        <time>2024-07-25T01:21:39.445Z</time>
      </trkpt>
      <trkpt lat="42.96056" lon="-0.2586">
        <ele>1454</ele>
        <time>2024-07-25T01:22:11.766Z</time>
      </trkpt>
      <trkpt lat="42.96038" lon="-0.2591">
        <ele>1458.4</ele>
        <time>2024-07-25T01:22:30.524Z</time>
      </trkpt>
      <trkpt lat="42.96035" lon="-0.25923">
        <ele>1459.4</ele>
        <time>2024-07-25T01:22:34.992Z</time>
      </trkpt>
      <trkpt lat="42.96033" lon="-0.2595">
        <ele>1461.2</ele>
        <time>2024-07-25T01:22:43.594Z</time>
      </trkpt>
      <trkpt lat="42.96037" lon="-0.2598">
        <ele>1462.6</ele>
        <time>2024-07-25T01:22:52.388Z</time>
      </trkpt>
      <trkpt lat="42.96045" lon="-0.25998">
        <ele>1465.3</ele>
        <time>2024-07-25T01:23:01.462Z</time>
      </trkpt>
      <trkpt lat="42.96055" lon="-0.26015">
        <ele>1467.3</ele>
        <time>2024-07-25T01:23:09.274Z</time>
      </trkpt>
      <trkpt lat="42.9606" lon="-0.26031">
        <ele>1468.2</ele>
        <time>2024-07-25T01:23:14.426Z</time>
      </trkpt>
      <trkpt lat="42.9606" lon="-0.26088">
        <ele>1471.4</ele>
        <time>2024-07-25T01:23:31.654Z</time>
      </trkpt>
      <trkpt lat="42.96065" lon="-0.26156">
        <ele>1471.2</ele>
        <time>2024-07-25T01:23:47.580Z</time>
      </trkpt>
      <trkpt lat="42.96065" lon="-0.26183">
        <ele>1470</ele>
        <time>2024-07-25T01:23:53.153Z</time>
        <extensions>
          <visugpx:TrkExtension xmlns:visugpx="https://www.visugpx.com/editgpx/">
            <visugpx:node>48</visugpx:node>
            </visugpx:TrkExtension>
        </extensions>
      </trkpt>
      <trkpt lat="42.96055" lon="-0.26285">
        <ele>1463.7</ele>
        <time>2024-07-25T01:24:14.396Z</time>
      </trkpt>
      <trkpt lat="42.96046" lon="-0.2635">
        <ele>1460</ele>
        <time>2024-07-25T01:24:28.051Z</time>
      </trkpt>
      <trkpt lat="42.96037" lon="-0.2639">
        <ele>1457.8</ele>
        <time>2024-07-25T01:24:36.689Z</time>
      </trkpt>
      <trkpt lat="42.96031" lon="-0.26408">
        <ele>1455.8</ele>
        <time>2024-07-25T01:24:40.772Z</time>
      </trkpt>
      <trkpt lat="42.9602" lon="-0.26436">
        <ele>1455</ele>
        <time>2024-07-25T01:24:47.530Z</time>
      </trkpt>
      <trkpt lat="42.95999" lon="-0.26479">
        <ele>1451.3</ele>
        <time>2024-07-25T01:24:58.201Z</time>
      </trkpt>
      <trkpt lat="42.95992" lon="-0.26502">
        <ele>1450.1</ele>
        <time>2024-07-25T01:25:03.343Z</time>
      </trkpt>
      <trkpt lat="42.95982" lon="-0.26568">
        <ele>1445.6</ele>
        <time>2024-07-25T01:25:17.255Z</time>
      </trkpt>
      <trkpt lat="42.95946" lon="-0.26751">
        <ele>1441.4</ele>
        <time>2024-07-25T01:25:58.050Z</time>
      </trkpt>
      <trkpt lat="42.95941" lon="-0.26787">
        <ele>1441.1</ele>
        <time>2024-07-25T01:26:06.404Z</time>
      </trkpt>
      <trkpt lat="42.95939" lon="-0.2682">
        <ele>1441.7</ele>
        <time>2024-07-25T01:26:14.844Z</time>
      </trkpt>
      <trkpt lat="42.95934" lon="-0.26848">
        <ele>1442.7</ele>
        <time>2024-07-25T01:26:22.746Z</time>
      </trkpt>
      <trkpt lat="42.9593" lon="-0.26859">
        <ele>1443.1</ele>
        <time>2024-07-25T01:26:26.082Z</time>
      </trkpt>
      <trkpt lat="42.95918" lon="-0.26882">
        <ele>1439.5</ele>
        <time>2024-07-25T01:26:31.913Z</time>
      </trkpt>
      <trkpt lat="42.95889" lon="-0.26921">
        <ele>1437.7</ele>
        <time>2024-07-25T01:26:43.401Z</time>
      </trkpt>
      <trkpt lat="42.95882" lon="-0.26934">
        <ele>1439.9</ele>
        <time>2024-07-25T01:26:50.658Z</time>
      </trkpt>
      <trkpt lat="42.9586" lon="-0.27006">
        <ele>1438.5</ele>
        <time>2024-07-25T01:27:07.745Z</time>
      </trkpt>
      <trkpt lat="42.95856" lon="-0.27015">
        <ele>1438.3</ele>
        <time>2024-07-25T01:27:10.042Z</time>
      </trkpt>
      <trkpt lat="42.95835" lon="-0.27048">
        <ele>1437.9</ele>
        <time>2024-07-25T01:27:19.972Z</time>
      </trkpt>
      <trkpt lat="42.95829" lon="-0.27065">
        <ele>1438</ele>
        <time>2024-07-25T01:27:24.525Z</time>
      </trkpt>
      <trkpt lat="42.95828" lon="-0.27082">
        <ele>1437.7</ele>
        <time>2024-07-25T01:27:28.266Z</time>
      </trkpt>
      <trkpt lat="42.95834" lon="-0.27135">
        <ele>1436.4</ele>
        <time>2024-07-25T01:27:39.715Z</time>
      </trkpt>
      <trkpt lat="42.95835" lon="-0.27164">
        <ele>1436.1</ele>
        <time>2024-07-25T01:27:46.275Z</time>
      </trkpt>
      <trkpt lat="42.95831" lon="-0.2719">
        <ele>1437.5</ele>
        <time>2024-07-25T01:27:54.179Z</time>
      </trkpt>
      <trkpt lat="42.95824" lon="-0.2721">
        <ele>1437.6</ele>
        <time>2024-07-25T01:27:59.510Z</time>
        <extensions>
          <visugpx:TrkExtension xmlns:visugpx="https://www.visugpx.com/editgpx/">
            <visugpx:node>49</visugpx:node>
            </visugpx:TrkExtension>
        </extensions>
      </trkpt>
      <trkpt lat="42.95813" lon="-0.27245">
        <ele>1436</ele>
        <time>2024-07-25T01:28:07.373Z</time>
      </trkpt>
      <trkpt lat="42.95807" lon="-0.27269">
        <ele>1435.3</ele>
        <time>2024-07-25T01:28:12.714Z</time>
      </trkpt>
      <trkpt lat="42.95806" lon="-0.27281">
        <ele>1434.9</ele>
        <time>2024-07-25T01:28:15.207Z</time>
      </trkpt>
      <trkpt lat="42.95807" lon="-0.2731">
        <ele>1435.8</ele>
        <time>2024-07-25T01:28:23.038Z</time>
      </trkpt>
      <trkpt lat="42.95811" lon="-0.27337">
        <ele>1436.3</ele>
        <time>2024-07-25T01:28:30.060Z</time>
      </trkpt>
      <trkpt lat="42.95818" lon="-0.27366">
        <ele>1435</ele>
        <time>2024-07-25T01:28:36.364Z</time>
      </trkpt>
      <trkpt lat="42.95839" lon="-0.27416">
        <ele>1432.3</ele>
        <time>2024-07-25T01:28:48.264Z</time>
      </trkpt>
      <trkpt lat="42.95844" lon="-0.27434">
        <ele>1434.6</ele>
        <time>2024-07-25T01:28:56.193Z</time>
      </trkpt>
      <trkpt lat="42.95844" lon="-0.27442">
        <ele>1435.8</ele>
        <time>2024-07-25T01:29:00.061Z</time>
      </trkpt>
      <trkpt lat="42.95841" lon="-0.27457">
        <ele>1434.5</ele>
        <time>2024-07-25T01:29:03.271Z</time>
      </trkpt>
      <trkpt lat="42.95823" lon="-0.27497">
        <ele>1436.9</ele>
        <time>2024-07-25T01:29:17.139Z</time>
      </trkpt>
      <trkpt lat="42.95815" lon="-0.27546">
        <ele>1430.1</ele>
        <time>2024-07-25T01:29:27.502Z</time>
      </trkpt>
      <trkpt lat="42.9581" lon="-0.27567">
        <ele>1427.7</ele>
        <time>2024-07-25T01:29:32.061Z</time>
      </trkpt>
      <trkpt lat="42.95788" lon="-0.27642">
        <ele>1419.6</ele>
        <time>2024-07-25T01:29:48.740Z</time>
      </trkpt>
      <trkpt lat="42.95784" lon="-0.27651">
        <ele>1419.2</ele>
        <time>2024-07-25T01:29:50.914Z</time>
      </trkpt>
      <trkpt lat="42.95779" lon="-0.27658">
        <ele>1419.9</ele>
        <time>2024-07-25T01:29:54.092Z</time>
      </trkpt>
      <trkpt lat="42.95774" lon="-0.27662">
        <ele>1418.8</ele>
        <time>2024-07-25T01:29:55.726Z</time>
      </trkpt>
      <trkpt lat="42.95768" lon="-0.27663">
        <ele>1417.6</ele>
        <time>2024-07-25T01:29:57.431Z</time>
      </trkpt>
      <trkpt lat="42.95757" lon="-0.27659">
        <ele>1417.2</ele>
        <time>2024-07-25T01:30:00.732Z</time>
      </trkpt>
      <trkpt lat="42.95734" lon="-0.27643">
        <ele>1416</ele>
        <time>2024-07-25T01:30:08.012Z</time>
      </trkpt>
      <trkpt lat="42.95722" lon="-0.27638">
        <ele>1414.3</ele>
        <time>2024-07-25T01:30:11.550Z</time>
      </trkpt>
      <trkpt lat="42.95714" lon="-0.27636">
        <ele>1414.2</ele>
        <time>2024-07-25T01:30:14.075Z</time>
      </trkpt>
      <trkpt lat="42.95689" lon="-0.27634">
        <ele>1411.9</ele>
        <time>2024-07-25T01:30:21.139Z</time>
      </trkpt>
      <trkpt lat="42.95658" lon="-0.27625">
        <ele>1409.6</ele>
        <time>2024-07-25T01:30:30.078Z</time>
      </trkpt>
      <trkpt lat="42.95644" lon="-0.27627">
        <ele>1406.9</ele>
        <time>2024-07-25T01:30:34.048Z</time>
      </trkpt>
      <trkpt lat="42.95627" lon="-0.27637">
        <ele>1404.8</ele>
        <time>2024-07-25T01:30:39.268Z</time>
      </trkpt>
      <trkpt lat="42.9559" lon="-0.27668">
        <ele>1400.8</ele>
        <time>2024-07-25T01:30:51.510Z</time>
      </trkpt>
      <trkpt lat="42.95568" lon="-0.27692">
        <ele>1398</ele>
        <time>2024-07-25T01:30:59.451Z</time>
      </trkpt>
      <trkpt lat="42.95547" lon="-0.27712">
        <ele>1394.9</ele>
        <time>2024-07-25T01:31:06.671Z</time>
      </trkpt>
      <trkpt lat="42.95538" lon="-0.27724">
        <ele>1393.7</ele>
        <time>2024-07-25T01:31:10.218Z</time>
      </trkpt>
      <trkpt lat="42.95534" lon="-0.27733">
        <ele>1393.1</ele>
        <time>2024-07-25T01:31:12.392Z</time>
        <extensions>
          <visugpx:TrkExtension xmlns:visugpx="https://www.visugpx.com/editgpx/">
            <visugpx:node>50</visugpx:node>
            </visugpx:TrkExtension>
        </extensions>
      </trkpt>
      <trkpt lat="42.95532" lon="-0.27752">
        <ele>1391.8</ele>
        <time>2024-07-25T01:31:16.354Z</time>
      </trkpt>
      <trkpt lat="42.95541" lon="-0.27804">
        <ele>1387.3</ele>
        <time>2024-07-25T01:31:27.385Z</time>
      </trkpt>
      <trkpt lat="42.95541" lon="-0.27826">
        <ele>1386.1</ele>
        <time>2024-07-25T01:31:31.926Z</time>
      </trkpt>
      <trkpt lat="42.95534" lon="-0.27944">
        <ele>1382.8</ele>
        <time>2024-07-25T01:31:56.834Z</time>
      </trkpt>
      <trkpt lat="42.95515" lon="-0.28045">
        <ele>1371.7</ele>
        <time>2024-07-25T01:32:18.362Z</time>
      </trkpt>
      <trkpt lat="42.95511" lon="-0.28056">
        <ele>1370.9</ele>
        <time>2024-07-25T01:32:20.897Z</time>
      </trkpt>
      <trkpt lat="42.95491" lon="-0.28094">
        <ele>1370.9</ele>
        <time>2024-07-25T01:32:31.940Z</time>
      </trkpt>
      <trkpt lat="42.95487" lon="-0.28111">
        <ele>1370.9</ele>
        <time>2024-07-25T01:32:36.153Z</time>
      </trkpt>
      <trkpt lat="42.9549" lon="-0.28131">
        <ele>1368</ele>
        <time>2024-07-25T01:32:40.367Z</time>
      </trkpt>
      <trkpt lat="42.95499" lon="-0.28159">
        <ele>1360</ele>
        <time>2024-07-25T01:32:46.680Z</time>
      </trkpt>
      <trkpt lat="42.95502" lon="-0.2819">
        <ele>1356.5</ele>
        <time>2024-07-25T01:32:53.136Z</time>
      </trkpt>
      <trkpt lat="42.95496" lon="-0.28274">
        <ele>1357.2</ele>
        <time>2024-07-25T01:33:13.760Z</time>
      </trkpt>
      <trkpt lat="42.95496" lon="-0.28297">
        <ele>1355.7</ele>
        <time>2024-07-25T01:33:18.508Z</time>
      </trkpt>
      <trkpt lat="42.9549" lon="-0.28338">
        <ele>1357.6</ele>
        <time>2024-07-25T01:33:30.541Z</time>
      </trkpt>
      <trkpt lat="42.95493" lon="-0.28354">
        <ele>1356.9</ele>
        <time>2024-07-25T01:33:33.950Z</time>
      </trkpt>
      <trkpt lat="42.95504" lon="-0.28383">
        <ele>1354.5</ele>
        <time>2024-07-25T01:33:40.693Z</time>
      </trkpt>
      <trkpt lat="42.95505" lon="-0.28405">
        <ele>1354.7</ele>
        <time>2024-07-25T01:33:46.097Z</time>
      </trkpt>
      <trkpt lat="42.95498" lon="-0.2844">
        <ele>1356</ele>
        <time>2024-07-25T01:33:56.097Z</time>
      </trkpt>
      <trkpt lat="42.95493" lon="-0.28455">
        <ele>1356.6</ele>
        <time>2024-07-25T01:34:00.651Z</time>
      </trkpt>
      <trkpt lat="42.95472" lon="-0.28495">
        <ele>1356.8</ele>
        <time>2024-07-25T01:34:12.465Z</time>
      </trkpt>
      <trkpt lat="42.95444" lon="-0.28557">
        <ele>1357</ele>
        <time>2024-07-25T01:34:29.853Z</time>
      </trkpt>
      <trkpt lat="42.9543" lon="-0.28583">
        <ele>1358.3</ele>
        <time>2024-07-25T01:34:38.928Z</time>
      </trkpt>
      <trkpt lat="42.95413" lon="-0.28626">
        <ele>1357.4</ele>
        <time>2024-07-25T01:34:49.612Z</time>
      </trkpt>
      <trkpt lat="42.95396" lon="-0.28659">
        <ele>1359.4</ele>
        <time>2024-07-25T01:35:01.446Z</time>
      </trkpt>
      <trkpt lat="42.95391" lon="-0.28676">
        <ele>1359.7</ele>
        <time>2024-07-25T01:35:06.082Z</time>
      </trkpt>
      <trkpt lat="42.95393" lon="-0.28694">
        <ele>1356.9</ele>
        <time>2024-07-25T01:35:09.840Z</time>
        <extensions>
          <visugpx:TrkExtension xmlns:visugpx="https://www.visugpx.com/editgpx/">
            <visugpx:node>51</visugpx:node>
            </visugpx:TrkExtension>
        </extensions>
      </trkpt>
      <trkpt lat="42.9542" lon="-0.28769">
        <ele>1350</ele>
        <time>2024-07-25T01:35:27.094Z</time>
      </trkpt>
      <trkpt lat="42.95427" lon="-0.28792">
        <ele>1347.9</ele>
        <time>2024-07-25T01:35:32.237Z</time>
      </trkpt>
      <trkpt lat="42.95437" lon="-0.28847">
        <ele>1347.5</ele>
        <time>2024-07-25T01:35:45.218Z</time>
      </trkpt>
      <trkpt lat="42.95442" lon="-0.28862">
        <ele>1350.1</ele>
        <time>2024-07-25T01:35:53.530Z</time>
      </trkpt>
      <trkpt lat="42.95449" lon="-0.28875">
        <ele>1355</ele>
        <time>2024-07-25T01:36:11.704Z</time>
      </trkpt>
      <trkpt lat="42.95457" lon="-0.28886">
        <ele>1357.2</ele>
        <time>2024-07-25T01:36:18.884Z</time>
      </trkpt>
      <trkpt lat="42.95487" lon="-0.28919">
        <ele>1351.6</ele>
        <time>2024-07-25T01:36:29.747Z</time>
      </trkpt>
      <trkpt lat="42.95492" lon="-0.28929">
        <ele>1351</ele>
        <time>2024-07-25T01:36:32.247Z</time>
      </trkpt>
      <trkpt lat="42.95496" lon="-0.28942">
        <ele>1351.7</ele>
        <time>2024-07-25T01:36:36.384Z</time>
      </trkpt>
      <trkpt lat="42.955" lon="-0.28963">
        <ele>1355.7</ele>
        <time>2024-07-25T01:36:49.055Z</time>
      </trkpt>
      <trkpt lat="42.95504" lon="-0.28972">
        <ele>1355.5</ele>
        <time>2024-07-25T01:36:51.352Z</time>
      </trkpt>
      <trkpt lat="42.9551" lon="-0.2898">
        <ele>1353.7</ele>
        <time>2024-07-25T01:36:53.716Z</time>
      </trkpt>
      <trkpt lat="42.95584" lon="-0.29058">
        <ele>1371.4</ele>
        <time>2024-07-25T01:37:51.830Z</time>
      </trkpt>
      <trkpt lat="42.95596" lon="-0.29068">
        <ele>1381.8</ele>
        <time>2024-07-25T01:38:15.617Z</time>
      </trkpt>
      <trkpt lat="42.95604" lon="-0.29072">
        <ele>1382</ele>
        <time>2024-07-25T01:38:18.572Z</time>
        <extensions>
          <visugpx:TrkExtension xmlns:visugpx="https://www.visugpx.com/editgpx/">
            <visugpx:node>52</visugpx:node>
            </visugpx:TrkExtension>
        </extensions>
      </trkpt>
      <trkpt lat="42.95619" lon="-0.29075">
        <ele>1375.6</ele>
        <time>2024-07-25T01:38:22.848Z</time>
      </trkpt>
      <trkpt lat="42.95637" lon="-0.29074">
        <ele>1361.3</ele>
        <time>2024-07-25T01:38:27.929Z</time>
      </trkpt>
      <trkpt lat="42.95696" lon="-0.29067">
        <ele>1348.1</ele>
        <time>2024-07-25T01:38:44.633Z</time>
      </trkpt>
      <trkpt lat="42.95727" lon="-0.2906">
        <ele>1345.9</ele>
        <time>2024-07-25T01:38:53.496Z</time>
      </trkpt>
      <trkpt lat="42.95734" lon="-0.2906">
        <ele>1343.8</ele>
        <time>2024-07-25T01:38:55.470Z</time>
      </trkpt>
      <trkpt lat="42.95741" lon="-0.29063">
        <ele>1345.4</ele>
        <time>2024-07-25T01:39:00.577Z</time>
      </trkpt>
      <trkpt lat="42.95746" lon="-0.29068">
        <ele>1349.5</ele>
        <time>2024-07-25T01:39:11.062Z</time>
      </trkpt>
      <trkpt lat="42.9576" lon="-0.2909">
        <ele>1364.4</ele>
        <time>2024-07-25T01:39:47.171Z</time>
      </trkpt>
      <trkpt lat="42.95765" lon="-0.29095">
        <ele>1365.6</ele>
        <time>2024-07-25T01:39:51.088Z</time>
      </trkpt>
      <trkpt lat="42.95793" lon="-0.29108">
        <ele>1354.9</ele>
        <time>2024-07-25T01:39:59.429Z</time>
      </trkpt>
      <trkpt lat="42.95798" lon="-0.29112">
        <ele>1353.2</ele>
        <time>2024-07-25T01:40:01.064Z</time>
      </trkpt>
      <trkpt lat="42.95802" lon="-0.29119">
        <ele>1352.6</ele>
        <time>2024-07-25T01:40:02.897Z</time>
      </trkpt>
      <trkpt lat="42.95804" lon="-0.29127">
        <ele>1354.2</ele>
        <time>2024-07-25T01:40:07.972Z</time>
      </trkpt>
      <trkpt lat="42.95803" lon="-0.29162">
        <ele>1365.9</ele>
        <time>2024-07-25T01:40:51.354Z</time>
      </trkpt>
      <trkpt lat="42.95805" lon="-0.29173">
        <ele>1366.6</ele>
        <time>2024-07-25T01:40:54.870Z</time>
      </trkpt>
      <trkpt lat="42.95809" lon="-0.29183">
        <ele>1364.6</ele>
        <time>2024-07-25T01:40:57.223Z</time>
      </trkpt>
      <trkpt lat="42.95823" lon="-0.29208">
        <ele>1355.7</ele>
        <time>2024-07-25T01:41:03.721Z</time>
      </trkpt>
      <trkpt lat="42.95829" lon="-0.29229">
        <ele>1353.5</ele>
        <time>2024-07-25T01:41:08.374Z</time>
      </trkpt>
      <trkpt lat="42.95826" lon="-0.29269">
        <ele>1361.4</ele>
        <time>2024-07-25T01:41:33.513Z</time>
        <extensions>
          <visugpx:TrkExtension xmlns:visugpx="https://www.visugpx.com/editgpx/">
            <visugpx:node>53</visugpx:node>
            </visugpx:TrkExtension>
        </extensions>
      </trkpt>
      <trkpt lat="42.95827" lon="-0.2929">
        <ele>1365.7</ele>
        <time>2024-07-25T01:41:47.268Z</time>
      </trkpt>
      <trkpt lat="42.9583" lon="-0.29299">
        <ele>1366.2</ele>
        <time>2024-07-25T01:41:50.182Z</time>
      </trkpt>
      <trkpt lat="42.95859" lon="-0.29337">
        <ele>1358.5</ele>
        <time>2024-07-25T01:42:01.514Z</time>
      </trkpt>
      <trkpt lat="42.9588" lon="-0.29377">
        <ele>1363.4</ele>
        <time>2024-07-25T01:42:19.843Z</time>
      </trkpt>
      <trkpt lat="42.95892" lon="-0.29395">
        <ele>1365.8</ele>
        <time>2024-07-25T01:42:28.865Z</time>
      </trkpt>
      <trkpt lat="42.95924" lon="-0.29434">
        <ele>1366.7</ele>
        <time>2024-07-25T01:42:43.622Z</time>
      </trkpt>
      <trkpt lat="42.95929" lon="-0.29442">
        <ele>1366.9</ele>
        <time>2024-07-25T01:42:46.314Z</time>
      </trkpt>
      <trkpt lat="42.95936" lon="-0.29464">
        <ele>1371.3</ele>
        <time>2024-07-25T01:43:00.250Z</time>
      </trkpt>
      <trkpt lat="42.95944" lon="-0.29509">
        <ele>1388.8</ele>
        <time>2024-07-25T01:43:57.605Z</time>
      </trkpt>
      <trkpt lat="42.95949" lon="-0.29524">
        <ele>1394.6</ele>
        <time>2024-07-25T01:44:18.019Z</time>
      </trkpt>
      <trkpt lat="42.95956" lon="-0.29538">
        <ele>1397.4</ele>
        <time>2024-07-25T01:44:26.921Z</time>
      </trkpt>
      <trkpt lat="42.95964" lon="-0.2955">
        <ele>1398.5</ele>
        <time>2024-07-25T01:44:32.101Z</time>
      </trkpt>
      <trkpt lat="42.95974" lon="-0.29561">
        <ele>1397.7</ele>
        <time>2024-07-25T01:44:35.722Z</time>
      </trkpt>
      <trkpt lat="42.95995" lon="-0.29574">
        <ele>1388</ele>
        <time>2024-07-25T01:44:42.225Z</time>
      </trkpt>
      <trkpt lat="42.9601" lon="-0.2958">
        <ele>1378.3</ele>
        <time>2024-07-25T01:44:46.633Z</time>
      </trkpt>
      <trkpt lat="42.96019" lon="-0.29586">
        <ele>1373.7</ele>
        <time>2024-07-25T01:44:49.458Z</time>
      </trkpt>
      <trkpt lat="42.96026" lon="-0.29593">
        <ele>1371.2</ele>
        <time>2024-07-25T01:44:51.904Z</time>
      </trkpt>
      <trkpt lat="42.96045" lon="-0.29624">
        <ele>1371.8</ele>
        <time>2024-07-25T01:45:02.066Z</time>
      </trkpt>
      <trkpt lat="42.96086" lon="-0.29721">
        <ele>1375.1</ele>
        <time>2024-07-25T01:45:32.072Z</time>
      </trkpt>
      <trkpt lat="42.96092" lon="-0.29732">
        <ele>1375.9</ele>
        <time>2024-07-25T01:45:36.260Z</time>
      </trkpt>
      <trkpt lat="42.96106" lon="-0.2975">
        <ele>1375.6</ele>
        <time>2024-07-25T01:45:42.169Z</time>
        <extensions>
          <visugpx:TrkExtension xmlns:visugpx="https://www.visugpx.com/editgpx/">
            <visugpx:node>54</visugpx:node>
            </visugpx:TrkExtension>
        </extensions>
      </trkpt>
      <trkpt lat="42.96132" lon="-0.29773">
        <ele>1376</ele>
        <time>2024-07-25T01:45:52.561Z</time>
      </trkpt>
      <trkpt lat="42.96165" lon="-0.29793">
        <ele>1373.2</ele>
        <time>2024-07-25T01:46:02.744Z</time>
      </trkpt>
      <trkpt lat="42.96172" lon="-0.298">
        <ele>1373.1</ele>
        <time>2024-07-25T01:46:05.443Z</time>
      </trkpt>
      <trkpt lat="42.96179" lon="-0.2981">
        <ele>1374.1</ele>
        <time>2024-07-25T01:46:09.954Z</time>
      </trkpt>
      <trkpt lat="42.96203" lon="-0.29859">
        <ele>1378.9</ele>
        <time>2024-07-25T01:46:30.038Z</time>
      </trkpt>
      <trkpt lat="42.96227" lon="-0.29895">
        <ele>1376.4</ele>
        <time>2024-07-25T01:46:40.090Z</time>
      </trkpt>
      <trkpt lat="42.96257" lon="-0.29947">
        <ele>1366.8</ele>
        <time>2024-07-25T01:46:53.758Z</time>
      </trkpt>
      <trkpt lat="42.96264" lon="-0.29968">
        <ele>1366.5</ele>
        <time>2024-07-25T01:46:58.915Z</time>
      </trkpt>
      <trkpt lat="42.96274" lon="-0.30018">
        <ele>1371.9</ele>
        <time>2024-07-25T01:47:18.666Z</time>
      </trkpt>
      <trkpt lat="42.963" lon="-0.30084">
        <ele>1357.1</ele>
        <time>2024-07-25T01:47:34.137Z</time>
      </trkpt>
      <trkpt lat="42.96328" lon="-0.30167">
        <ele>1360.1</ele>
        <time>2024-07-25T01:47:58.987Z</time>
      </trkpt>
      <trkpt lat="42.96364" lon="-0.30307">
        <ele>1384.7</ele>
        <time>2024-07-25T01:49:17.168Z</time>
      </trkpt>
      <trkpt lat="42.96372" lon="-0.30324">
        <ele>1389.4</ele>
        <time>2024-07-25T01:49:32.684Z</time>
      </trkpt>
      <trkpt lat="42.96377" lon="-0.30329">
        <ele>1390</ele>
        <time>2024-07-25T01:49:35.426Z</time>
      </trkpt>
      <trkpt lat="42.96389" lon="-0.30331">
        <ele>1387</ele>
        <time>2024-07-25T01:49:38.836Z</time>
      </trkpt>
      <trkpt lat="42.96415" lon="-0.30325">
        <ele>1390.2</ele>
        <time>2024-07-25T01:49:51.559Z</time>
      </trkpt>
      <trkpt lat="42.96422" lon="-0.30321">
        <ele>1391.3</ele>
        <time>2024-07-25T01:49:55.548Z</time>
      </trkpt>
      <trkpt lat="42.9644" lon="-0.30297">
        <ele>1390.6</ele>
        <time>2024-07-25T01:50:03.000Z</time>
      </trkpt>
      <trkpt lat="42.96511" lon="-0.30237">
        <ele>1395.9</ele>
        <time>2024-07-25T01:50:35.979Z</time>
      </trkpt>
      <trkpt lat="42.96557" lon="-0.30205">
        <ele>1400.2</ele>
        <time>2024-07-25T01:50:57.781Z</time>
      </trkpt>
      <trkpt lat="42.96578" lon="-0.30192">
        <ele>1402.4</ele>
        <time>2024-07-25T01:51:07.934Z</time>
      </trkpt>
      <trkpt lat="42.96589" lon="-0.30187">
        <ele>1402.6</ele>
        <time>2024-07-25T01:51:11.877Z</time>
        <extensions>
          <visugpx:TrkExtension xmlns:visugpx="https://www.visugpx.com/editgpx/">
            <visugpx:node>55</visugpx:node>
            </visugpx:TrkExtension>
        </extensions>
      </trkpt>
      <trkpt lat="42.96593" lon="-0.30186">
        <ele>1402.4</ele>
        <time>2024-07-25T01:51:13.023Z</time>
      </trkpt>
      <trkpt lat="42.96599" lon="-0.30187">
        <ele>1402.5</ele>
        <time>2024-07-25T01:51:15.075Z</time>
      </trkpt>
      <trkpt lat="42.96604" lon="-0.3019">
        <ele>1403.1</ele>
        <time>2024-07-25T01:51:17.604Z</time>
      </trkpt>
      <trkpt lat="42.9661" lon="-0.30197">
        <ele>1404.5</ele>
        <time>2024-07-25T01:51:22.290Z</time>
      </trkpt>
      <trkpt lat="42.96644" lon="-0.30259">
        <ele>1406.2</ele>
        <time>2024-07-25T01:51:42.368Z</time>
      </trkpt>
      <trkpt lat="42.96651" lon="-0.30267">
        <ele>1406.6</ele>
        <time>2024-07-25T01:51:45.747Z</time>
      </trkpt>
      <trkpt lat="42.96661" lon="-0.30273">
        <ele>1406.8</ele>
        <time>2024-07-25T01:51:49.474Z</time>
      </trkpt>
      <trkpt lat="42.96672" lon="-0.30276">
        <ele>1408</ele>
        <time>2024-07-25T01:51:54.617Z</time>
      </trkpt>
      <trkpt lat="42.96682" lon="-0.30276">
        <ele>1409.4</ele>
        <time>2024-07-25T01:51:59.779Z</time>
      </trkpt>
      <trkpt lat="42.96693" lon="-0.30273">
        <ele>1409.4</ele>
        <time>2024-07-25T01:52:03.395Z</time>
      </trkpt>
      <trkpt lat="42.96704" lon="-0.30267">
        <ele>1408.7</ele>
        <time>2024-07-25T01:52:06.735Z</time>
      </trkpt>
      <trkpt lat="42.96714" lon="-0.30259">
        <ele>1407.5</ele>
        <time>2024-07-25T01:52:10.004Z</time>
      </trkpt>
      <trkpt lat="42.96755" lon="-0.30218">
        <ele>1407.3</ele>
        <time>2024-07-25T01:52:26.184Z</time>
      </trkpt>
      <trkpt lat="42.96773" lon="-0.30204">
        <ele>1406.6</ele>
        <time>2024-07-25T01:52:32.213Z</time>
      </trkpt>
      <trkpt lat="42.96782" lon="-0.302">
        <ele>1406.8</ele>
        <time>2024-07-25T01:52:35.472Z</time>
      </trkpt>
      <trkpt lat="42.96791" lon="-0.30199">
        <ele>1407</ele>
        <time>2024-07-25T01:52:38.591Z</time>
      </trkpt>
      <trkpt lat="42.96822" lon="-0.30204">
        <ele>1414.1</ele>
        <time>2024-07-25T01:53:01.148Z</time>
      </trkpt>
      <trkpt lat="42.96836" lon="-0.30198">
        <ele>1416</ele>
        <time>2024-07-25T01:53:08.438Z</time>
      </trkpt>
      <trkpt lat="42.96842" lon="-0.30191">
        <ele>1416.3</ele>
        <time>2024-07-25T01:53:11.304Z</time>
      </trkpt>
      <trkpt lat="42.96854" lon="-0.30169">
        <ele>1413.4</ele>
        <time>2024-07-25T01:53:16.968Z</time>
      </trkpt>
      <trkpt lat="42.96862" lon="-0.30158">
        <ele>1413.1</ele>
        <time>2024-07-25T01:53:20.344Z</time>
      </trkpt>
      <trkpt lat="42.96884" lon="-0.30136">
        <ele>1417</ele>
        <time>2024-07-25T01:53:34.576Z</time>
      </trkpt>
      <trkpt lat="42.9698" lon="-0.30061">
        <ele>1416.8</ele>
        <time>2024-07-25T01:54:10.023Z</time>
      </trkpt>
      <trkpt lat="42.96987" lon="-0.30056">
        <ele>1414.6</ele>
        <time>2024-07-25T01:54:12.251Z</time>
      </trkpt>
      <trkpt lat="42.96997" lon="-0.30052">
        <ele>1413.1</ele>
        <time>2024-07-25T01:54:15.190Z</time>
        <extensions>
          <visugpx:TrkExtension xmlns:visugpx="https://www.visugpx.com/editgpx/">
            <visugpx:node>56</visugpx:node>
            </visugpx:TrkExtension>
        </extensions>
      </trkpt>
      <trkpt lat="42.97003" lon="-0.30053">
        <ele>1412.4</ele>
        <time>2024-07-25T01:54:16.895Z</time>
      </trkpt>
      <trkpt lat="42.9701" lon="-0.3006">
        <ele>1412.5</ele>
        <time>2024-07-25T01:54:19.793Z</time>
      </trkpt>
      <trkpt lat="42.97014" lon="-0.30069">
        <ele>1414.1</ele>
        <time>2024-07-25T01:54:24.939Z</time>
      </trkpt>
      <trkpt lat="42.97022" lon="-0.30098">
        <ele>1420.1</ele>
        <time>2024-07-25T01:54:44.003Z</time>
      </trkpt>
      <trkpt lat="42.97028" lon="-0.30112">
        <ele>1422.2</ele>
        <time>2024-07-25T01:54:51.038Z</time>
      </trkpt>
      <trkpt lat="42.97037" lon="-0.30126">
        <ele>1424.2</ele>
        <time>2024-07-25T01:54:58.252Z</time>
      </trkpt>
      <trkpt lat="42.97073" lon="-0.30159">
        <ele>1424.9</ele>
        <time>2024-07-25T01:55:12.945Z</time>
      </trkpt>
      <trkpt lat="42.97111" lon="-0.30189">
        <ele>1424.1</ele>
        <time>2024-07-25T01:55:26.328Z</time>
      </trkpt>
      <trkpt lat="42.97122" lon="-0.30199">
        <ele>1423.7</ele>
        <time>2024-07-25T01:55:30.214Z</time>
      </trkpt>
      <trkpt lat="42.97131" lon="-0.3021">
        <ele>1424.4</ele>
        <time>2024-07-25T01:55:34.897Z</time>
      </trkpt>
      <trkpt lat="42.9714" lon="-0.30224">
        <ele>1426.1</ele>
        <time>2024-07-25T01:55:41.556Z</time>
      </trkpt>
      <trkpt lat="42.9718" lon="-0.303">
        <ele>1432.4</ele>
        <time>2024-07-25T01:56:11.363Z</time>
      </trkpt>
      <trkpt lat="42.97198" lon="-0.30329">
        <ele>1434.2</ele>
        <time>2024-07-25T01:56:22.399Z</time>
      </trkpt>
      <trkpt lat="42.97227" lon="-0.30369">
        <ele>1435.4</ele>
        <time>2024-07-25T01:56:36.950Z</time>
      </trkpt>
      <trkpt lat="42.9725" lon="-0.3041">
        <ele>1437.8</ele>
        <time>2024-07-25T01:56:51.884Z</time>
      </trkpt>
      <trkpt lat="42.97271" lon="-0.30437">
        <ele>1439</ele>
        <time>2024-07-25T01:57:02.484Z</time>
      </trkpt>
      <trkpt lat="42.97279" lon="-0.30442">
        <ele>1439.2</ele>
        <time>2024-07-25T01:57:05.529Z</time>
        <extensions>
          <visugpx:TrkExtension xmlns:visugpx="https://www.visugpx.com/editgpx/">
            <visugpx:node>57</visugpx:node>
            </visugpx:TrkExtension>
        </extensions>
      </trkpt>
      <trkpt lat="42.97289" lon="-0.30446">
        <ele>1440.4</ele>
        <time>2024-07-25T01:57:10.446Z</time>
      </trkpt>
      <trkpt lat="42.97308" lon="-0.30445">
        <ele>1439.1</ele>
        <time>2024-07-25T01:57:15.809Z</time>
      </trkpt>
      <trkpt lat="42.97317" lon="-0.30446">
        <ele>1438.9</ele>
        <time>2024-07-25T01:57:18.531Z</time>
      </trkpt>
      <trkpt lat="42.97345" lon="-0.30462">
        <ele>1442.7</ele>
        <time>2024-07-25T01:57:33.379Z</time>
      </trkpt>
      <trkpt lat="42.97354" lon="-0.30464">
        <ele>1442.3</ele>
        <time>2024-07-25T01:57:35.956Z</time>
      </trkpt>
      <trkpt lat="42.97374" lon="-0.30465">
        <ele>1440.1</ele>
        <time>2024-07-25T01:57:41.601Z</time>
      </trkpt>
      <trkpt lat="42.97381" lon="-0.30467">
        <ele>1440.3</ele>
        <time>2024-07-25T01:57:44.117Z</time>
      </trkpt>
      <trkpt lat="42.97388" lon="-0.30472">
        <ele>1442</ele>
        <time>2024-07-25T01:57:49.552Z</time>
      </trkpt>
      <trkpt lat="42.97394" lon="-0.30479">
        <ele>1441.9</ele>
        <time>2024-07-25T01:57:51.999Z</time>
      </trkpt>
      <trkpt lat="42.97416" lon="-0.30511">
        <ele>1443.8</ele>
        <time>2024-07-25T01:58:04.509Z</time>
      </trkpt>
      <trkpt lat="42.97428" lon="-0.30524">
        <ele>1443.9</ele>
        <time>2024-07-25T01:58:09.545Z</time>
      </trkpt>
      <trkpt lat="42.97461" lon="-0.3055">
        <ele>1441.6</ele>
        <time>2024-07-25T01:58:20.289Z</time>
      </trkpt>
      <trkpt lat="42.97468" lon="-0.30557">
        <ele>1441</ele>
        <time>2024-07-25T01:58:22.736Z</time>
      </trkpt>
      <trkpt lat="42.97474" lon="-0.30566">
        <ele>1440.7</ele>
        <time>2024-07-25T01:58:25.330Z</time>
      </trkpt>
      <trkpt lat="42.97478" lon="-0.30577">
        <ele>1441.2</ele>
        <time>2024-07-25T01:58:28.789Z</time>
      </trkpt>
      <trkpt lat="42.9748" lon="-0.3059">
        <ele>1442.1</ele>
        <time>2024-07-25T01:58:33.028Z</time>
      </trkpt>
      <trkpt lat="42.9748" lon="-0.30603">
        <ele>1443.1</ele>
        <time>2024-07-25T01:58:37.361Z</time>
      </trkpt>
      <trkpt lat="42.97474" lon="-0.30657">
        <ele>1447.1</ele>
        <time>2024-07-25T01:58:55.247Z</time>
      </trkpt>
      <trkpt lat="42.97464" lon="-0.30733">
        <ele>1451.2</ele>
        <time>2024-07-25T01:59:18.257Z</time>
      </trkpt>
      <trkpt lat="42.97461" lon="-0.30747">
        <ele>1452</ele>
        <time>2024-07-25T01:59:22.639Z</time>
      </trkpt>
      <trkpt lat="42.97448" lon="-0.30781">
        <ele>1454.6</ele>
        <time>2024-07-25T01:59:34.880Z</time>
      </trkpt>
      <trkpt lat="42.97447" lon="-0.30791">
        <ele>1455.4</ele>
        <time>2024-07-25T01:59:38.282Z</time>
      </trkpt>
      <trkpt lat="42.97448" lon="-0.30801">
        <ele>1455.4</ele>
        <time>2024-07-25T01:59:40.663Z</time>
      </trkpt>
      <trkpt lat="42.97454" lon="-0.30817">
        <ele>1454.7</ele>
        <time>2024-07-25T01:59:44.373Z</time>
        <extensions>
          <visugpx:TrkExtension xmlns:visugpx="https://www.visugpx.com/editgpx/">
            <visugpx:node>58</visugpx:node>
            </visugpx:TrkExtension>
        </extensions>
      </trkpt>
      <trkpt lat="42.97473" lon="-0.30857">
        <ele>1455.6</ele>
        <time>2024-07-25T01:59:56.566Z</time>
      </trkpt>
      <trkpt lat="42.97488" lon="-0.30877">
        <ele>1454.8</ele>
        <time>2024-07-25T02:00:02.588Z</time>
      </trkpt>
      <trkpt lat="42.97514" lon="-0.30903">
        <ele>1452.8</ele>
        <time>2024-07-25T02:00:11.675Z</time>
      </trkpt>
      <trkpt lat="42.97523" lon="-0.30914">
        <ele>1453.2</ele>
        <time>2024-07-25T02:00:15.994Z</time>
      </trkpt>
      <trkpt lat="42.97568" lon="-0.30989">
        <ele>1464.7</ele>
        <time>2024-07-25T02:00:55.750Z</time>
      </trkpt>
      <trkpt lat="42.97585" lon="-0.3101">
        <ele>1463.5</ele>
        <time>2024-07-25T02:01:02.214Z</time>
      </trkpt>
      <trkpt lat="42.97604" lon="-0.31029">
        <ele>1460.6</ele>
        <time>2024-07-25T02:01:08.854Z</time>
      </trkpt>
      <trkpt lat="42.97609" lon="-0.31036">
        <ele>1459.5</ele>
        <time>2024-07-25T02:01:10.873Z</time>
      </trkpt>
      <trkpt lat="42.97614" lon="-0.31048">
        <ele>1459.2</ele>
        <time>2024-07-25T02:01:13.850Z</time>
      </trkpt>
      <trkpt lat="42.97614" lon="-0.31084">
        <ele>1462.3</ele>
        <time>2024-07-25T02:01:26.394Z</time>
      </trkpt>
      <trkpt lat="42.97608" lon="-0.31123">
        <ele>1465.5</ele>
        <time>2024-07-25T02:01:39.894Z</time>
      </trkpt>
      <trkpt lat="42.97587" lon="-0.31217">
        <ele>1473.8</ele>
        <time>2024-07-25T02:02:13.864Z</time>
      </trkpt>
      <trkpt lat="42.97582" lon="-0.31233">
        <ele>1475.7</ele>
        <time>2024-07-25T02:02:20.663Z</time>
      </trkpt>
      <trkpt lat="42.97563" lon="-0.31279">
        <ele>1485.7</ele>
        <time>2024-07-25T02:02:52.382Z</time>
      </trkpt>
      <trkpt lat="42.97561" lon="-0.31303">
        <ele>1487.8</ele>
        <time>2024-07-25T02:03:00.833Z</time>
        <extensions>
          <visugpx:TrkExtension xmlns:visugpx="https://www.visugpx.com/editgpx/">
            <visugpx:node>59</visugpx:node>
            </visugpx:TrkExtension>
        </extensions>
      </trkpt>
      <trkpt lat="42.97562" lon="-0.31314">
        <ele>1488.2</ele>
        <time>2024-07-25T02:03:03.890Z</time>
      </trkpt>
      <trkpt lat="42.97572" lon="-0.31357">
        <ele>1484.8</ele>
        <time>2024-07-25T02:03:13.201Z</time>
      </trkpt>
      <trkpt lat="42.9757" lon="-0.31402">
        <ele>1487.3</ele>
        <time>2024-07-25T02:03:26.782Z</time>
      </trkpt>
      <trkpt lat="42.97568" lon="-0.31417">
        <ele>1487.8</ele>
        <time>2024-07-25T02:03:30.926Z</time>
      </trkpt>
      <trkpt lat="42.97556" lon="-0.31458">
        <ele>1493.1</ele>
        <time>2024-07-25T02:03:49.162Z</time>
      </trkpt>
      <trkpt lat="42.97556" lon="-0.31467">
        <ele>1492.1</ele>
        <time>2024-07-25T02:03:51.019Z</time>
      </trkpt>
      <trkpt lat="42.97563" lon="-0.31497">
        <ele>1485.3</ele>
        <time>2024-07-25T02:03:57.518Z</time>
      </trkpt>
      <trkpt lat="42.97564" lon="-0.31558">
        <ele>1490.8</ele>
        <time>2024-07-25T02:04:19.201Z</time>
      </trkpt>
      <trkpt lat="42.9757" lon="-0.31644">
        <ele>1492.8</ele>
        <time>2024-07-25T02:04:41.704Z</time>
      </trkpt>
      <trkpt lat="42.97568" lon="-0.31678">
        <ele>1495.4</ele>
        <time>2024-07-25T02:04:53.035Z</time>
      </trkpt>
      <trkpt lat="42.97563" lon="-0.31705">
        <ele>1498.1</ele>
        <time>2024-07-25T02:05:03.270Z</time>
        <extensions>
          <visugpx:TrkExtension xmlns:visugpx="https://www.visugpx.com/editgpx/">
            <visugpx:node>60</visugpx:node>
            </visugpx:TrkExtension>
        </extensions>
      </trkpt>
      <trkpt lat="42.97556" lon="-0.31728">
        <ele>1500.2</ele>
        <time>2024-07-25T02:05:11.874Z</time>
      </trkpt>
      <trkpt lat="42.97549" lon="-0.31743">
        <ele>1502</ele>
        <time>2024-07-25T02:05:18.551Z</time>
      </trkpt>
      <trkpt lat="42.97532" lon="-0.31767">
        <ele>1504.9</ele>
        <time>2024-07-25T02:05:30.231Z</time>
      </trkpt>
      <trkpt lat="42.97521" lon="-0.31777">
        <ele>1506.9</ele>
        <time>2024-07-25T02:05:37.343Z</time>
      </trkpt>
      <trkpt lat="42.9751" lon="-0.31784">
        <ele>1508.4</ele>
        <time>2024-07-25T02:05:43.245Z</time>
      </trkpt>
      <trkpt lat="42.97469" lon="-0.31806">
        <ele>1513.8</ele>
        <time>2024-07-25T02:06:04.593Z</time>
      </trkpt>
      <trkpt lat="42.97444" lon="-0.31829">
        <ele>1506.9</ele>
        <time>2024-07-25T02:06:13.093Z</time>
      </trkpt>
      <trkpt lat="42.97437" lon="-0.31831">
        <ele>1507.1</ele>
        <time>2024-07-25T02:06:15.610Z</time>
      </trkpt>
      <trkpt lat="42.9743" lon="-0.3183">
        <ele>1509.3</ele>
        <time>2024-07-25T02:06:22.835Z</time>
      </trkpt>
      <trkpt lat="42.97336" lon="-0.31805">
        <ele>1534.5</ele>
        <time>2024-07-25T02:07:42.866Z</time>
      </trkpt>
      <trkpt lat="42.97303" lon="-0.31803">
        <ele>1533.7</ele>
        <time>2024-07-25T02:07:52.760Z</time>
      </trkpt>
      <trkpt lat="42.97281" lon="-0.31804">
        <ele>1533.7</ele>
        <time>2024-07-25T02:07:59.856Z</time>
      </trkpt>
      <trkpt lat="42.97265" lon="-0.31809">
        <ele>1535.1</ele>
        <time>2024-07-25T02:08:06.836Z</time>
      </trkpt>
      <trkpt lat="42.97259" lon="-0.31814">
        <ele>1535.9</ele>
        <time>2024-07-25T02:08:10.137Z</time>
      </trkpt>
      <trkpt lat="42.97254" lon="-0.31822">
        <ele>1536.4</ele>
        <time>2024-07-25T02:08:13.193Z</time>
      </trkpt>
      <trkpt lat="42.97251" lon="-0.31833">
        <ele>1536.6</ele>
        <time>2024-07-25T02:08:16.171Z</time>
      </trkpt>
      <trkpt lat="42.97238" lon="-0.31942">
        <ele>1542.8</ele>
        <time>2024-07-25T02:08:49.546Z</time>
      </trkpt>
      <trkpt lat="42.97228" lon="-0.32011">
        <ele>1551.5</ele>
        <time>2024-07-25T02:09:19.149Z</time>
      </trkpt>
      <trkpt lat="42.97225" lon="-0.32044">
        <ele>1555.4</ele>
        <time>2024-07-25T02:09:32.690Z</time>
      </trkpt>
      <trkpt lat="42.97227" lon="-0.3208">
        <ele>1554.3</ele>
        <time>2024-07-25T02:09:40.205Z</time>
      </trkpt>
      <trkpt lat="42.97223" lon="-0.3211">
        <ele>1554.5</ele>
        <time>2024-07-25T02:09:47.600Z</time>
      </trkpt>
      <trkpt lat="42.97214" lon="-0.32136">
        <ele>1554.7</ele>
        <time>2024-07-25T02:09:54.587Z</time>
      </trkpt>
      <trkpt lat="42.97197" lon="-0.32168">
        <ele>1558.7</ele>
        <time>2024-07-25T02:10:09.427Z</time>
      </trkpt>
      <trkpt lat="42.97179" lon="-0.32209">
        <ele>1561.5</ele>
        <time>2024-07-25T02:10:24.040Z</time>
      </trkpt>
      <trkpt lat="42.97173" lon="-0.32215">
        <ele>1564.3</ele>
        <time>2024-07-25T02:10:33.958Z</time>
      </trkpt>
      <trkpt lat="42.97155" lon="-0.32226">
        <ele>1569.7</ele>
        <time>2024-07-25T02:10:51.183Z</time>
      </trkpt>
      <trkpt lat="42.97148" lon="-0.32232">
        <ele>1570.3</ele>
        <time>2024-07-25T02:10:54.549Z</time>
      </trkpt>
      <trkpt lat="42.97142" lon="-0.32241">
        <ele>1570.1</ele>
        <time>2024-07-25T02:10:57.232Z</time>
      </trkpt>
      <trkpt lat="42.97138" lon="-0.32252">
        <ele>1569.5</ele>
        <time>2024-07-25T02:10:59.767Z</time>
      </trkpt>
      <trkpt lat="42.97135" lon="-0.32275">
        <ele>1570.8</ele>
        <time>2024-07-25T02:11:06.811Z</time>
      </trkpt>
      <trkpt lat="42.97136" lon="-0.32286">
        <ele>1571.5</ele>
        <time>2024-07-25T02:11:10.272Z</time>
      </trkpt>
      <trkpt lat="42.97145" lon="-0.32316">
        <ele>1571.1</ele>
        <time>2024-07-25T02:11:17.537Z</time>
      </trkpt>
      <trkpt lat="42.97144" lon="-0.32334">
        <ele>1576.5</ele>
        <time>2024-07-25T02:11:37.432Z</time>
      </trkpt>
      <trkpt lat="42.97141" lon="-0.32345">
        <ele>1577.4</ele>
        <time>2024-07-25T02:11:41.340Z</time>
      </trkpt>
      <trkpt lat="42.97136" lon="-0.32358">
        <ele>1578.5</ele>
        <time>2024-07-25T02:11:46.188Z</time>
      </trkpt>
      <trkpt lat="42.9713" lon="-0.32368">
        <ele>1578.7</ele>
        <time>2024-07-25T02:11:49.446Z</time>
      </trkpt>
      <trkpt lat="42.97094" lon="-0.32397">
        <ele>1583.7</ele>
        <time>2024-07-25T02:12:09.487Z</time>
      </trkpt>
      <trkpt lat="42.9709" lon="-0.32404">
        <ele>1584.1</ele>
        <time>2024-07-25T02:12:12.038Z</time>
      </trkpt>
      <trkpt lat="42.97088" lon="-0.32416">
        <ele>1583.2</ele>
        <time>2024-07-25T02:12:14.578Z</time>
        <extensions>
          <visugpx:TrkExtension xmlns:visugpx="https://www.visugpx.com/editgpx/">
            <visugpx:node>61</visugpx:node>
            </visugpx:TrkExtension>
        </extensions>
      </trkpt>
      <trkpt lat="42.9709" lon="-0.32427">
        <ele>1585.6</ele>
        <time>2024-07-25T02:12:22.306Z</time>
      </trkpt>
      <trkpt lat="42.97094" lon="-0.32432">
        <ele>1585.8</ele>
        <time>2024-07-25T02:12:24.268Z</time>
      </trkpt>
      <trkpt lat="42.97119" lon="-0.32452">
        <ele>1587.6</ele>
        <time>2024-07-25T02:12:35.661Z</time>
      </trkpt>
      <trkpt lat="42.97128" lon="-0.32457">
        <ele>1588.6</ele>
        <time>2024-07-25T02:12:40.053Z</time>
      </trkpt>
      <trkpt lat="42.97136" lon="-0.3246">
        <ele>1588.9</ele>
        <time>2024-07-25T02:12:43.049Z</time>
      </trkpt>
      <trkpt lat="42.97193" lon="-0.32469">
        <ele>1592.2</ele>
        <time>2024-07-25T02:13:05.272Z</time>
      </trkpt>
      <trkpt lat="42.97214" lon="-0.32466">
        <ele>1592.2</ele>
        <time>2024-07-25T02:13:12.078Z</time>
      </trkpt>
      <trkpt lat="42.97223" lon="-0.32468">
        <ele>1593.8</ele>
        <time>2024-07-25T02:13:17.453Z</time>
      </trkpt>
      <trkpt lat="42.9723" lon="-0.32472">
        <ele>1594.5</ele>
        <time>2024-07-25T02:13:20.758Z</time>
      </trkpt>
      <trkpt lat="42.97236" lon="-0.32478">
        <ele>1595.1</ele>
        <time>2024-07-25T02:13:23.870Z</time>
      </trkpt>
      <trkpt lat="42.97241" lon="-0.32486">
        <ele>1596.1</ele>
        <time>2024-07-25T02:13:27.701Z</time>
      </trkpt>
      <trkpt lat="42.97248" lon="-0.32508">
        <ele>1599</ele>
        <time>2024-07-25T02:13:37.652Z</time>
      </trkpt>
      <trkpt lat="42.97249" lon="-0.32518">
        <ele>1600.5</ele>
        <time>2024-07-25T02:13:42.497Z</time>
      </trkpt>
      <trkpt lat="42.97246" lon="-0.32542">
        <ele>1602.8</ele>
        <time>2024-07-25T02:13:51.335Z</time>
      </trkpt>
      <trkpt lat="42.97237" lon="-0.32564">
        <ele>1603.7</ele>
        <time>2024-07-25T02:13:58.276Z</time>
      </trkpt>
      <trkpt lat="42.97223" lon="-0.32582">
        <ele>1605</ele>
        <time>2024-07-25T02:14:05.976Z</time>
      </trkpt>
      <trkpt lat="42.97196" lon="-0.32604">
        <ele>1605.8</ele>
        <time>2024-07-25T02:14:16.948Z</time>
      </trkpt>
      <trkpt lat="42.97185" lon="-0.32615">
        <ele>1605.6</ele>
        <time>2024-07-25T02:14:21.149Z</time>
      </trkpt>
      <trkpt lat="42.97175" lon="-0.32626">
        <ele>1605.7</ele>
        <time>2024-07-25T02:14:25.388Z</time>
      </trkpt>
      <trkpt lat="42.97166" lon="-0.32639">
        <ele>1606.1</ele>
        <time>2024-07-25T02:14:30.034Z</time>
      </trkpt>
      <trkpt lat="42.97132" lon="-0.32698">
        <ele>1607.1</ele>
        <time>2024-07-25T02:14:48.780Z</time>
      </trkpt>
      <trkpt lat="42.97122" lon="-0.32726">
        <ele>1608</ele>
        <time>2024-07-25T02:14:57.104Z</time>
      </trkpt>
      <trkpt lat="42.97118" lon="-0.32748">
        <ele>1608.5</ele>
        <time>2024-07-25T02:15:02.981Z</time>
      </trkpt>
      <trkpt lat="42.97119" lon="-0.32759">
        <ele>1609.4</ele>
        <time>2024-07-25T02:15:06.752Z</time>
      </trkpt>
      <trkpt lat="42.97122" lon="-0.32768">
        <ele>1609.8</ele>
        <time>2024-07-25T02:15:09.534Z</time>
      </trkpt>
      <trkpt lat="42.97133" lon="-0.32785">
        <ele>1610.7</ele>
        <time>2024-07-25T02:15:15.895Z</time>
      </trkpt>
      <trkpt lat="42.97148" lon="-0.32802">
        <ele>1610.6</ele>
        <time>2024-07-25T02:15:22.079Z</time>
      </trkpt>
      <trkpt lat="42.97155" lon="-0.32817">
        <ele>1611.5</ele>
        <time>2024-07-25T02:15:27.320Z</time>
      </trkpt>
      <trkpt lat="42.97156" lon="-0.32831">
        <ele>1613.8</ele>
        <time>2024-07-25T02:15:34.639Z</time>
      </trkpt>
      <trkpt lat="42.97149" lon="-0.32867">
        <ele>1616.3</ele>
        <time>2024-07-25T02:15:46.489Z</time>
      </trkpt>
      <trkpt lat="42.97149" lon="-0.3288">
        <ele>1616.2</ele>
        <time>2024-07-25T02:15:49.458Z</time>
      </trkpt>
      <trkpt lat="42.9716" lon="-0.32947">
        <ele>1620.1</ele>
        <time>2024-07-25T02:16:10.273Z</time>
      </trkpt>
      <trkpt lat="42.97169" lon="-0.32988">
        <ele>1622.1</ele>
        <time>2024-07-25T02:16:22.661Z</time>
      </trkpt>
      <trkpt lat="42.97176" lon="-0.33009">
        <ele>1622.5</ele>
        <time>2024-07-25T02:16:28.522Z</time>
      </trkpt>
      <trkpt lat="42.97185" lon="-0.33029">
        <ele>1623.7</ele>
        <time>2024-07-25T02:16:35.455Z</time>
      </trkpt>
      <trkpt lat="42.97197" lon="-0.33053">
        <ele>1627.4</ele>
        <time>2024-07-25T02:16:47.920Z</time>
      </trkpt>
      <trkpt lat="42.9722" lon="-0.33092">
        <ele>1631</ele>
        <time>2024-07-25T02:17:04.217Z</time>
      </trkpt>
      <trkpt lat="42.97223" lon="-0.33102">
        <ele>1631.3</ele>
        <time>2024-07-25T02:17:07.090Z</time>
      </trkpt>
      <trkpt lat="42.97223" lon="-0.33125">
        <ele>1633.6</ele>
        <time>2024-07-25T02:17:15.673Z</time>
      </trkpt>
      <trkpt lat="42.97217" lon="-0.33157">
        <ele>1637.8</ele>
        <time>2024-07-25T02:17:29.827Z</time>
      </trkpt>
      <trkpt lat="42.97216" lon="-0.3317">
        <ele>1638.7</ele>
        <time>2024-07-25T02:17:34.019Z</time>
      </trkpt>
      <trkpt lat="42.97219" lon="-0.33191">
        <ele>1639.2</ele>
        <time>2024-07-25T02:17:39.598Z</time>
      </trkpt>
      <trkpt lat="42.97223" lon="-0.33198">
        <ele>1638.9</ele>
        <time>2024-07-25T02:17:41.431Z</time>
      </trkpt>
      <trkpt lat="42.97229" lon="-0.33202">
        <ele>1640.3</ele>
        <time>2024-07-25T02:17:45.926Z</time>
      </trkpt>
      <trkpt lat="42.97236" lon="-0.33203">
        <ele>1641.1</ele>
        <time>2024-07-25T02:17:49.230Z</time>
      </trkpt>
      <trkpt lat="42.97284" lon="-0.33195">
        <ele>1643.4</ele>
        <time>2024-07-25T02:18:07.356Z</time>
      </trkpt>
      <trkpt lat="42.97298" lon="-0.33197">
        <ele>1644.6</ele>
        <time>2024-07-25T02:18:13.341Z</time>
      </trkpt>
      <trkpt lat="42.97324" lon="-0.33207">
        <ele>1647.5</ele>
        <time>2024-07-25T02:18:25.742Z</time>
      </trkpt>
      <trkpt lat="42.97349" lon="-0.33224">
        <ele>1649.7</ele>
        <time>2024-07-25T02:18:37.356Z</time>
      </trkpt>
      <trkpt lat="42.97361" lon="-0.33235">
        <ele>1650.8</ele>
        <time>2024-07-25T02:18:43.312Z</time>
      </trkpt>
      <trkpt lat="42.97384" lon="-0.33262">
        <ele>1651.8</ele>
        <time>2024-07-25T02:18:54.153Z</time>
      </trkpt>
      <trkpt lat="42.97394" lon="-0.33278">
        <ele>1652.4</ele>
        <time>2024-07-25T02:18:59.765Z</time>
      </trkpt>
      <trkpt lat="42.9741" lon="-0.33313">
        <ele>1654.6</ele>
        <time>2024-07-25T02:19:12.074Z</time>
      </trkpt>
      <trkpt lat="42.97439" lon="-0.334">
        <ele>1661.1</ele>
        <time>2024-07-25T02:19:42.613Z</time>
      </trkpt>
      <trkpt lat="42.97446" lon="-0.33413">
        <ele>1661.1</ele>
        <time>2024-07-25T02:19:46.419Z</time>
      </trkpt>
      <trkpt lat="42.97475" lon="-0.33447">
        <ele>1664.2</ele>
        <time>2024-07-25T02:20:02.438Z</time>
      </trkpt>
      <trkpt lat="42.97482" lon="-0.33459">
        <ele>1665.9</ele>
        <time>2024-07-25T02:20:08.484Z</time>
      </trkpt>
      <trkpt lat="42.97493" lon="-0.33488">
        <ele>1668.9</ele>
        <time>2024-07-25T02:20:20.189Z</time>
      </trkpt>
      <trkpt lat="42.97501" lon="-0.33523">
        <ele>1672.8</ele>
        <time>2024-07-25T02:20:34.314Z</time>
      </trkpt>
      <trkpt lat="42.97511" lon="-0.33593">
        <ele>1677</ele>
        <time>2024-07-25T02:20:56.144Z</time>
      </trkpt>
      <trkpt lat="42.97516" lon="-0.33685">
        <ele>1683.3</ele>
        <time>2024-07-25T02:21:25.654Z</time>
      </trkpt>
      <trkpt lat="42.97521" lon="-0.33708">
        <ele>1684.8</ele>
        <time>2024-07-25T02:21:33.123Z</time>
      </trkpt>
      <trkpt lat="42.97531" lon="-0.33727">
        <ele>1685.8</ele>
        <time>2024-07-25T02:21:39.775Z</time>
      </trkpt>
      <trkpt lat="42.97538" lon="-0.33735">
        <ele>1686.9</ele>
        <time>2024-07-25T02:21:44.165Z</time>
      </trkpt>
      <trkpt lat="42.97559" lon="-0.33754">
        <ele>1688.9</ele>
        <time>2024-07-25T02:21:54.662Z</time>
      </trkpt>
      <trkpt lat="42.97602" lon="-0.33788">
        <ele>1692.8</ele>
        <time>2024-07-25T02:22:15.305Z</time>
      </trkpt>
      <trkpt lat="42.97616" lon="-0.33806">
        <ele>1695.4</ele>
        <time>2024-07-25T02:22:25.057Z</time>
      </trkpt>
      <trkpt lat="42.97625" lon="-0.33829">
        <ele>1698.2</ele>
        <time>2024-07-25T02:22:35.154Z</time>
      </trkpt>
      <trkpt lat="42.97638" lon="-0.33889">
        <ele>1701.4</ele>
        <time>2024-07-25T02:22:53.633Z</time>
      </trkpt>
      <trkpt lat="42.97662" lon="-0.33949">
        <ele>1706.4</ele>
        <time>2024-07-25T02:23:16.014Z</time>
      </trkpt>
      <trkpt lat="42.97662" lon="-0.33968">
        <ele>1708</ele>
        <time>2024-07-25T02:23:22.573Z</time>
      </trkpt>
      <trkpt lat="42.97655" lon="-0.33984">
        <ele>1708.7</ele>
        <time>2024-07-25T02:23:27.749Z</time>
        <extensions>
          <visugpx:TrkExtension xmlns:visugpx="https://www.visugpx.com/editgpx/">
            <visugpx:node>62</visugpx:node>
            </visugpx:TrkExtension>
        </extensions>
      </trkpt>
    </trkseg>
  </trk>
</gpx>